Darstellungsparameter: Aktuell verwendete Einstellungen:
Skalierung der Graphiken ... ?
xyx+y,   Skalierungsfaktor:      Skalierung: Modus: x, Faktor: 1
Darstellungszeitraum ... ?
Vom - - bis: - -   Zeitraum: 03.04.2015 - 01.05.2015
Min/Max/Avg-Anzeige ... ?
Zeige MMA aktuell
Zeige MMA Monat
Zeige MMA alles
Zeige --A aktuell
Zeige --A Monat
Zeige --A alles
Keine MMA-Anzeige
MMA:
Average (ber die Originaldaten)
MMA-Basis: 03.04.2015 - 01.05.2015
Quicknavigation für Darstellung... ?
Tage:      1T, 2T, 3T, 5T -1T -2T -3T -5T +1T +2T +3T +5T
Wochen: 1W, 2W, 3W -1W -2W -3W +1W +2W +3W
Monate: 1M, 3M, 6M -1M -3M -6M +1M +3M +6M
Jahre:    1J, 3J, 5J, 10J -1J -3J -5J -10J +1J +3J +5J +10J
Nutze für die Darstellung ... ?
Originaldaten oder Mittelwerte auf ...
Stundenbasis Tagesbasis Wochenbasis
Monatsbasis Jahresbasis      Datenbasis: Original-Daten
Darstellen als:
Statistik (Auto) Statistik J:M      Darstellung:
Zur Graphik,    zurück zur Übersicht aller Sensoren.
 
Tabellarische Datenbersicht: ?
 
Sensor: Nr:Datum:Temp:Feuchte:
Aussen-T/F 1 03-04-2015 00:08:18 3.1 C 66 %
2 03-04-2015 00:20:17 2.7 C 67 %
3 03-04-2015 00:32:17 2.8 C 68 %
4 03-04-2015 00:44:17 2.8 C 68 %
5 03-04-2015 00:56:17 2.5 C 69 %
6 03-04-2015 01:08:17 2 C 71 %
7 03-04-2015 01:20:17 1.7 C 75 %
8 03-04-2015 01:32:17 1.6 C 76 %
9 03-04-2015 01:44:17 1.4 C 77 %
10 03-04-2015 01:56:17 1.6 C 78 %
11 03-04-2015 02:08:17 2 C 76 %
12 03-04-2015 02:20:17 2.3 C 76 %
13 03-04-2015 02:32:17 2.5 C 73 %
14 03-04-2015 02:44:17 2.6 C 71 %
15 03-04-2015 02:56:17 2.6 C 69 %
16 03-04-2015 03:08:17 2.6 C 69 %
17 03-04-2015 03:20:17 2.5 C 68 %
18 03-04-2015 03:32:17 2 C 70 %
19 03-04-2015 03:44:17 1.6 C 72 %
20 03-04-2015 03:56:17 1 C 74 %
21 03-04-2015 04:08:17 0.5 C 77 %
22 03-04-2015 04:20:17 0.5 C 79 %
23 03-04-2015 04:32:17 0.4 C 81 %
24 03-04-2015 04:44:17 0.3 C 81 %
25 03-04-2015 04:56:17 0.2 C 82 %
Sensor: Nr:Datum:Temp:Feuchte:
Aussen-T/F 26 03-04-2015 05:08:18 0 C 82 %
27 03-04-2015 05:20:17 -0.3 C 83 %
28 03-04-2015 05:32:17 -0.5 C 84 %
29 03-04-2015 05:44:17 -0.5 C 85 %
30 03-04-2015 05:56:17 -0.7 C 86 %
31 03-04-2015 06:08:17 -0.8 C 86 %
32 03-04-2015 06:20:17 -0.9 C 87 %
33 03-04-2015 06:32:17 -0.8 C 87 %
34 03-04-2015 06:44:17 -0.8 C 87 %
35 03-04-2015 06:56:17 -1 C 87 %
36 03-04-2015 07:08:17 -0.8 C 88 %
37 03-04-2015 07:20:17 -0.6 C 88 %
38 03-04-2015 07:32:17 -0.7 C 88 %
39 03-04-2015 07:44:17 -0.6 C 88 %
40 03-04-2015 07:56:17 -0.6 C 88 %
41 03-04-2015 08:08:17 -0.5 C 88 %
42 03-04-2015 08:20:17 -0.5 C 87 %
43 03-04-2015 08:32:17 -0.3 C 87 %
44 03-04-2015 08:44:17 -0.3 C 87 %
45 03-04-2015 08:56:17 -0.2 C 87 %
46 03-04-2015 09:08:17 0.1 C 87 %
47 03-04-2015 09:20:17 0.4 C 87 %
48 03-04-2015 09:32:17 1.4 C 87 %
49 03-04-2015 09:44:17 1.9 C 85 %
50 03-04-2015 09:56:17 2 C 80 %
Sensor: Nr:Datum:Temp:Feuchte:
Aussen-T/F 51 03-04-2015 10:08:17 2.2 C 78 %
52 03-04-2015 10:20:16 3.2 C 75 %
53 03-04-2015 10:32:17 4.1 C 69 %
54 03-04-2015 10:44:17 4.6 C 65 %
55 03-04-2015 10:56:17 4.8 C 62 %
56 03-04-2015 11:08:17 5.2 C 61 %
57 03-04-2015 11:20:17 6 C 59 %
58 03-04-2015 11:32:17 6.7 C 54 %
59 03-04-2015 11:44:17 7 C 50 %
60 03-04-2015 11:56:17 7.3 C 48 %
61 03-04-2015 12:08:17 7.7 C 46 %
62 03-04-2015 12:20:17 8 C 46 %
63 03-04-2015 12:32:17 8.8 C 45 %
64 03-04-2015 12:44:17 9 C 43 %
65 03-04-2015 12:56:17 9 C 42 %
66 03-04-2015 13:08:17 9.1 C 43 %
67 03-04-2015 13:20:17 9.2 C 42 %
68 03-04-2015 13:32:17 9.3 C 40 %
69 03-04-2015 13:44:17 9.4 C 41 %
70 03-04-2015 13:56:17 9.7 C 39 %
71 03-04-2015 14:08:17 10.2 C 37 %
72 03-04-2015 14:20:17 10.4 C 36 %
73 03-04-2015 14:32:17 10.8 C 36 %
74 03-04-2015 14:44:17 10.8 C 34 %
75 03-04-2015 14:56:17 10.8 C 34 %
Sensor: Nr:Datum:Temp:Feuchte:
Aussen-T/F 76 03-04-2015 15:08:17 11 C 35 %
77 03-04-2015 15:20:17 11.1 C 32 %
78 03-04-2015 15:32:17 11.4 C 33 %
79 03-04-2015 15:44:17 11.5 C 33 %
80 03-04-2015 15:56:17 11.8 C 33 %
81 03-04-2015 16:08:17 12 C 31 %
82 03-04-2015 16:20:17 12.5 C 30 %
83 03-04-2015 16:32:17 12.5 C 30 %
84 03-04-2015 16:44:17 12.6 C 30 %
85 03-04-2015 16:56:17 13.1 C 29 %
86 03-04-2015 17:08:17 13 C 29 %
87 03-04-2015 17:20:17 13 C 30 %
88 03-04-2015 17:32:17 12.8 C 29 %
89 03-04-2015 17:44:17 12.8 C 30 %
90 03-04-2015 17:56:17 13 C 28 %
91 03-04-2015 18:08:17 12.5 C 28 %
92 03-04-2015 18:20:17 12.2 C 30 %
93 03-04-2015 18:32:17 11.7 C 30 %
94 03-04-2015 18:44:17 11.3 C 33 %
95 03-04-2015 18:56:17 11 C 36 %
96 03-04-2015 19:08:17 10.2 C 42 %
97 03-04-2015 19:20:17 10.1 C 37 %
98 03-04-2015 19:32:17 9.3 C 47 %
99 03-04-2015 19:44:17 8.6 C 51 %
100 03-04-2015 19:56:17 8 C 52 %
Sensor: Nr:Datum:Temp:Feuchte:
Aussen-T/F 101 03-04-2015 20:08:17 7.7 C 55 %
102 03-04-2015 20:20:17 7.6 C 56 %
103 03-04-2015 20:32:17 7.4 C 56 %
104 03-04-2015 20:44:17 7.2 C 56 %
105 03-04-2015 20:56:17 7.1 C 56 %
106 03-04-2015 21:08:17 7 C 56 %
107 03-04-2015 21:20:17 6.8 C 58 %
108 03-04-2015 21:32:17 6.6 C 58 %
109 03-04-2015 21:44:17 6.7 C 56 %
110 03-04-2015 21:56:17 6.5 C 57 %
111 03-04-2015 22:08:17 6.3 C 59 %
112 03-04-2015 22:20:17 6.3 C 61 %
113 03-04-2015 22:32:17 6.3 C 62 %
114 03-04-2015 22:44:17 6.4 C 62 %
115 03-04-2015 22:56:17 6.3 C 62 %
116 03-04-2015 23:08:17 6.7 C 60 %
117 03-04-2015 23:20:17 6.5 C 61 %
118 03-04-2015 23:32:17 6.5 C 61 %
119 03-04-2015 23:44:17 6.7 C 61 %
120 03-04-2015 23:56:17 6.4 C 62 %
121 04-04-2015 00:08:17 6.5 C 61 %
122 04-04-2015 00:20:17 6.6 C 61 %
123 04-04-2015 00:32:17 6.7 C 61 %
124 04-04-2015 00:44:17 6.7 C 61 %
125 04-04-2015 00:56:17 6.6 C 62 %
Sensor: Nr:Datum:Temp:Feuchte:
Aussen-T/F 126 04-04-2015 01:08:17 6.5 C 63 %
127 04-04-2015 01:20:17 6.4 C 63 %
128 04-04-2015 01:32:17 6.2 C 63 %
129 04-04-2015 01:44:17 5.8 C 65 %
130 04-04-2015 01:56:17 5.8 C 66 %
131 04-04-2015 02:08:17 5.7 C 68 %
132 04-04-2015 02:20:17 5.6 C 69 %
133 04-04-2015 02:32:17 5.6 C 70 %
134 04-04-2015 02:44:17 5.6 C 70 %
135 04-04-2015 02:56:17 5.5 C 71 %
136 04-04-2015 03:08:17 5.5 C 72 %
137 04-04-2015 03:20:17 5.5 C 72 %
138 04-04-2015 03:32:17 5.6 C 72 %
139 04-04-2015 03:44:17 5.6 C 72 %
140 04-04-2015 03:56:17 5.6 C 72 %
141 04-04-2015 04:08:17 5.6 C 71 %
142 04-04-2015 04:20:17 5.7 C 71 %
143 04-04-2015 04:32:17 5.5 C 72 %
144 04-04-2015 04:44:17 5.3 C 73 %
145 04-04-2015 04:56:17 5.3 C 74 %
146 04-04-2015 05:08:17 5.3 C 74 %
147 04-04-2015 05:20:17 5.3 C 75 %
148 04-04-2015 05:32:17 5.2 C 75 %
149 04-04-2015 05:44:17 5.2 C 76 %
150 04-04-2015 05:56:17 5.2 C 76 %
Sensor: Nr:Datum:Temp:Feuchte:
Aussen-T/F 151 04-04-2015 06:08:17 5.2 C 75 %
152 04-04-2015 06:20:17 5.2 C 76 %
153 04-04-2015 06:32:17 5.2 C 78 %
154 04-04-2015 06:44:17 5 C 81 %
155 04-04-2015 06:56:17 5 C 83 %
156 04-04-2015 07:08:17 4.9 C 85 %
157 04-04-2015 07:20:17 4.8 C 87 %
158 04-04-2015 07:32:17 4.7 C 87 %
159 04-04-2015 07:44:17 4.6 C 87 %
160 04-04-2015 07:56:17 4.5 C 88 %
161 04-04-2015 08:08:17 4.5 C 88 %
162 04-04-2015 08:20:17 4.3 C 88 %
163 04-04-2015 08:32:17 4.3 C 88 %
164 04-04-2015 08:44:17 4.3 C 88 %
165 04-04-2015 08:56:17 4.4 C 89 %
166 04-04-2015 09:08:17 4.4 C 89 %
167 04-04-2015 09:20:17 4.4 C 89 %
168 04-04-2015 09:32:17 4.2 C 88 %
169 04-04-2015 09:44:17 4.3 C 88 %
170 04-04-2015 09:56:17 4.2 C 89 %
171 04-04-2015 10:08:17 4.2 C 89 %
172 04-04-2015 10:20:17 4.1 C 88 %
173 04-04-2015 10:32:17 4.2 C 88 %
174 04-04-2015 10:44:17 4.2 C 88 %
175 04-04-2015 10:56:17 4.3 C 89 %
Sensor: Nr:Datum:Temp:Feuchte:
Aussen-T/F 176 04-04-2015 11:08:17 4.4 C 89 %
177 04-04-2015 11:20:17 4.3 C 89 %
178 04-04-2015 11:32:17 4.5 C 89 %
179 04-04-2015 11:44:17 4.7 C 89 %
180 04-04-2015 11:56:17 4.7 C 87 %
181 04-04-2015 12:08:17 4.8 C 85 %
182 04-04-2015 12:20:17 5.1 C 83 %
183 04-04-2015 12:32:17 5.5 C 83 %
184 04-04-2015 12:44:17 5.8 C 81 %
185 04-04-2015 12:56:17 5.9 C 79 %
186 04-04-2015 13:08:17 6.3 C 74 %
187 04-04-2015 13:20:17 6.5 C 67 %
188 04-04-2015 13:32:17 7.3 C 65 %
189 04-04-2015 13:44:17 8 C 60 %
190 04-04-2015 13:56:17 7.9 C 57 %
191 04-04-2015 14:08:17 8 C 54 %
192 04-04-2015 14:20:17 8.1 C 55 %
193 04-04-2015 14:32:17 7.2 C 58 %
194 04-04-2015 14:44:17 7.5 C 63 %
195 04-04-2015 14:56:17 8.4 C 59 %
196 04-04-2015 15:08:17 8.2 C 58 %
197 04-04-2015 15:20:17 7.6 C 58 %
198 04-04-2015 15:32:17 7.5 C 59 %
199 04-04-2015 15:44:17 8.1 C 56 %
200 04-04-2015 15:56:17 9 C 52 %
Sensor: Nr:Datum:Temp:Feuchte:
Aussen-T/F 201 04-04-2015 16:08:17 8.6 C 45 %
202 04-04-2015 16:20:17 9.1 C 37 %
203 04-04-2015 16:32:17 10.3 C 35 %
204 04-04-2015 16:44:17 10.4 C 33 %
205 04-04-2015 16:56:17 10.2 C 30 %
206 04-04-2015 17:08:17 10.8 C 31 %
207 04-04-2015 17:20:17 11.4 C 28 %
208 04-04-2015 17:32:17 10.8 C 30 %
209 04-04-2015 17:44:17 10.1 C 30 %
210 04-04-2015 17:56:16 10.5 C 28 %
211 04-04-2015 18:08:17 11.1 C 29 %
212 04-04-2015 18:20:17 10.2 C 30 %
213 04-04-2015 18:32:17 10 C 30 %
214 04-04-2015 18:44:17 10.7 C 28 %
215 04-04-2015 18:56:17 10.3 C 26 %
216 04-04-2015 19:08:17 8.6 C 31 %
217 04-04-2015 19:20:17 7.7 C 34 %
218 04-04-2015 19:32:17 7.4 C 34 %
219 04-04-2015 19:44:17 7 C 35 %
220 04-04-2015 19:56:17 6.7 C 36 %
221 04-04-2015 20:08:17 6.4 C 36 %
222 04-04-2015 20:20:17 6.1 C 38 %
223 04-04-2015 20:32:17 5.7 C 41 %
224 04-04-2015 20:44:17 5.1 C 45 %
225 04-04-2015 20:56:17 4.3 C 51 %
Sensor: Nr:Datum:Temp:Feuchte:
Aussen-T/F 226 04-04-2015 21:08:17 3.6 C 56 %
227 04-04-2015 21:20:17 3 C 61 %
228 04-04-2015 21:32:17 2.5 C 62 %
229 04-04-2015 21:44:17 2.4 C 63 %
230 04-04-2015 21:56:17 2.6 C 65 %
231 04-04-2015 22:08:18 2.2 C 67 %
232 04-04-2015 22:20:17 2.1 C 67 %
233 04-04-2015 22:32:17 2.2 C 66 %
234 04-04-2015 22:44:17 2.3 C 65 %
235 04-04-2015 22:56:16 1.8 C 68 %
236 04-04-2015 23:08:17 1.3 C 68 %
237 04-04-2015 23:20:17 1.3 C 69 %
238 04-04-2015 23:32:17 1 C 71 %
239 04-04-2015 23:44:17 1.1 C 73 %
240 04-04-2015 23:56:17 1 C 74 %
241 05-04-2015 00:08:17 1 C 75 %
242 05-04-2015 00:20:17 0.7 C 76 %
243 05-04-2015 00:32:17 1.2 C 74 %
244 05-04-2015 00:44:17 1.3 C 74 %
245 05-04-2015 00:56:17 1.3 C 73 %
246 05-04-2015 01:08:17 1.2 C 74 %
247 05-04-2015 01:20:17 1.1 C 74 %
248 05-04-2015 01:32:17 1.1 C 73 %
249 05-04-2015 01:44:17 1.1 C 73 %
250 05-04-2015 01:56:17 0.8 C 76 %
Sensor: Nr:Datum:Temp:Feuchte:
Aussen-T/F 251 05-04-2015 02:08:17 0.6 C 75 %
252 05-04-2015 02:20:17 0.6 C 76 %
253 05-04-2015 02:32:17 0.3 C 78 %
254 05-04-2015 02:44:17 0.2 C 79 %
255 05-04-2015 02:56:17 0.5 C 81 %
256 05-04-2015 03:08:17 0.7 C 83 %
257 05-04-2015 03:20:17 0.8 C 83 %
258 05-04-2015 03:32:17 0.9 C 84 %
259 05-04-2015 03:44:17 1 C 83 %
260 05-04-2015 03:56:17 0.8 C 84 %
261 05-04-2015 04:08:17 0.6 C 84 %
262 05-04-2015 04:20:17 0.6 C 84 %
263 05-04-2015 04:32:17 0.7 C 85 %
264 05-04-2015 04:44:17 0.8 C 84 %
265 05-04-2015 04:56:17 0.8 C 85 %
266 05-04-2015 05:08:17 0.7 C 84 %
267 05-04-2015 05:20:17 0.6 C 84 %
268 05-04-2015 05:32:17 0.8 C 85 %
269 05-04-2015 05:44:17 1 C 84 %
270 05-04-2015 05:56:17 1 C 83 %
271 05-04-2015 06:08:17 0.5 C 83 %
272 05-04-2015 06:20:17 0.3 C 84 %
273 05-04-2015 06:32:17 0.2 C 84 %
274 05-04-2015 06:44:17 0.2 C 85 %
275 05-04-2015 06:56:17 0.1 C 85 %
Sensor: Nr:Datum:Temp:Feuchte:
Aussen-T/F 276 05-04-2015 07:08:17 0.1 C 85 %
277 05-04-2015 07:20:17 0.3 C 86 %
278 05-04-2015 07:32:17 0.3 C 86 %
279 05-04-2015 07:44:17 0.3 C 86 %
280 05-04-2015 07:56:17 0.4 C 86 %
281 05-04-2015 08:08:17 0.5 C 87 %
282 05-04-2015 08:20:17 0.4 C 87 %
283 05-04-2015 08:32:16 0.6 C 87 %
284 05-04-2015 08:44:16 0.8 C 87 %
285 05-04-2015 08:56:17 0.8 C 87 %
286 05-04-2015 09:08:17 1 C 86 %
287 05-04-2015 09:20:17 1.2 C 86 %
288 05-04-2015 09:32:17 1.4 C 86 %
289 05-04-2015 09:44:17 1.6 C 86 %
290 05-04-2015 09:56:17 1.9 C 85 %
291 05-04-2015 10:08:17 2.2 C 84 %
292 05-04-2015 10:20:17 2.6 C 83 %
293 05-04-2015 10:32:17 3.2 C 79 %
294 05-04-2015 10:44:17 3.7 C 76 %
295 05-04-2015 10:56:17 4.6 C 68 %
296 05-04-2015 11:08:17 5.3 C 61 %
297 05-04-2015 11:20:17 5.9 C 57 %
298 05-04-2015 11:32:17 5.9 C 55 %
299 05-04-2015 11:44:17 5.2 C 61 %
300 05-04-2015 11:56:16 5.7 C 62 %
Sensor: Nr:Datum:Temp:Feuchte:
Aussen-T/F 301 05-04-2015 12:08:17 7 C 48 %
302 05-04-2015 12:20:17 7.1 C 47 %
303 05-04-2015 12:32:17 7.4 C 47 %
304 05-04-2015 12:44:17 7.7 C 45 %
305 05-04-2015 12:56:17 7.6 C 44 %
306 05-04-2015 13:08:17 8.2 C 40 %
307 05-04-2015 13:20:17 9.1 C 38 %
308 05-04-2015 13:32:17 8.8 C 39 %
309 05-04-2015 13:44:17 8.8 C 38 %
310 05-04-2015 13:56:17 9 C 34 %
311 05-04-2015 14:08:17 8.9 C 32 %
312 05-04-2015 14:20:17 9.8 C 30 %
313 05-04-2015 14:32:17 9.7 C 32 %
314 05-04-2015 14:44:17 10 C 30 %
315 05-04-2015 14:56:17 10 C 28 %
316 05-04-2015 15:08:17 10 C 26 %
317 05-04-2015 15:20:17 11.2 C 25 %
318 05-04-2015 15:32:17 10.6 C 20 %
319 05-04-2015 15:44:17 10.8 C 23 %
320 05-04-2015 15:56:17 11.8 C 20 %
321 05-04-2015 16:08:17 11 C 20 %
322 05-04-2015 16:20:17 10.4 C 25 %
323 05-04-2015 16:32:17 10.3 C 25 %
324 05-04-2015 16:44:17 10.4 C 21 %
325 05-04-2015 16:56:17 12.2 C 20 %
Sensor: Nr:Datum:Temp:Feuchte:
Aussen-T/F 326 05-04-2015 17:08:17 11.5 C 24 %
327 05-04-2015 17:20:17 13.8 C 20 %
328 05-04-2015 17:32:17 13.6 C 20 %
329 05-04-2015 17:44:17 11.3 C 20 %
330 05-04-2015 17:56:17 11.2 C 23 %
331 05-04-2015 18:08:17 11.3 C 20 %
332 05-04-2015 18:20:17 10.4 C 25 %
333 05-04-2015 18:32:17 10.2 C 25 %
334 05-04-2015 18:44:17 11.8 C 23 %
335 05-04-2015 18:56:17 13.5 C 20 %
336 05-04-2015 19:08:17 10.8 C 23 %
337 05-04-2015 19:20:17 10 C 26 %
338 05-04-2015 19:32:17 9.5 C 29 %
339 05-04-2015 19:44:17 9.2 C 30 %
340 05-04-2015 19:56:17 8.9 C 28 %
341 05-04-2015 20:08:17 8.7 C 29 %
342 05-04-2015 20:20:17 8.1 C 34 %
343 05-04-2015 20:32:17 6.7 C 43 %
344 05-04-2015 20:44:17 5.9 C 48 %
345 05-04-2015 20:56:16 5 C 49 %
346 05-04-2015 21:08:17 4.5 C 51 %
347 05-04-2015 21:20:17 4.2 C 55 %
348 05-04-2015 21:32:17 3.9 C 56 %
349 05-04-2015 21:44:17 3.7 C 58 %
350 05-04-2015 21:56:17 3.5 C 60 %
Sensor: Nr:Datum:Temp:Feuchte:
Aussen-T/F 351 05-04-2015 22:08:17 3.4 C 60 %
352 05-04-2015 22:20:17 3 C 62 %
353 05-04-2015 22:32:17 2.8 C 62 %
354 05-04-2015 22:44:17 2.6 C 62 %
355 05-04-2015 22:56:17 2.6 C 62 %
356 05-04-2015 23:08:17 2.5 C 65 %
357 05-04-2015 23:20:17 2.2 C 67 %
358 05-04-2015 23:32:17 1.7 C 69 %
359 05-04-2015 23:44:17 1.4 C 70 %
360 05-04-2015 23:56:17 1 C 71 %
361 06-04-2015 00:08:17 0.9 C 72 %
362 06-04-2015 00:20:17 0.6 C 72 %
363 06-04-2015 00:32:17 0.5 C 72 %
364 06-04-2015 00:44:17 0.4 C 73 %
365 06-04-2015 00:56:17 0.7 C 74 %
366 06-04-2015 01:08:17 0.7 C 74 %
367 06-04-2015 01:20:17 0.4 C 73 %
368 06-04-2015 01:32:17 0.2 C 73 %
369 06-04-2015 01:44:17 0.2 C 74 %
370 06-04-2015 01:56:17 0.2 C 74 %
371 06-04-2015 02:08:17 0.1 C 74 %
372 06-04-2015 02:20:17 0.2 C 74 %
373 06-04-2015 02:32:17 0.4 C 75 %
374 06-04-2015 02:44:18 0.2 C 75 %
375 06-04-2015 02:56:17 0.7 C 74 %
Sensor: Nr:Datum:Temp:Feuchte:
Aussen-T/F 376 06-04-2015 03:08:17 1 C 73 %
377 06-04-2015 03:20:17 1.1 C 73 %
378 06-04-2015 03:32:17 1.2 C 71 %
379 06-04-2015 03:44:17 1.1 C 71 %
380 06-04-2015 03:56:17 1.1 C 71 %
381 06-04-2015 04:08:18 1.1 C 71 %
382 06-04-2015 04:20:17 1.1 C 70 %
383 06-04-2015 04:32:17 1.1 C 70 %
384 06-04-2015 04:44:17 1.2 C 69 %
385 06-04-2015 04:56:17 1.2 C 69 %
386 06-04-2015 05:08:17 1.3 C 68 %
387 06-04-2015 05:20:17 1 C 69 %
388 06-04-2015 05:32:17 0.8 C 71 %
389 06-04-2015 05:44:17 0.5 C 72 %
390 06-04-2015 05:56:17 0.6 C 75 %
391 06-04-2015 06:08:17 0.8 C 76 %
392 06-04-2015 06:20:17 0.9 C 75 %
393 06-04-2015 06:32:17 1 C 74 %
394 06-04-2015 06:44:17 1.1 C 73 %
395 06-04-2015 06:56:17 1.1 C 72 %
396 06-04-2015 07:08:17 1.2 C 72 %
397 06-04-2015 07:20:17 1.2 C 72 %
398 06-04-2015 07:32:17 1.3 C 72 %
399 06-04-2015 07:44:17 1.4 C 72 %
400 06-04-2015 07:56:17 1.5 C 72 %
Sensor: Nr:Datum:Temp:Feuchte:
Aussen-T/F 401 06-04-2015 08:08:17 1.6 C 71 %
402 06-04-2015 08:20:17 1.8 C 71 %
403 06-04-2015 08:32:17 1.9 C 69 %
404 06-04-2015 08:44:17 2 C 68 %
405 06-04-2015 08:56:17 2.3 C 69 %
406 06-04-2015 09:08:17 2.5 C 68 %
407 06-04-2015 09:20:17 2.5 C 68 %
408 06-04-2015 09:32:17 2.8 C 68 %
409 06-04-2015 09:44:17 3.4 C 67 %
410 06-04-2015 09:56:17 3.8 C 65 %
411 06-04-2015 10:08:17 4.1 C 64 %
412 06-04-2015 10:20:16 4.4 C 63 %
413 06-04-2015 10:32:17 4.6 C 62 %
414 06-04-2015 10:44:17 4.9 C 62 %
415 06-04-2015 10:56:17 5.2 C 61 %
416 06-04-2015 11:08:17 5.4 C 61 %
417 06-04-2015 11:20:17 5.6 C 60 %
418 06-04-2015 11:32:17 6 C 60 %
419 06-04-2015 11:44:17 6.5 C 57 %
420 06-04-2015 11:56:17 7.4 C 53 %
421 06-04-2015 12:08:17 7.9 C 52 %
422 06-04-2015 12:20:17 7.9 C 52 %
423 06-04-2015 12:32:17 8.3 C 51 %
424 06-04-2015 12:44:17 8.5 C 49 %
425 06-04-2015 12:56:17 8.7 C 50 %
Sensor: Nr:Datum:Temp:Feuchte:
Aussen-T/F 426 06-04-2015 13:08:17 8.9 C 49 %
427 06-04-2015 13:20:17 8.9 C 47 %
428 06-04-2015 13:32:17 9.1 C 45 %
429 06-04-2015 13:44:17 9.2 C 45 %
430 06-04-2015 13:56:17 9.2 C 45 %
431 06-04-2015 14:08:17 8.8 C 46 %
432 06-04-2015 14:20:17 8.8 C 46 %
433 06-04-2015 14:32:17 9 C 46 %
434 06-04-2015 14:44:18 9.7 C 46 %
435 06-04-2015 14:56:17 10.1 C 45 %
436 06-04-2015 15:08:17 9.8 C 46 %
437 06-04-2015 15:20:17 9.6 C 47 %
438 06-04-2015 15:32:17 9.7 C 47 %
439 06-04-2015 15:44:17 10.5 C 46 %
440 06-04-2015 15:56:17 11.3 C 44 %
441 06-04-2015 16:08:17 11.4 C 43 %
442 06-04-2015 16:20:17 11.6 C 42 %
443 06-04-2015 16:32:17 12.7 C 40 %
444 06-04-2015 16:44:17 12.2 C 40 %
445 06-04-2015 16:56:17 12.9 C 41 %
446 06-04-2015 17:08:17 12.5 C 38 %
447 06-04-2015 17:20:17 12.4 C 40 %
448 06-04-2015 17:32:17 13.2 C 37 %
449 06-04-2015 17:44:17 12.5 C 38 %
450 06-04-2015 17:56:17 11.4 C 43 %
Sensor: Nr:Datum:Temp:Feuchte:
Aussen-T/F 451 06-04-2015 18:08:17 10.8 C 45 %
452 06-04-2015 18:20:17 12.2 C 40 %
453 06-04-2015 18:32:17 11 C 43 %
454 06-04-2015 18:44:17 10.4 C 46 %
455 06-04-2015 18:56:17 9.9 C 47 %
456 06-04-2015 19:08:17 9.6 C 48 %
457 06-04-2015 19:20:17 9.7 C 48 %
458 06-04-2015 19:32:17 9.5 C 48 %
459 06-04-2015 19:44:17 9.2 C 50 %
460 06-04-2015 19:56:17 8.8 C 53 %
461 06-04-2015 20:08:17 8.4 C 57 %
462 06-04-2015 20:20:17 7.5 C 59 %
463 06-04-2015 20:32:17 7.1 C 61 %
464 06-04-2015 20:44:17 5.5 C 67 %
465 06-04-2015 20:56:17 5.2 C 70 %
466 06-04-2015 21:08:17 5.2 C 71 %
467 06-04-2015 21:20:17 4.8 C 73 %
468 06-04-2015 21:32:17 4.6 C 75 %
469 06-04-2015 21:44:17 4.5 C 76 %
470 06-04-2015 21:56:17 4.5 C 77 %
471 06-04-2015 22:08:17 4.3 C 77 %
472 06-04-2015 22:20:17 4.1 C 78 %
473 06-04-2015 22:32:17 4 C 78 %
474 06-04-2015 22:44:17 3.9 C 80 %
475 06-04-2015 22:56:17 3.7 C 80 %
Sensor: Nr:Datum:Temp:Feuchte:
Aussen-T/F 476 06-04-2015 23:08:17 3.6 C 81 %
477 06-04-2015 23:20:17 3.3 C 81 %
478 06-04-2015 23:32:17 2.9 C 82 %
479 06-04-2015 23:44:17 2.5 C 83 %
480 06-04-2015 23:56:17 2.2 C 83 %
481 07-04-2015 00:08:17 2 C 84 %
482 07-04-2015 00:20:17 1.7 C 85 %
483 07-04-2015 00:32:17 1.5 C 86 %
484 07-04-2015 00:44:17 1.5 C 87 %
485 07-04-2015 00:56:17 1.3 C 87 %
486 07-04-2015 01:08:17 1.3 C 87 %
487 07-04-2015 01:20:17 1.1 C 87 %
488 07-04-2015 01:32:17 0.8 C 88 %
489 07-04-2015 01:44:17 0.7 C 89 %
490 07-04-2015 01:56:17 0.6 C 89 %
491 07-04-2015 02:08:17 0.6 C 89 %
492 07-04-2015 02:20:17 0.5 C 90 %
493 07-04-2015 02:32:17 0.5 C 90 %
494 07-04-2015 02:44:17 0.5 C 90 %
495 07-04-2015 02:56:17 0.3 C 90 %
496 07-04-2015 03:08:17 0.1 C 90 %
497 07-04-2015 03:20:17 0 C 90 %
498 07-04-2015 03:32:17 -0.3 C 91 %
499 07-04-2015 03:44:17 0.1 C 91 %
500 07-04-2015 03:56:17 0.1 C 92 %
Sensor: Nr:Datum:Temp:Feuchte:
Aussen-T/F 501 07-04-2015 04:08:17 -0.1 C 92 %
502 07-04-2015 04:20:17 -0.4 C 92 %
503 07-04-2015 04:32:17 -0.5 C 92 %
504 07-04-2015 04:44:17 -0.3 C 92 %
505 07-04-2015 04:56:17 -0.4 C 92 %
506 07-04-2015 05:08:17 -0.6 C 92 %
507 07-04-2015 05:20:17 -0.6 C 92 %
508 07-04-2015 05:32:17 -0.7 C 93 %
509 07-04-2015 05:44:17 -0.8 C 93 %
510 07-04-2015 05:56:16 -0.8 C 93 %
511 07-04-2015 06:08:17 -0.7 C 93 %
512 07-04-2015 06:20:17 -0.9 C 93 %
513 07-04-2015 06:32:17 -0.9 C 93 %
514 07-04-2015 06:44:17 -0.5 C 94 %
515 07-04-2015 06:56:17 -0.3 C 94 %
516 07-04-2015 07:08:17 -0.2 C 94 %
517 07-04-2015 07:20:17 -0.5 C 94 %
518 07-04-2015 07:32:17 -0.3 C 94 %
519 07-04-2015 07:44:17 -0.4 C 94 %
520 07-04-2015 07:56:17 -0.2 C 94 %
521 07-04-2015 08:08:17 -0.1 C 94 %
522 07-04-2015 08:20:17 0 C 94 %
523 07-04-2015 08:32:17 0 C 94 %
524 07-04-2015 08:44:17 0.1 C 94 %
525 07-04-2015 08:56:17 0.4 C 94 %
Sensor: Nr:Datum:Temp:Feuchte:
Aussen-T/F 526 07-04-2015 09:08:17 0.4 C 94 %
527 07-04-2015 09:20:17 0.8 C 94 %
528 07-04-2015 09:32:17 1.2 C 93 %
529 07-04-2015 09:44:17 1.1 C 92 %
530 07-04-2015 09:56:17 2 C 92 %
531 07-04-2015 10:08:17 2 C 90 %
532 07-04-2015 10:20:17 2.4 C 90 %
533 07-04-2015 10:32:17 2.8 C 88 %
534 07-04-2015 10:44:17 3.1 C 85 %
535 07-04-2015 10:56:17 3.9 C 84 %
536 07-04-2015 11:08:17 4.5 C 81 %
537 07-04-2015 11:20:17 5.7 C 73 %
538 07-04-2015 11:32:17 6.1 C 69 %
539 07-04-2015 11:44:17 6.5 C 65 %
540 07-04-2015 11:56:17 7.2 C 61 %
541 07-04-2015 12:08:17 7.7 C 58 %
542 07-04-2015 12:20:17 8.4 C 47 %
543 07-04-2015 12:32:17 8.9 C 44 %
544 07-04-2015 12:44:17 9.3 C 40 %
545 07-04-2015 12:56:17 9.5 C 40 %
546 07-04-2015 13:08:17 10.1 C 40 %
547 07-04-2015 13:20:17 10.2 C 40 %
548 07-04-2015 13:32:17 10.6 C 39 %
549 07-04-2015 13:44:17 10.5 C 38 %
550 07-04-2015 13:56:17 10.9 C 40 %
Sensor: Nr:Datum:Temp:Feuchte:
Aussen-T/F 551 07-04-2015 14:08:17 11.4 C 36 %
552 07-04-2015 14:20:17 12.4 C 35 %
553 07-04-2015 14:32:17 12.7 C 33 %
554 07-04-2015 14:44:17 12.8 C 32 %
555 07-04-2015 14:56:17 13.2 C 31 %
556 07-04-2015 15:08:17 13.3 C 30 %
557 07-04-2015 15:20:17 13.4 C 30 %
558 07-04-2015 15:32:17 13.5 C 30 %
559 07-04-2015 15:44:17 13.8 C 29 %
560 07-04-2015 15:56:17 14.4 C 26 %
561 07-04-2015 16:08:17 14.4 C 28 %
562 07-04-2015 16:20:17 14.2 C 27 %
563 07-04-2015 16:32:17 15.2 C 27 %
564 07-04-2015 16:44:17 14.9 C 28 %
565 07-04-2015 16:56:17 14.8 C 30 %
566 07-04-2015 17:08:17 14.2 C 29 %
567 07-04-2015 17:20:17 14 C 29 %
568 07-04-2015 17:32:17 13.8 C 30 %
569 07-04-2015 17:44:17 14.1 C 30 %
570 07-04-2015 17:56:17 14.1 C 30 %
571 07-04-2015 18:08:17 13.9 C 31 %
572 07-04-2015 18:20:17 13.6 C 31 %
573 07-04-2015 18:32:17 13.4 C 34 %
574 07-04-2015 18:44:17 13.2 C 35 %
575 07-04-2015 18:56:17 12.6 C 40 %
Sensor: Nr:Datum:Temp:Feuchte:
Aussen-T/F 576 07-04-2015 19:08:17 12.2 C 40 %
577 07-04-2015 19:20:17 12.1 C 37 %
578 07-04-2015 19:32:17 11.8 C 40 %
579 07-04-2015 19:44:17 11.7 C 40 %
580 07-04-2015 19:56:17 10.1 C 47 %
581 07-04-2015 20:08:17 9.3 C 50 %
582 07-04-2015 20:20:17 8.9 C 51 %
583 07-04-2015 20:32:17 8.8 C 50 %
584 07-04-2015 20:44:17 8.6 C 52 %
585 07-04-2015 20:56:17 7.7 C 56 %
586 07-04-2015 21:08:17 7.3 C 57 %
587 07-04-2015 21:20:17 7.1 C 58 %
588 07-04-2015 21:32:17 6.6 C 61 %
589 07-04-2015 21:44:17 6.4 C 62 %
590 07-04-2015 21:56:17 6.1 C 63 %
591 07-04-2015 22:08:17 5.7 C 66 %
592 07-04-2015 22:20:17 5.4 C 67 %
593 07-04-2015 22:32:17 5.2 C 68 %
594 07-04-2015 22:44:17 4.9 C 70 %
595 07-04-2015 22:56:17 4.6 C 71 %
596 07-04-2015 23:08:17 4.4 C 71 %
597 07-04-2015 23:20:17 4.4 C 71 %
598 07-04-2015 23:32:17 4.2 C 71 %
599 07-04-2015 23:44:17 3.7 C 72 %
600 07-04-2015 23:56:17 3.4 C 73 %
Sensor: Nr:Datum:Temp:Feuchte:
Aussen-T/F 601 08-04-2015 00:08:17 3.3 C 74 %
602 08-04-2015 00:20:17 3.2 C 75 %
603 08-04-2015 00:32:17 3.1 C 77 %
604 08-04-2015 00:44:17 3 C 77 %
605 08-04-2015 00:56:17 2.9 C 78 %
606 08-04-2015 01:08:17 2.9 C 79 %
607 08-04-2015 01:20:17 2.7 C 79 %
608 08-04-2015 01:32:17 2.9 C 80 %
609 08-04-2015 01:44:17 2.9 C 80 %
610 08-04-2015 01:56:17 3 C 79 %
611 08-04-2015 02:08:17 3 C 78 %
612 08-04-2015 02:20:17 2.8 C 79 %
613 08-04-2015 02:32:17 2.6 C 79 %
614 08-04-2015 02:44:17 2.8 C 80 %
615 08-04-2015 02:56:17 2.6 C 80 %
616 08-04-2015 03:08:17 2.4 C 80 %
617 08-04-2015 03:20:17 2.1 C 81 %
618 08-04-2015 03:32:17 2 C 81 %
619 08-04-2015 03:44:17 2.2 C 82 %
620 08-04-2015 03:56:17 2.2 C 82 %
621 08-04-2015 04:08:17 2.1 C 82 %
622 08-04-2015 04:20:17 1.9 C 83 %
623 08-04-2015 04:32:17 2 C 83 %
624 08-04-2015 04:44:17 1.9 C 84 %
625 08-04-2015 04:56:17 1.7 C 84 %
Sensor: Nr:Datum:Temp:Feuchte:
Aussen-T/F 626 08-04-2015 05:08:17 1.7 C 84 %
627 08-04-2015 05:20:17 1.5 C 85 %
628 08-04-2015 05:32:17 1.5 C 85 %
629 08-04-2015 05:44:17 1 C 84 %
630 08-04-2015 05:56:17 1 C 85 %
631 08-04-2015 06:08:17 0.9 C 86 %
632 08-04-2015 06:20:17 0.9 C 87 %
633 08-04-2015 06:32:17 0.8 C 87 %
634 08-04-2015 06:44:17 0.7 C 87 %
635 08-04-2015 06:56:17 0.7 C 88 %
636 08-04-2015 07:08:17 0.5 C 88 %
637 08-04-2015 07:20:17 0.6 C 88 %
638 08-04-2015 07:32:17 1 C 88 %
639 08-04-2015 07:44:17 1.2 C 89 %
640 08-04-2015 07:56:17 1.2 C 89 %
641 08-04-2015 08:08:17 1.5 C 89 %
642 08-04-2015 08:20:17 1.9 C 89 %
643 08-04-2015 08:32:17 2.2 C 89 %
644 08-04-2015 08:44:17 2.4 C 88 %
645 08-04-2015 08:56:17 2.8 C 87 %
646 08-04-2015 09:08:17 3.2 C 85 %
647 08-04-2015 09:20:17 3.6 C 83 %
648 08-04-2015 09:32:17 4 C 80 %
649 08-04-2015 09:44:17 4.3 C 77 %
650 08-04-2015 09:56:17 4.6 C 75 %
Sensor: Nr:Datum:Temp:Feuchte:
Aussen-T/F 651 08-04-2015 10:08:17 5 C 72 %
652 08-04-2015 10:20:17 5.1 C 71 %
653 08-04-2015 10:32:17 6.1 C 68 %
654 08-04-2015 10:44:17 7.1 C 65 %
655 08-04-2015 10:56:17 7.9 C 65 %
656 08-04-2015 11:08:18 8.8 C 61 %
657 08-04-2015 11:20:17 9 C 59 %
658 08-04-2015 11:32:17 9.1 C 58 %
659 08-04-2015 11:44:17 9.3 C 58 %
660 08-04-2015 11:56:17 9.8 C 58 %
661 08-04-2015 12:08:17 10.1 C 56 %
662 08-04-2015 12:20:17 10.6 C 56 %
663 08-04-2015 12:32:17 10.8 C 54 %
664 08-04-2015 12:44:17 11 C 54 %
665 08-04-2015 12:56:17 11.3 C 54 %
666 08-04-2015 13:08:17 11.4 C 53 %
667 08-04-2015 13:20:17 11.6 C 53 %
668 08-04-2015 13:32:17 12.1 C 52 %
669 08-04-2015 13:44:17 12.3 C 50 %
670 08-04-2015 13:56:17 12.9 C 49 %
671 08-04-2015 14:08:17 13.1 C 47 %
672 08-04-2015 14:20:17 13.2 C 47 %
673 08-04-2015 14:32:17 13.9 C 46 %
674 08-04-2015 14:44:17 14.3 C 43 %
675 08-04-2015 14:56:17 14.6 C 43 %
Sensor: Nr:Datum:Temp:Feuchte:
Aussen-T/F 676 08-04-2015 15:08:18 14.7 C 43 %
677 08-04-2015 15:20:17 15.4 C 41 %
678 08-04-2015 15:32:17 15.2 C 41 %
679 08-04-2015 15:44:17 16.2 C 41 %
680 08-04-2015 15:56:17 16.4 C 40 %
681 08-04-2015 16:08:17 16.5 C 38 %
682 08-04-2015 16:20:17 16.9 C 37 %
683 08-04-2015 16:32:17 16.9 C 36 %
684 08-04-2015 16:44:17 17 C 36 %
685 08-04-2015 16:56:17 17.1 C 35 %
686 08-04-2015 17:08:17 17.5 C 35 %
687 08-04-2015 17:20:17 18.9 C 33 %
688 08-04-2015 17:32:17 19.1 C 32 %
689 08-04-2015 17:44:17 18.9 C 34 %
690 08-04-2015 17:56:17 18.6 C 34 %
691 08-04-2015 18:08:17 18.2 C 33 %
692 08-04-2015 18:20:17 18.5 C 34 %
693 08-04-2015 18:32:17 18.7 C 35 %
694 08-04-2015 18:44:17 19.2 C 33 %
695 08-04-2015 18:56:17 19.3 C 32 %
696 08-04-2015 19:08:17 16.5 C 38 %
697 08-04-2015 19:20:17 15.2 C 42 %
698 08-04-2015 19:32:17 14.6 C 44 %
699 08-04-2015 19:44:17 14 C 46 %
700 08-04-2015 19:56:17 13 C 49 %
Sensor: Nr:Datum:Temp:Feuchte:
Aussen-T/F 701 08-04-2015 20:08:17 11.8 C 55 %
702 08-04-2015 20:20:17 11 C 58 %
703 08-04-2015 20:32:17 10.9 C 59 %
704 08-04-2015 20:44:17 10.8 C 60 %
705 08-04-2015 20:56:17 10.1 C 60 %
706 08-04-2015 21:08:18 9.5 C 64 %
707 08-04-2015 21:20:17 9.2 C 65 %
708 08-04-2015 21:32:17 8.8 C 67 %
709 08-04-2015 21:44:17 8.7 C 68 %
710 08-04-2015 21:56:17 8.6 C 68 %
711 08-04-2015 22:08:17 8.4 C 68 %
712 08-04-2015 22:20:17 8.2 C 69 %
713 08-04-2015 22:32:17 7.8 C 71 %
714 08-04-2015 22:44:17 7.4 C 72 %
715 08-04-2015 22:56:17 7.2 C 74 %
716 08-04-2015 23:08:17 7.2 C 75 %
717 08-04-2015 23:20:17 6.8 C 76 %
718 08-04-2015 23:32:17 6.5 C 77 %
719 08-04-2015 23:44:17 6.3 C 78 %
720 08-04-2015 23:56:17 6 C 78 %
721 09-04-2015 00:08:17 5.7 C 80 %
722 09-04-2015 00:20:17 5.6 C 81 %
723 09-04-2015 00:32:17 5.5 C 81 %
724 09-04-2015 00:44:17 5.2 C 82 %
725 09-04-2015 00:56:17 5.3 C 82 %
Sensor: Nr:Datum:Temp:Feuchte:
Aussen-T/F 726 09-04-2015 01:08:17 5.1 C 83 %
727 09-04-2015 01:20:17 4.8 C 84 %
728 09-04-2015 01:32:17 4.6 C 84 %
729 09-04-2015 01:44:17 4.5 C 85 %
730 09-04-2015 01:56:17 4.6 C 85 %
731 09-04-2015 02:08:18 4.6 C 86 %
732 09-04-2015 02:20:17 4.3 C 86 %
733 09-04-2015 02:32:17 4 C 86 %
734 09-04-2015 02:44:17 4 C 87 %
735 09-04-2015 02:56:17 3.9 C 88 %
736 09-04-2015 03:08:17 3.7 C 88 %
737 09-04-2015 03:20:17 3.6 C 88 %
738 09-04-2015 03:32:17 3.5 C 89 %
739 09-04-2015 03:44:17 3.4 C 89 %
740 09-04-2015 03:56:17 3.5 C 89 %
741 09-04-2015 04:08:17 3.5 C 90 %
742 09-04-2015 04:20:17 3.5 C 90 %
743 09-04-2015 04:32:17 3.2 C 90 %
744 09-04-2015 04:44:17 3 C 90 %
745 09-04-2015 04:56:17 3.2 C 90 %
746 09-04-2015 05:08:17 3 C 90 %
747 09-04-2015 05:20:17 2.8 C 91 %
748 09-04-2015 05:32:17 2.9 C 92 %
749 09-04-2015 05:44:17 2.7 C 92 %
750 09-04-2015 05:56:17 2.3 C 91 %
Sensor: Nr:Datum:Temp:Feuchte:
Aussen-T/F 751 09-04-2015 06:08:17 2.2 C 92 %
752 09-04-2015 06:20:17 2.3 C 92 %
753 09-04-2015 06:32:17 2.2 C 92 %
754 09-04-2015 06:44:17 2.2 C 92 %
755 09-04-2015 06:56:17 2.2 C 92 %
756 09-04-2015 07:08:17 2.1 C 92 %
757 09-04-2015 07:20:16 2.6 C 93 %
758 09-04-2015 07:32:17 2.8 C 93 %
759 09-04-2015 07:44:17 2.7 C 93 %
760 09-04-2015 07:56:17 2.9 C 94 %
761 09-04-2015 08:08:17 3 C 93 %
762 09-04-2015 08:20:17 3.2 C 93 %
763 09-04-2015 08:32:17 3.4 C 93 %
764 09-04-2015 08:44:17 3.6 C 93 %
765 09-04-2015 08:56:17 4.1 C 93 %
766 09-04-2015 09:08:17 4.2 C 93 %
767 09-04-2015 09:20:17 4.6 C 93 %
768 09-04-2015 09:32:17 5 C 93 %
769 09-04-2015 09:44:17 5.5 C 93 %
770 09-04-2015 09:56:17 5.8 C 93 %
771 09-04-2015 10:08:17 6.3 C 91 %
772 09-04-2015 10:20:17 6.9 C 91 %
773 09-04-2015 10:32:17 7.4 C 88 %
774 09-04-2015 10:44:17 8.4 C 84 %
775 09-04-2015 10:56:17 9.1 C 79 %
Sensor: Nr:Datum:Temp:Feuchte:
Aussen-T/F 776 09-04-2015 11:08:17 9.9 C 76 %
777 09-04-2015 11:20:17 10.6 C 70 %
778 09-04-2015 11:32:17 11.3 C 68 %
779 09-04-2015 11:44:17 11.7 C 65 %
780 09-04-2015 11:56:17 12.4 C 59 %
781 09-04-2015 12:08:17 13.3 C 56 %
782 09-04-2015 12:20:17 13.6 C 54 %
783 09-04-2015 12:32:17 13.8 C 51 %
784 09-04-2015 12:44:17 14.2 C 50 %
785 09-04-2015 12:56:17 14.4 C 50 %
786 09-04-2015 13:08:17 14.7 C 50 %
787 09-04-2015 13:20:17 15.1 C 48 %
788 09-04-2015 13:32:17 15.4 C 46 %
789 09-04-2015 13:44:17 15.7 C 46 %
790 09-04-2015 13:56:17 16.9 C 45 %
791 09-04-2015 14:08:18 16.7 C 42 %
792 09-04-2015 14:20:17 17.2 C 41 %
793 09-04-2015 14:32:17 17.9 C 41 %
794 09-04-2015 14:44:17 18.3 C 40 %
795 09-04-2015 14:56:17 19 C 37 %
796 09-04-2015 15:08:17 18.9 C 40 %
797 09-04-2015 15:20:17 18.9 C 40 %
798 09-04-2015 15:32:17 19.3 C 39 %
799 09-04-2015 15:44:17 19.7 C 38 %
800 09-04-2015 15:56:17 19.6 C 38 %
Sensor: Nr:Datum:Temp:Feuchte:
Aussen-T/F 801 09-04-2015 16:08:18 20 C 37 %
802 09-04-2015 16:20:17 20.8 C 36 %
803 09-04-2015 16:32:17 20.7 C 36 %
804 09-04-2015 16:44:17 21.2 C 33 %
805 09-04-2015 16:56:17 21.2 C 33 %
806 09-04-2015 17:08:17 22.1 C 31 %
807 09-04-2015 17:20:17 23.2 C 30 %
808 09-04-2015 17:32:17 23.3 C 29 %
809 09-04-2015 17:44:17 22.5 C 30 %
810 09-04-2015 17:56:16 22.4 C 30 %
811 09-04-2015 18:08:17 22.8 C 30 %
812 09-04-2015 18:20:17 22.6 C 29 %
813 09-04-2015 18:32:17 22.7 C 28 %
814 09-04-2015 18:44:17 24.1 C 25 %
815 09-04-2015 18:56:17 23.8 C 26 %
816 09-04-2015 19:08:17 21.8 C 29 %
817 09-04-2015 19:20:17 20.1 C 35 %
818 09-04-2015 19:32:17 17.9 C 42 %
819 09-04-2015 19:44:17 16.5 C 46 %
820 09-04-2015 19:56:17 15.3 C 48 %
821 09-04-2015 20:08:17 14.6 C 50 %
822 09-04-2015 20:20:17 13.9 C 51 %
823 09-04-2015 20:32:17 13.4 C 52 %
824 09-04-2015 20:44:17 13.2 C 53 %
825 09-04-2015 20:56:17 13.1 C 55 %
Sensor: Nr:Datum:Temp:Feuchte:
Aussen-T/F 826 09-04-2015 21:08:17 13.3 C 54 %
827 09-04-2015 21:20:17 13.2 C 54 %
828 09-04-2015 21:32:17 13.3 C 54 %
829 09-04-2015 21:44:17 12.9 C 56 %
830 09-04-2015 21:56:17 12.8 C 56 %
831 09-04-2015 22:08:17 12.8 C 56 %
832 09-04-2015 22:20:17 12.6 C 56 %
833 09-04-2015 22:32:17 11.8 C 60 %
834 09-04-2015 22:44:17 11.4 C 62 %
835 09-04-2015 22:56:17 11.2 C 63 %
836 09-04-2015 23:08:17 11 C 63 %
837 09-04-2015 23:20:17 10.4 C 64 %
838 09-04-2015 23:32:17 9.7 C 66 %
839 09-04-2015 23:44:17 10 C 68 %
840 09-04-2015 23:56:17 9.7 C 69 %
841 10-04-2015 00:08:17 9.2 C 69 %
842 10-04-2015 00:20:17 9.2 C 71 %
843 10-04-2015 00:32:17 8.8 C 72 %
844 10-04-2015 00:44:17 8.6 C 72 %
845 10-04-2015 00:56:17 8.2 C 73 %
846 10-04-2015 01:08:17 7.9 C 75 %
847 10-04-2015 01:20:17 7.8 C 76 %
848 10-04-2015 01:32:17 7.5 C 77 %
849 10-04-2015 01:44:17 7.4 C 78 %
850 10-04-2015 01:56:17 7.2 C 78 %
Sensor: Nr:Datum:Temp:Feuchte:
Aussen-T/F 851 10-04-2015 02:08:17 7.2 C 79 %
852 10-04-2015 02:20:17 6.9 C 80 %
853 10-04-2015 02:32:17 6.8 C 81 %
854 10-04-2015 02:44:17 6.8 C 82 %
855 10-04-2015 02:56:17 6.6 C 82 %
856 10-04-2015 03:08:17 6.3 C 81 %
857 10-04-2015 03:20:17 6.1 C 82 %
858 10-04-2015 03:32:17 5.9 C 83 %
859 10-04-2015 03:44:17 5.7 C 84 %
860 10-04-2015 03:56:17 5.7 C 85 %
861 10-04-2015 04:08:18 5.5 C 85 %
862 10-04-2015 04:20:17 5.6 C 86 %
863 10-04-2015 04:32:17 5.3 C 86 %
864 10-04-2015 04:44:17 5.5 C 87 %
865 10-04-2015 04:56:17 5 C 86 %
866 10-04-2015 05:08:17 4.8 C 87 %
867 10-04-2015 05:20:17 4.8 C 88 %
868 10-04-2015 05:32:17 4.7 C 88 %
869 10-04-2015 05:44:17 4.6 C 88 %
870 10-04-2015 05:56:17 4.4 C 88 %
871 10-04-2015 06:08:17 4.6 C 89 %
872 10-04-2015 06:20:17 4.6 C 90 %
873 10-04-2015 06:32:17 4.4 C 90 %
874 10-04-2015 06:44:17 4 C 89 %
875 10-04-2015 06:56:17 3.9 C 90 %
Sensor: Nr:Datum:Temp:Feuchte:
Aussen-T/F 876 10-04-2015 07:08:17 3.8 C 91 %
877 10-04-2015 07:20:17 3.9 C 91 %
878 10-04-2015 07:32:17 4.1 C 91 %
879 10-04-2015 07:44:17 4.1 C 91 %
880 10-04-2015 07:56:17 4.4 C 91 %
881 10-04-2015 08:08:17 4.7 C 92 %
882 10-04-2015 08:20:17 5 C 91 %
883 10-04-2015 08:32:17 5.2 C 92 %
884 10-04-2015 08:44:17 5.4 C 91 %
885 10-04-2015 08:56:17 5.7 C 92 %
886 10-04-2015 09:08:17 5.7 C 91 %
887 10-04-2015 09:20:17 5.8 C 91 %
888 10-04-2015 09:32:17 6.1 C 90 %
889 10-04-2015 09:44:17 6.5 C 90 %
890 10-04-2015 09:56:17 7.1 C 89 %
891 10-04-2015 10:08:17 7.6 C 89 %
892 10-04-2015 10:20:17 8.8 C 86 %
893 10-04-2015 10:32:17 9.3 C 81 %
894 10-04-2015 10:44:17 10.1 C 76 %
895 10-04-2015 10:56:17 10.7 C 74 %
896 10-04-2015 11:08:17 11.6 C 71 %
897 10-04-2015 11:20:17 12.2 C 69 %
898 10-04-2015 11:32:17 13 C 64 %
899 10-04-2015 11:44:17 13.6 C 63 %
900 10-04-2015 11:56:17 14.4 C 56 %
Sensor: Nr:Datum:Temp:Feuchte:
Aussen-T/F 901 10-04-2015 12:08:17 15.2 C 50 %
902 10-04-2015 12:20:17 16 C 46 %
903 10-04-2015 12:32:17 16.3 C 46 %
904 10-04-2015 12:44:17 16.8 C 45 %
905 10-04-2015 12:56:17 17.2 C 39 %
906 10-04-2015 13:08:17 17.9 C 37 %
907 10-04-2015 13:20:17 18.1 C 35 %
908 10-04-2015 13:32:17 18.6 C 34 %
909 10-04-2015 13:44:17 19.3 C 34 %
910 10-04-2015 13:56:17 19.7 C 33 %
911 10-04-2015 14:08:17 19.9 C 33 %
912 10-04-2015 14:20:17 20.4 C 32 %
913 10-04-2015 14:32:17 21 C 29 %
914 10-04-2015 14:44:17 21.6 C 27 %
915 10-04-2015 14:57:17 22.3 C 25 %
916 10-04-2015 15:08:17 22.4 C 23 %
917 10-04-2015 15:20:17 23 C 21 %
918 10-04-2015 15:32:17 23.4 C 20 %
919 10-04-2015 15:44:17 23.6 C 20 %
920 10-04-2015 15:56:17 24.1 C 20 %
921 10-04-2015 16:08:17 24.5 C 20 %
922 10-04-2015 16:20:17 24.9 C 20 %
923 10-04-2015 16:32:17 24.9 C 20 %
924 10-04-2015 16:44:17 24.9 C 20 %
925 10-04-2015 16:57:17 25.1 C 20 %
Sensor: Nr:Datum:Temp:Feuchte:
Aussen-T/F 926 10-04-2015 17:08:17 25.9 C 20 %
927 10-04-2015 17:20:17 26.5 C 20 %
928 10-04-2015 17:32:17 26.4 C 20 %
929 10-04-2015 17:44:17 25.7 C 20 %
930 10-04-2015 17:57:16 25.1 C 20 %
931 10-04-2015 18:08:17 25.5 C 20 %
932 10-04-2015 18:21:17 25 C 20 %
933 10-04-2015 18:44:17 23.2 C 20 %
934 10-04-2015 18:44:17 21.8 C 26 %
935 10-04-2015 18:56:17 21.2 C 28 %
936 10-04-2015 19:08:17 19.1 C 35 %
937 10-04-2015 19:21:17 18.7 C 36 %
938 10-04-2015 19:44:17 18 C 37 %
939 10-04-2015 19:45:17 17.3 C 39 %
940 10-04-2015 19:56:17 16.7 C 39 %
941 10-04-2015 20:08:17 15.8 C 41 %
942 10-04-2015 20:20:17 15.1 C 41 %
943 10-04-2015 20:44:17 14.7 C 43 %
944 10-04-2015 20:44:17 14.2 C 44 %
945 10-04-2015 20:56:17 13.9 C 45 %
946 10-04-2015 21:08:17 13.5 C 45 %
947 10-04-2015 21:21:17 13.3 C 46 %
948 10-04-2015 21:33:17 13 C 45 %
949 10-04-2015 21:45:17 12.9 C 46 %
950 10-04-2015 21:56:17 12.6 C 47 %
Sensor: Nr:Datum:Temp:Feuchte:
Aussen-T/F 951 10-04-2015 22:08:17 12.1 C 47 %
952 10-04-2015 22:20:17 11.6 C 49 %
953 10-04-2015 22:33:17 11.4 C 48 %
954 10-04-2015 22:44:17 11.1 C 50 %
955 10-04-2015 22:56:17 10.9 C 50 %
956 10-04-2015 23:08:17 10.9 C 50 %
957 10-04-2015 23:21:17 10.5 C 50 %
958 10-04-2015 23:32:17 10.2 C 52 %
959 10-04-2015 23:44:17 10.2 C 51 %
960 10-04-2015 23:57:17 10.3 C 51 %
961 11-04-2015 00:09:17 10.1 C 51 %
962 11-04-2015 00:21:17 10.2 C 50 %
963 11-04-2015 00:44:17 10.1 C 51 %
964 11-04-2015 00:45:17 10 C 51 %
965 11-04-2015 00:57:17 9.8 C 52 %
966 11-04-2015 01:09:17 10.2 C 48 %
967 11-04-2015 01:20:17 10.1 C 49 %
968 11-04-2015 01:33:17 9.7 C 52 %
969 11-04-2015 01:45:17 9.4 C 54 %
970 11-04-2015 01:57:17 8.8 C 55 %
971 11-04-2015 02:09:17 8.5 C 57 %
972 11-04-2015 02:21:17 8.4 C 57 %
973 11-04-2015 02:33:17 8.2 C 59 %
974 11-04-2015 02:45:17 8.2 C 58 %
975 11-04-2015 02:57:17 8.1 C 58 %
Sensor: Nr:Datum:Temp:Feuchte:
Aussen-T/F 976 11-04-2015 03:09:17 8.1 C 58 %
977 11-04-2015 03:21:17 8.1 C 56 %
978 11-04-2015 03:33:18 7.8 C 58 %
979 11-04-2015 03:45:17 7.9 C 61 %
980 11-04-2015 03:57:17 8.4 C 57 %
981 11-04-2015 04:09:17 8.7 C 55 %
982 11-04-2015 04:21:17 8.5 C 55 %
983 11-04-2015 04:33:17 8.4 C 57 %
984 11-04-2015 04:45:17 7.9 C 60 %
985 11-04-2015 04:57:17 7.6 C 61 %
986 11-04-2015 05:09:17 7.4 C 63 %
987 11-04-2015 05:21:17 7.4 C 63 %
988 11-04-2015 05:33:17 7.3 C 63 %
989 11-04-2015 05:45:17 7 C 64 %
990 11-04-2015 05:57:17 6.9 C 66 %
991 11-04-2015 06:09:17 6.9 C 66 %
992 11-04-2015 06:21:17 6.6 C 67 %
993 11-04-2015 06:33:17 7.2 C 64 %
994 11-04-2015 06:45:17 7.7 C 60 %
995 11-04-2015 06:57:17 7.5 C 61 %
996 11-04-2015 07:09:17 7.4 C 64 %
997 11-04-2015 07:21:17 8.4 C 60 %
998 11-04-2015 07:33:17 8.6 C 55 %
999 11-04-2015 07:45:17 8.3 C 57 %
1000 11-04-2015 07:57:17 8.6 C 57 %
Sensor: Nr:Datum:Temp:Feuchte:
Aussen-T/F 1001 11-04-2015 08:09:17 9 C 56 %
1002 11-04-2015 08:21:17 9.3 C 56 %
1003 11-04-2015 08:33:17 9.4 C 56 %
1004 11-04-2015 08:45:17 9.5 C 58 %
1005 11-04-2015 08:57:17 9.8 C 58 %
1006 11-04-2015 09:09:17 10.7 C 58 %
1007 11-04-2015 09:21:17 12.4 C 53 %
1008 11-04-2015 09:33:17 13.6 C 50 %
1009 11-04-2015 09:45:17 14.4 C 47 %
1010 11-04-2015 09:57:17 14.7 C 48 %
1011 11-04-2015 10:09:17 15 C 47 %
1012 11-04-2015 10:21:17 14.6 C 49 %
1013 11-04-2015 10:33:17 14.5 C 50 %
1014 11-04-2015 10:45:17 15 C 49 %
1015 11-04-2015 10:57:17 15.5 C 48 %
1016 11-04-2015 11:09:17 15.6 C 47 %
1017 11-04-2015 11:21:17 15.6 C 47 %
1018 11-04-2015 11:33:17 15.4 C 47 %
1019 11-04-2015 11:45:17 16 C 46 %
1020 11-04-2015 11:57:17 16 C 47 %
1021 11-04-2015 12:09:17 15.9 C 48 %
1022 11-04-2015 12:21:17 15.7 C 49 %
1023 11-04-2015 12:33:17 16.2 C 47 %
1024 11-04-2015 12:45:17 16.8 C 46 %
1025 11-04-2015 12:57:17 16.4 C 47 %
Sensor: Nr:Datum:Temp:Feuchte:
Aussen-T/F 1026 11-04-2015 13:09:17 16.4 C 47 %
1027 11-04-2015 13:21:17 15.6 C 51 %
1028 11-04-2015 13:33:17 16.5 C 49 %
1029 11-04-2015 13:45:17 16.3 C 49 %
1030 11-04-2015 13:57:17 15.3 C 51 %
1031 11-04-2015 14:09:17 15.6 C 52 %
1032 11-04-2015 14:21:17 16.5 C 49 %
1033 11-04-2015 14:33:17 17.2 C 47 %
1034 11-04-2015 14:45:17 17.4 C 45 %
1035 11-04-2015 14:57:17 17.2 C 45 %
1036 11-04-2015 15:09:17 16.6 C 48 %
1037 11-04-2015 15:21:17 16 C 49 %
1038 11-04-2015 15:33:17 15.7 C 51 %
1039 11-04-2015 15:45:17 16 C 50 %
1040 11-04-2015 15:57:17 16.3 C 48 %
1041 11-04-2015 16:09:17 17.4 C 45 %
1042 11-04-2015 16:21:17 16.5 C 46 %
1043 11-04-2015 16:33:17 16.8 C 46 %
1044 11-04-2015 16:45:17 16.4 C 46 %
1045 11-04-2015 16:57:17 15.8 C 48 %
1046 11-04-2015 17:09:17 16 C 48 %
1047 11-04-2015 17:21:17 16.4 C 47 %
1048 11-04-2015 17:33:17 16.8 C 46 %
1049 11-04-2015 17:45:17 16 C 49 %
1050 11-04-2015 17:57:17 15.4 C 51 %
Sensor: Nr:Datum:Temp:Feuchte:
Aussen-T/F 1051 11-04-2015 18:09:17 15.3 C 52 %
1052 11-04-2015 18:21:17 14.9 C 53 %
1053 11-04-2015 18:33:17 14.7 C 52 %
1054 11-04-2015 18:45:17 14.8 C 50 %
1055 11-04-2015 18:57:17 15 C 49 %
1056 11-04-2015 19:09:17 14.8 C 50 %
1057 11-04-2015 19:21:17 14.5 C 51 %
1058 11-04-2015 19:33:17 14.3 C 51 %
1059 11-04-2015 19:45:17 14.3 C 51 %
1060 11-04-2015 19:57:17 13.9 C 54 %
1061 11-04-2015 20:09:17 13.7 C 55 %
1062 11-04-2015 20:21:17 13.7 C 56 %
1063 11-04-2015 20:33:17 13.5 C 56 %
1064 11-04-2015 20:45:17 13.5 C 57 %
1065 11-04-2015 20:57:17 13.3 C 58 %
1066 11-04-2015 21:09:17 13 C 61 %
1067 11-04-2015 21:21:17 12.9 C 62 %
1068 11-04-2015 21:33:17 13 C 62 %
1069 11-04-2015 21:45:17 11.5 C 73 %
1070 11-04-2015 21:57:17 10.4 C 77 %
1071 11-04-2015 22:09:17 10.2 C 81 %
1072 11-04-2015 22:21:17 10.1 C 83 %
1073 11-04-2015 22:33:17 9.7 C 78 %
1074 11-04-2015 22:45:17 9 C 72 %
1075 11-04-2015 22:57:17 9.1 C 70 %
Sensor: Nr:Datum:Temp:Feuchte:
Aussen-T/F 1076 11-04-2015 23:09:17 8.9 C 74 %
1077 11-04-2015 23:21:17 8.8 C 75 %
1078 11-04-2015 23:33:17 9 C 74 %
1079 11-04-2015 23:45:17 9 C 73 %
1080 11-04-2015 23:57:17 8.8 C 74 %
1081 12-04-2015 00:09:17 8.9 C 72 %
1082 12-04-2015 00:21:17 8.7 C 72 %
1083 12-04-2015 00:33:17 8.5 C 72 %
1084 12-04-2015 00:45:17 8.3 C 74 %
1085 12-04-2015 00:57:17 8.3 C 77 %
1086 12-04-2015 01:09:17 8.1 C 78 %
1087 12-04-2015 01:21:16 8.1 C 78 %
1088 12-04-2015 01:33:17 7.9 C 79 %
1089 12-04-2015 01:45:17 7.8 C 80 %
1090 12-04-2015 01:57:17 7.6 C 80 %
1091 12-04-2015 02:09:17 7.6 C 80 %
1092 12-04-2015 02:21:17 7.3 C 80 %
1093 12-04-2015 02:33:17 7.1 C 79 %
1094 12-04-2015 02:45:17 7.2 C 79 %
1095 12-04-2015 02:57:17 7.4 C 79 %
1096 12-04-2015 03:09:18 7.3 C 80 %
1097 12-04-2015 03:21:17 7.3 C 80 %
1098 12-04-2015 03:33:17 6.8 C 80 %
1099 12-04-2015 03:45:16 6.4 C 80 %
1100 12-04-2015 03:57:17 5.9 C 81 %
Sensor: Nr:Datum:Temp:Feuchte:
Aussen-T/F 1101 12-04-2015 04:09:17 5.5 C 81 %
1102 12-04-2015 04:21:17 5.2 C 81 %
1103 12-04-2015 04:33:17 5.2 C 82 %
1104 12-04-2015 04:45:17 5.6 C 84 %
1105 12-04-2015 04:57:17 5.4 C 84 %
1106 12-04-2015 05:09:18 5.2 C 84 %
1107 12-04-2015 05:21:17 5 C 85 %
1108 12-04-2015 05:33:17 4.9 C 87 %
1109 12-04-2015 05:45:17 5 C 87 %
1110 12-04-2015 05:57:17 4.6 C 88 %
1111 12-04-2015 06:09:17 4.5 C 88 %
1112 12-04-2015 06:21:16 4.7 C 89 %
1113 12-04-2015 06:33:17 5.1 C 89 %
1114 12-04-2015 06:45:17 4.8 C 90 %
1115 12-04-2015 06:57:17 4.8 C 90 %
1116 12-04-2015 07:09:17 4.4 C 90 %
1117 12-04-2015 07:21:17 4.4 C 89 %
1118 12-04-2015 07:33:17 4.9 C 90 %
1119 12-04-2015 07:45:17 5.4 C 89 %
1120 12-04-2015 07:57:17 5.9 C 89 %
1121 12-04-2015 08:09:17 6.2 C 87 %
1122 12-04-2015 08:21:17 6.3 C 85 %
1123 12-04-2015 08:33:17 6.7 C 82 %
1124 12-04-2015 08:45:17 7.1 C 78 %
1125 12-04-2015 08:57:17 7.3 C 76 %
Sensor: Nr:Datum:Temp:Feuchte:
Aussen-T/F 1126 12-04-2015 09:09:17 7.5 C 75 %
1127 12-04-2015 09:21:17 7.4 C 74 %
1128 12-04-2015 09:33:17 7.5 C 74 %
1129 12-04-2015 09:45:16 8.1 C 70 %
1130 12-04-2015 09:57:16 8.4 C 67 %
1131 12-04-2015 10:09:17 8.6 C 66 %
1132 12-04-2015 10:21:17 9.5 C 64 %
1133 12-04-2015 10:33:17 9.6 C 63 %
1134 12-04-2015 10:45:17 9.9 C 63 %
1135 12-04-2015 10:57:17 10.5 C 59 %
1136 12-04-2015 11:09:17 11.3 C 56 %
1137 12-04-2015 11:21:17 11.9 C 57 %
1138 12-04-2015 11:33:17 12.7 C 57 %
1139 12-04-2015 11:45:17 12.8 C 48 %
1140 12-04-2015 11:57:17 13 C 45 %
1141 12-04-2015 12:09:17 13 C 39 %
1142 12-04-2015 12:21:17 13.4 C 43 %
1143 12-04-2015 12:33:17 13.6 C 41 %
1144 12-04-2015 12:45:17 13.8 C 39 %
1145 12-04-2015 12:57:17 13.9 C 40 %
1146 12-04-2015 13:09:17 14.1 C 38 %
1147 12-04-2015 13:21:17 14.3 C 38 %
1148 12-04-2015 13:33:17 14.5 C 37 %
1149 12-04-2015 13:45:17 14.8 C 39 %
1150 12-04-2015 13:57:17 14.9 C 37 %
Sensor: Nr:Datum:Temp:Feuchte:
Aussen-T/F 1151 12-04-2015 14:09:17 15.2 C 33 %
1152 12-04-2015 14:21:17 15.6 C 33 %
1153 12-04-2015 14:33:17 15.8 C 35 %
1154 12-04-2015 14:45:17 16.4 C 32 %
1155 12-04-2015 14:57:17 16.7 C 31 %
1156 12-04-2015 15:09:17 17 C 30 %
1157 12-04-2015 15:21:17 17.6 C 30 %
1158 12-04-2015 15:33:17 17.7 C 27 %
1159 12-04-2015 15:45:17 18.3 C 30 %
1160 12-04-2015 15:57:17 18.7 C 30 %
1161 12-04-2015 16:09:17 18.6 C 26 %
1162 12-04-2015 16:21:17 19.4 C 25 %
1163 12-04-2015 16:33:17 19.3 C 26 %
1164 12-04-2015 16:45:17 19.6 C 25 %
1165 12-04-2015 16:57:17 19.7 C 26 %
1166 12-04-2015 17:09:17 20.6 C 25 %
1167 12-04-2015 17:21:17 21.1 C 24 %
1168 12-04-2015 17:33:17 20.8 C 25 %
1169 12-04-2015 17:45:17 20.7 C 25 %
1170 12-04-2015 17:57:18 20.8 C 26 %
1171 12-04-2015 18:09:17 20.8 C 26 %
1172 12-04-2015 18:21:17 21.1 C 25 %
1173 12-04-2015 18:33:17 21.6 C 23 %
1174 12-04-2015 18:45:17 21.1 C 24 %
1175 12-04-2015 18:57:17 19.5 C 27 %
Sensor: Nr:Datum:Temp:Feuchte:
Aussen-T/F 1176 12-04-2015 19:09:17 17.7 C 33 %
1177 12-04-2015 19:21:17 17.4 C 33 %
1178 12-04-2015 19:33:17 17.2 C 35 %
1179 12-04-2015 19:45:17 16.9 C 35 %
1180 12-04-2015 19:57:17 15.9 C 40 %
1181 12-04-2015 20:09:17 14.4 C 43 %
1182 12-04-2015 20:21:17 13.8 C 46 %
1183 12-04-2015 20:33:17 12.8 C 49 %
1184 12-04-2015 20:45:17 12.2 C 51 %
1185 12-04-2015 20:57:17 12 C 54 %
1186 12-04-2015 21:09:17 11.8 C 55 %
1187 12-04-2015 21:21:17 11.6 C 55 %
1188 12-04-2015 21:33:17 11.1 C 56 %
1189 12-04-2015 21:45:17 11 C 57 %
1190 12-04-2015 21:57:17 11 C 57 %
1191 12-04-2015 22:09:17 10.9 C 58 %
1192 12-04-2015 22:21:17 10.6 C 59 %
1193 12-04-2015 22:33:17 10.5 C 58 %
1194 12-04-2015 22:45:17 10 C 60 %
1195 12-04-2015 22:57:17 9.8 C 61 %
1196 12-04-2015 23:09:17 9.8 C 62 %
1197 12-04-2015 23:21:17 9.6 C 63 %
1198 12-04-2015 23:33:17 9.4 C 64 %
1199 12-04-2015 23:45:17 9.5 C 65 %
1200 12-04-2015 23:57:17 9.7 C 65 %
Sensor: Nr:Datum:Temp:Feuchte:
Aussen-T/F 1201 13-04-2015 00:09:17 9.3 C 65 %
1202 13-04-2015 00:21:17 9.1 C 66 %
1203 13-04-2015 00:33:17 8.9 C 68 %
1204 13-04-2015 00:45:17 8.8 C 68 %
1205 13-04-2015 00:57:17 8.6 C 70 %
1206 13-04-2015 01:09:17 8.9 C 72 %
1207 13-04-2015 01:21:17 9.3 C 72 %
1208 13-04-2015 01:33:17 10 C 69 %
1209 13-04-2015 01:45:17 10.2 C 67 %
1210 13-04-2015 01:57:17 10.8 C 65 %
1211 13-04-2015 02:09:17 11.3 C 63 %
1212 13-04-2015 02:21:17 11.1 C 62 %
1213 13-04-2015 02:33:17 11.1 C 62 %
1214 13-04-2015 02:45:17 10.9 C 63 %
1215 13-04-2015 02:57:17 10.9 C 63 %
1216 13-04-2015 03:09:17 11.1 C 63 %
1217 13-04-2015 03:21:17 11.1 C 63 %
1218 13-04-2015 03:33:17 11.3 C 62 %
1219 13-04-2015 03:45:17 11.4 C 63 %
1220 13-04-2015 03:57:17 11.6 C 62 %
1221 13-04-2015 04:09:17 11.7 C 61 %
1222 13-04-2015 04:21:17 11.5 C 62 %
1223 13-04-2015 04:33:17 11.2 C 63 %
1224 13-04-2015 04:45:17 11 C 63 %
1225 13-04-2015 04:57:17 11 C 63 %
Sensor: Nr:Datum:Temp:Feuchte:
Aussen-T/F 1226 13-04-2015 05:09:17 10.5 C 64 %
1227 13-04-2015 05:21:17 10.5 C 65 %
1228 13-04-2015 05:33:18 11 C 58 %
1229 13-04-2015 05:45:17 11.1 C 54 %
1230 13-04-2015 05:57:17 10.7 C 55 %
1231 13-04-2015 06:09:17 10.4 C 56 %
1232 13-04-2015 06:21:17 10 C 57 %
1233 13-04-2015 06:33:17 9.4 C 60 %
1234 13-04-2015 06:45:17 9 C 62 %
1235 13-04-2015 06:57:17 9.4 C 63 %
1236 13-04-2015 07:09:17 10 C 61 %
1237 13-04-2015 07:21:17 10.4 C 59 %
1238 13-04-2015 07:33:17 10.6 C 57 %
1239 13-04-2015 07:45:17 10.7 C 56 %
1240 13-04-2015 07:57:17 10.7 C 57 %
1241 13-04-2015 08:09:17 10.6 C 59 %
1242 13-04-2015 08:21:17 10.8 C 58 %
1243 13-04-2015 08:33:17 10.6 C 59 %
1244 13-04-2015 08:45:17 10.7 C 61 %
1245 13-04-2015 08:57:17 10.6 C 62 %
1246 13-04-2015 09:09:17 10.4 C 62 %
1247 13-04-2015 09:21:17 10.4 C 63 %
1248 13-04-2015 09:33:17 10.8 C 62 %
1249 13-04-2015 09:45:17 10.7 C 62 %
1250 13-04-2015 09:57:17 10.6 C 62 %
Sensor: Nr:Datum:Temp:Feuchte:
Aussen-T/F 1251 13-04-2015 10:09:17 10.4 C 62 %
1252 13-04-2015 10:21:17 10.4 C 62 %
1253 13-04-2015 10:33:17 10.6 C 61 %
1254 13-04-2015 10:45:17 11 C 57 %
1255 13-04-2015 10:57:17 10.8 C 59 %
1256 13-04-2015 11:09:17 11.3 C 56 %
1257 13-04-2015 11:21:17 10.8 C 59 %
1258 13-04-2015 11:33:17 11.2 C 57 %
1259 13-04-2015 11:45:17 11.6 C 54 %
1260 13-04-2015 11:57:17 11.8 C 54 %
1261 13-04-2015 12:09:16 12.1 C 51 %
1262 13-04-2015 12:21:17 12 C 51 %
1263 13-04-2015 12:33:17 11.5 C 53 %
1264 13-04-2015 12:45:17 11.9 C 52 %
1265 13-04-2015 12:57:17 11.7 C 51 %
1266 13-04-2015 13:09:17 11.9 C 50 %
1267 13-04-2015 13:21:17 12.2 C 48 %
1268 13-04-2015 13:33:17 12.2 C 48 %
1269 13-04-2015 13:45:17 12.6 C 47 %
1270 13-04-2015 13:57:17 12.9 C 46 %
1271 13-04-2015 14:09:17 13.1 C 42 %
1272 13-04-2015 14:21:17 13.4 C 42 %
1273 13-04-2015 14:33:17 13.4 C 42 %
1274 13-04-2015 14:45:17 13.5 C 42 %
1275 13-04-2015 14:57:17 13.7 C 42 %
Sensor: Nr:Datum:Temp:Feuchte:
Aussen-T/F 1276 13-04-2015 15:09:17 14.2 C 41 %
1277 13-04-2015 15:21:17 15.2 C 40 %
1278 13-04-2015 15:33:17 15.5 C 36 %
1279 13-04-2015 15:45:17 15.3 C 36 %
1280 13-04-2015 15:57:17 15.1 C 37 %
1281 13-04-2015 16:09:17 15 C 35 %
1282 13-04-2015 16:21:17 15.4 C 35 %
1283 13-04-2015 16:33:17 14.8 C 35 %
1284 13-04-2015 16:45:17 15.5 C 34 %
1285 13-04-2015 16:57:17 15.7 C 33 %
1286 13-04-2015 17:09:17 15.1 C 35 %
1287 13-04-2015 17:21:17 14.8 C 35 %
1288 13-04-2015 17:33:17 15 C 35 %
1289 13-04-2015 17:45:17 15.3 C 33 %
1290 13-04-2015 17:57:17 15.7 C 33 %
1291 13-04-2015 18:09:17 16 C 32 %
1292 13-04-2015 18:21:17 15.8 C 32 %
1293 13-04-2015 18:33:17 15.6 C 33 %
1294 13-04-2015 18:45:17 16 C 33 %
1295 13-04-2015 18:57:17 15.7 C 32 %
1296 13-04-2015 19:09:17 14.8 C 35 %
1297 13-04-2015 19:21:17 13.9 C 36 %
1298 13-04-2015 19:33:17 13.5 C 38 %
1299 13-04-2015 19:45:17 13.2 C 38 %
1300 13-04-2015 19:57:17 12.6 C 41 %
Sensor: Nr:Datum:Temp:Feuchte:
Aussen-T/F 1301 13-04-2015 20:09:17 11.8 C 46 %
1302 13-04-2015 20:21:17 10.5 C 50 %
1303 13-04-2015 20:33:17 9.9 C 53 %
1304 13-04-2015 20:45:17 9.8 C 53 %
1305 13-04-2015 20:57:17 9.5 C 52 %
1306 13-04-2015 21:09:17 9.1 C 56 %
1307 13-04-2015 21:21:17 8.7 C 57 %
1308 13-04-2015 21:33:17 8.3 C 57 %
1309 13-04-2015 21:45:17 8.1 C 57 %
1310 13-04-2015 21:57:17 7.9 C 58 %
1311 13-04-2015 22:09:18 7.8 C 58 %
1312 13-04-2015 22:21:17 7.6 C 60 %
1313 13-04-2015 22:33:17 7.3 C 61 %
1314 13-04-2015 22:45:17 6.9 C 63 %
1315 13-04-2015 22:57:17 6.5 C 64 %
1316 13-04-2015 23:09:17 6.3 C 65 %
1317 13-04-2015 23:21:17 6.1 C 66 %
1318 13-04-2015 23:33:17 6 C 67 %
1319 13-04-2015 23:45:17 5.8 C 68 %
1320 13-04-2015 23:57:18 5.8 C 68 %
1321 14-04-2015 00:09:17 5.7 C 68 %
1322 14-04-2015 00:21:17 5.7 C 68 %
1323 14-04-2015 00:33:17 5.6 C 67 %
1324 14-04-2015 00:45:17 5.6 C 68 %
1325 14-04-2015 00:57:17 5.8 C 68 %
Sensor: Nr:Datum:Temp:Feuchte:
Aussen-T/F 1326 14-04-2015 01:09:17 5.6 C 70 %
1327 14-04-2015 01:21:17 5.4 C 71 %
1328 14-04-2015 01:33:17 5.4 C 71 %
1329 14-04-2015 01:45:17 5.3 C 71 %
1330 14-04-2015 01:57:17 5.2 C 72 %
1331 14-04-2015 02:09:17 5.1 C 73 %
1332 14-04-2015 02:21:17 4.9 C 74 %
1333 14-04-2015 02:33:17 4.8 C 74 %
1334 14-04-2015 02:45:17 5 C 73 %
1335 14-04-2015 02:57:17 4.9 C 74 %
1336 14-04-2015 03:09:17 4.8 C 75 %
1337 14-04-2015 03:21:17 4.6 C 75 %
1338 14-04-2015 03:33:17 4.6 C 76 %
1339 14-04-2015 03:45:17 4.8 C 78 %
1340 14-04-2015 03:57:17 4.8 C 78 %
1341 14-04-2015 04:09:17 4.8 C 78 %
1342 14-04-2015 04:21:17 4.5 C 78 %
1343 14-04-2015 04:33:17 4.6 C 78 %
1344 14-04-2015 04:45:17 4.5 C 78 %
1345 14-04-2015 04:57:17 4.3 C 78 %
1346 14-04-2015 05:09:17 4.2 C 79 %
1347 14-04-2015 05:21:17 4.2 C 80 %
1348 14-04-2015 05:33:17 4.2 C 80 %
1349 14-04-2015 05:45:17 4.4 C 82 %
1350 14-04-2015 05:57:17 4 C 81 %
Sensor: Nr:Datum:Temp:Feuchte:
Aussen-T/F 1351 14-04-2015 06:09:17 3.9 C 82 %
1352 14-04-2015 06:21:17 3.9 C 82 %
1353 14-04-2015 06:33:17 3.8 C 82 %
1354 14-04-2015 06:45:17 3.8 C 83 %
1355 14-04-2015 06:57:17 3.9 C 83 %
1356 14-04-2015 07:09:17 4.1 C 83 %
1357 14-04-2015 07:21:17 4.7 C 83 %
1358 14-04-2015 07:33:17 4.9 C 82 %
1359 14-04-2015 07:45:17 5.1 C 80 %
1360 14-04-2015 07:57:17 5.2 C 80 %
1361 14-04-2015 08:09:17 5.3 C 80 %
1362 14-04-2015 08:21:17 5.8 C 79 %
1363 14-04-2015 08:33:17 6 C 77 %
1364 14-04-2015 08:45:17 6.2 C 78 %
1365 14-04-2015 08:57:17 6.7 C 78 %
1366 14-04-2015 09:09:16 7 C 75 %
1367 14-04-2015 09:21:17 7 C 75 %
1368 14-04-2015 09:33:17 8 C 74 %
1369 14-04-2015 09:45:17 9 C 72 %
1370 14-04-2015 09:57:17 10.1 C 66 %
1371 14-04-2015 10:09:17 11.1 C 60 %
1372 14-04-2015 10:21:17 12.2 C 56 %
1373 14-04-2015 10:33:17 12.3 C 55 %
1374 14-04-2015 10:45:17 12.8 C 54 %
1375 14-04-2015 10:57:17 13.4 C 52 %
Sensor: Nr:Datum:Temp:Feuchte:
Aussen-T/F 1376 14-04-2015 11:09:17 14.3 C 49 %
1377 14-04-2015 11:21:16 14.5 C 49 %
1378 14-04-2015 11:33:17 15 C 48 %
1379 14-04-2015 11:45:17 15.5 C 47 %
1380 14-04-2015 11:57:17 15.8 C 46 %
1381 14-04-2015 12:09:17 16.1 C 46 %
1382 14-04-2015 12:21:17 16.6 C 45 %
1383 14-04-2015 12:33:17 16.8 C 45 %
1384 14-04-2015 12:45:17 17 C 44 %
1385 14-04-2015 12:57:17 17.2 C 44 %
1386 14-04-2015 13:09:17 17.3 C 44 %
1387 14-04-2015 13:21:17 17.7 C 43 %
1388 14-04-2015 13:33:17 18.1 C 43 %
1389 14-04-2015 13:45:17 18.4 C 42 %
1390 14-04-2015 13:57:17 18.8 C 42 %
1391 14-04-2015 14:09:17 19.3 C 41 %
1392 14-04-2015 14:21:17 20.1 C 39 %
1393 14-04-2015 14:33:17 20.7 C 38 %
1394 14-04-2015 14:45:17 21.5 C 36 %
1395 14-04-2015 14:57:17 21.9 C 35 %
1396 14-04-2015 15:09:17 22.4 C 32 %
1397 14-04-2015 15:21:17 22.9 C 31 %
1398 14-04-2015 15:33:17 23.2 C 31 %
1399 14-04-2015 15:45:16 23.3 C 31 %
1400 14-04-2015 15:57:17 23.7 C 29 %
Sensor: Nr:Datum:Temp:Feuchte:
Aussen-T/F 1401 14-04-2015 16:09:17 24.1 C 20 %
1402 14-04-2015 16:21:17 24.9 C 20 %
1403 14-04-2015 16:33:17 25.3 C 20 %
1404 14-04-2015 16:45:17 25.4 C 20 %
1405 14-04-2015 16:57:17 25.9 C 20 %
1406 14-04-2015 17:09:17 26.7 C 20 %
1407 14-04-2015 17:21:17 26.9 C 20 %
1408 14-04-2015 17:33:17 26.9 C 20 %
1409 14-04-2015 17:45:17 26.4 C 20 %
1410 14-04-2015 17:57:17 26.2 C 20 %
1411 14-04-2015 18:09:17 26 C 20 %
1412 14-04-2015 18:21:17 26.2 C 20 %
1413 14-04-2015 18:33:17 27.3 C 20 %
1414 14-04-2015 18:45:17 27.2 C 20 %
1415 14-04-2015 18:57:17 26.8 C 20 %
1416 14-04-2015 19:09:17 25.2 C 20 %
1417 14-04-2015 19:21:17 23.5 C 22 %
1418 14-04-2015 19:33:17 22.7 C 25 %
1419 14-04-2015 19:45:17 21.9 C 28 %
1420 14-04-2015 19:57:18 20.5 C 32 %
1421 14-04-2015 20:09:17 19.3 C 35 %
1422 14-04-2015 20:21:17 18.2 C 38 %
1423 14-04-2015 20:33:17 17.6 C 41 %
1424 14-04-2015 20:45:17 16.8 C 43 %
1425 14-04-2015 20:57:17 16.6 C 44 %
Sensor: Nr:Datum:Temp:Feuchte:
Aussen-T/F 1426 14-04-2015 21:09:17 15.9 C 46 %
1427 14-04-2015 21:21:17 15.4 C 48 %
1428 14-04-2015 21:33:17 14.8 C 51 %
1429 14-04-2015 21:45:17 14.5 C 52 %
1430 14-04-2015 21:57:17 14.4 C 53 %
1431 14-04-2015 22:09:17 14.2 C 54 %
1432 14-04-2015 22:21:17 13.9 C 56 %
1433 14-04-2015 22:33:17 13.6 C 57 %
1434 14-04-2015 22:45:17 13.2 C 59 %
1435 14-04-2015 22:57:17 13.2 C 59 %
1436 14-04-2015 23:09:17 12.8 C 61 %
1437 14-04-2015 23:21:16 12.5 C 62 %
1438 14-04-2015 23:33:17 12.6 C 62 %
1439 14-04-2015 23:45:17 12.6 C 62 %
1440 14-04-2015 23:57:17 12.3 C 63 %
1441 15-04-2015 00:09:17 11.7 C 65 %
1442 15-04-2015 00:21:17 11.4 C 66 %
1443 15-04-2015 00:33:17 11.3 C 67 %
1444 15-04-2015 00:45:17 11.1 C 67 %
1445 15-04-2015 00:57:17 11 C 67 %
1446 15-04-2015 01:09:17 11.1 C 67 %
1447 15-04-2015 01:21:17 10.9 C 67 %
1448 15-04-2015 01:33:17 10.7 C 67 %
1449 15-04-2015 01:45:17 11 C 67 %
1450 15-04-2015 01:57:17 10.7 C 68 %
Sensor: Nr:Datum:Temp:Feuchte:
Aussen-T/F 1451 15-04-2015 02:09:17 10.8 C 67 %
1452 15-04-2015 02:21:17 10.4 C 68 %
1453 15-04-2015 02:33:17 10.7 C 68 %
1454 15-04-2015 02:45:17 10.4 C 68 %
1455 15-04-2015 02:57:17 10.3 C 69 %
1456 15-04-2015 03:09:17 10.2 C 69 %
1457 15-04-2015 03:21:17 10.1 C 70 %
1458 15-04-2015 03:33:18 10.1 C 70 %
1459 15-04-2015 03:45:17 9.7 C 71 %
1460 15-04-2015 03:57:17 9.5 C 72 %
1461 15-04-2015 04:09:17 9.5 C 73 %
1462 15-04-2015 04:21:17 9.4 C 73 %
1463 15-04-2015 04:33:17 9.1 C 73 %
1464 15-04-2015 04:45:17 8.7 C 75 %
1465 15-04-2015 04:57:17 8.6 C 77 %
1466 15-04-2015 05:09:17 8.4 C 77 %
1467 15-04-2015 05:21:17 8.2 C 78 %
1468 15-04-2015 05:33:17 8.2 C 79 %
1469 15-04-2015 05:45:17 8.3 C 80 %
1470 15-04-2015 05:57:17 8.1 C 80 %
1471 15-04-2015 06:09:17 7.6 C 80 %
1472 15-04-2015 06:21:17 7.4 C 81 %
1473 15-04-2015 06:33:17 7.4 C 83 %
1474 15-04-2015 06:45:17 7.2 C 83 %
1475 15-04-2015 06:57:17 6.9 C 84 %
Sensor: Nr:Datum:Temp:Feuchte:
Aussen-T/F 1476 15-04-2015 07:09:17 6.9 C 84 %
1477 15-04-2015 07:21:17 7 C 84 %
1478 15-04-2015 07:33:17 7.2 C 85 %
1479 15-04-2015 07:45:17 7.3 C 85 %
1480 15-04-2015 07:57:17 7.4 C 85 %
1481 15-04-2015 08:09:17 7.5 C 85 %
1482 15-04-2015 08:21:17 7.5 C 86 %
1483 15-04-2015 08:33:17 7.9 C 86 %
1484 15-04-2015 08:45:17 8.3 C 86 %
1485 15-04-2015 08:57:17 8.8 C 86 %
1486 15-04-2015 09:09:17 9 C 84 %
1487 15-04-2015 09:21:17 9.4 C 84 %
1488 15-04-2015 09:33:17 10 C 82 %
1489 15-04-2015 09:45:17 10.4 C 80 %
1490 15-04-2015 09:57:17 11.1 C 78 %
1491 15-04-2015 10:09:17 12.2 C 74 %
1492 15-04-2015 10:21:17 13.2 C 70 %
1493 15-04-2015 10:33:17 14.2 C 63 %
1494 15-04-2015 10:45:17 15.5 C 58 %
1495 15-04-2015 10:57:17 16.6 C 53 %
1496 15-04-2015 11:09:17 18 C 46 %
1497 15-04-2015 11:21:17 18.4 C 46 %
1498 15-04-2015 11:33:17 18.9 C 43 %
1499 15-04-2015 11:45:17 19.1 C 42 %
1500 15-04-2015 11:57:17 19.3 C 41 %
Sensor: Nr:Datum:Temp:Feuchte:
Aussen-T/F 1501 15-04-2015 12:09:17 19.8 C 40 %
1502 15-04-2015 12:21:17 19.9 C 38 %
1503 15-04-2015 12:33:17 20.1 C 37 %
1504 15-04-2015 12:45:17 20.4 C 36 %
1505 15-04-2015 12:57:17 21 C 31 %
1506 15-04-2015 13:09:17 21.3 C 31 %
1507 15-04-2015 13:21:17 21.2 C 30 %
1508 15-04-2015 13:33:18 21.6 C 31 %
1509 15-04-2015 13:45:17 22 C 29 %
1510 15-04-2015 13:57:17 22.5 C 28 %
1511 15-04-2015 14:09:17 22.7 C 27 %
1512 15-04-2015 14:21:17 23 C 26 %
1513 15-04-2015 14:33:17 23.5 C 25 %
1514 15-04-2015 14:45:17 24.3 C 22 %
1515 15-04-2015 14:57:17 24.5 C 21 %
1516 15-04-2015 15:09:17 25 C 21 %
1517 15-04-2015 15:21:17 25.4 C 21 %
1518 15-04-2015 15:33:17 26 C 21 %
1519 15-04-2015 15:45:17 26.3 C 20 %
1520 15-04-2015 15:57:17 26.5 C 20 %
1521 15-04-2015 16:09:17 26.8 C 20 %
1522 15-04-2015 16:21:17 27.2 C 20 %
1523 15-04-2015 16:33:17 27.4 C 20 %
1524 15-04-2015 16:45:17 27.7 C 20 %
1525 15-04-2015 16:57:17 27.8 C 20 %
Sensor: Nr:Datum:Temp:Feuchte:
Aussen-T/F 1526 15-04-2015 17:09:17 28.6 C 20 %
1527 15-04-2015 17:21:17 29.1 C 20 %
1528 15-04-2015 17:33:17 28.8 C 20 %
1529 15-04-2015 17:45:17 27.3 C 20 %
1530 15-04-2015 17:57:17 26.5 C 20 %
1531 15-04-2015 18:09:17 25.6 C 20 %
1532 15-04-2015 18:21:17 25 C 21 %
1533 15-04-2015 18:33:17 24.6 C 20 %
1534 15-04-2015 18:45:17 24.9 C 25 %
1535 15-04-2015 18:57:17 27.6 C 20 %
1536 15-04-2015 19:09:17 27.6 C 20 %
1537 15-04-2015 19:21:17 24.9 C 22 %
1538 15-04-2015 19:33:17 23.5 C 26 %
1539 15-04-2015 19:45:17 22.5 C 30 %
1540 15-04-2015 19:57:17 21 C 33 %
1541 15-04-2015 20:09:17 20.2 C 35 %
1542 15-04-2015 20:21:16 19.1 C 37 %
1543 15-04-2015 20:33:17 18.3 C 39 %
1544 15-04-2015 20:45:17 18.1 C 41 %
1545 15-04-2015 20:57:17 17.6 C 42 %
1546 15-04-2015 21:09:17 17.6 C 42 %
1547 15-04-2015 21:21:16 17 C 44 %
1548 15-04-2015 21:33:17 16.8 C 45 %
1549 15-04-2015 21:45:17 16.5 C 47 %
1550 15-04-2015 21:57:17 16 C 48 %
Sensor: Nr:Datum:Temp:Feuchte:
Aussen-T/F 1551 15-04-2015 22:09:17 15.5 C 51 %
1552 15-04-2015 22:21:17 15 C 52 %
1553 15-04-2015 22:33:17 14.6 C 54 %
1554 15-04-2015 22:45:17 14.4 C 55 %
1555 15-04-2015 22:57:17 13.9 C 57 %
1556 15-04-2015 23:09:17 13.7 C 57 %
1557 15-04-2015 23:21:17 13.3 C 58 %
1558 15-04-2015 23:33:17 13.2 C 57 %
1559 15-04-2015 23:45:17 12.6 C 60 %
1560 15-04-2015 23:57:17 12.3 C 61 %
1561 16-04-2015 00:09:18 12.3 C 62 %
1562 16-04-2015 00:21:17 12.6 C 61 %
1563 16-04-2015 00:33:17 12.2 C 61 %
1564 16-04-2015 00:45:17 12.4 C 62 %
1565 16-04-2015 00:57:17 12.2 C 62 %
1566 16-04-2015 01:09:17 11.8 C 64 %
1567 16-04-2015 01:21:17 11.6 C 64 %
1568 16-04-2015 01:33:17 11.3 C 65 %
1569 16-04-2015 01:45:17 10.8 C 67 %
1570 16-04-2015 01:57:17 10.8 C 68 %
1571 16-04-2015 02:09:17 10.6 C 67 %
1572 16-04-2015 02:21:17 10.3 C 69 %
1573 16-04-2015 02:33:17 10.3 C 70 %
1574 16-04-2015 02:45:17 10.1 C 70 %
1575 16-04-2015 02:57:17 10 C 70 %
Sensor: Nr:Datum:Temp:Feuchte:
Aussen-T/F 1576 16-04-2015 03:09:17 10.2 C 71 %
1577 16-04-2015 03:21:17 10.5 C 69 %
1578 16-04-2015 03:33:17 10.1 C 69 %
1579 16-04-2015 03:45:17 9.8 C 71 %
1580 16-04-2015 03:57:17 9.8 C 72 %
1581 16-04-2015 04:09:17 9.6 C 72 %
1582 16-04-2015 04:21:17 9.4 C 73 %
1583 16-04-2015 04:33:17 9.2 C 73 %
1584 16-04-2015 04:45:17 9.1 C 74 %
1585 16-04-2015 04:57:17 8.8 C 75 %
1586 16-04-2015 05:09:17 8.6 C 76 %
1587 16-04-2015 05:21:17 8.5 C 77 %
1588 16-04-2015 05:33:17 8.3 C 78 %
1589 16-04-2015 05:45:17 8.3 C 79 %
1590 16-04-2015 05:57:17 8.1 C 78 %
1591 16-04-2015 06:09:18 7.9 C 80 %
1592 16-04-2015 06:21:17 7.9 C 80 %
1593 16-04-2015 06:33:17 7.8 C 81 %
1594 16-04-2015 06:45:17 7.6 C 81 %
1595 16-04-2015 06:57:17 7.8 C 82 %
1596 16-04-2015 07:09:17 8 C 82 %
1597 16-04-2015 07:21:17 8.2 C 82 %
1598 16-04-2015 07:33:17 8.6 C 83 %
1599 16-04-2015 07:45:17 8.8 C 83 %
1600 16-04-2015 07:57:17 9 C 80 %
Sensor: Nr:Datum:Temp:Feuchte:
Aussen-T/F 1601 16-04-2015 08:09:17 9.3 C 80 %
1602 16-04-2015 08:21:17 9.5 C 78 %
1603 16-04-2015 08:33:17 9.8 C 77 %
1604 16-04-2015 08:45:17 10.3 C 75 %
1605 16-04-2015 08:57:17 10.7 C 74 %
1606 16-04-2015 09:09:17 11 C 70 %
1607 16-04-2015 09:21:17 11.4 C 70 %
1608 16-04-2015 09:33:17 12 C 68 %
1609 16-04-2015 09:45:17 12.5 C 68 %
1610 16-04-2015 09:57:17 13 C 63 %
1611 16-04-2015 10:09:17 13.4 C 62 %
1612 16-04-2015 10:21:17 14.1 C 59 %
1613 16-04-2015 10:33:17 14.5 C 56 %
1614 16-04-2015 10:45:17 14.9 C 55 %
1615 16-04-2015 10:57:17 15.4 C 52 %
1616 16-04-2015 11:09:17 16 C 50 %
1617 16-04-2015 11:21:17 16.1 C 49 %
1618 16-04-2015 11:33:17 16.4 C 48 %
1619 16-04-2015 11:45:17 16.6 C 47 %
1620 16-04-2015 11:57:17 16.8 C 47 %
1621 16-04-2015 12:09:17 17.1 C 46 %
1622 16-04-2015 12:21:17 17.2 C 45 %
1623 16-04-2015 12:33:17 17.5 C 45 %
1624 16-04-2015 12:45:18 17.9 C 44 %
1625 16-04-2015 12:57:18 18.2 C 43 %
Sensor: Nr:Datum:Temp:Feuchte:
Aussen-T/F 1626 16-04-2015 13:09:17 18.4 C 40 %
1627 16-04-2015 13:21:17 18.6 C 41 %
1628 16-04-2015 13:33:17 19.1 C 41 %
1629 16-04-2015 13:45:17 19.5 C 38 %
1630 16-04-2015 13:57:17 20 C 37 %
1631 16-04-2015 14:09:17 20.4 C 37 %
1632 16-04-2015 14:21:17 21 C 35 %
1633 16-04-2015 14:33:17 20.8 C 37 %
1634 16-04-2015 14:45:16 21 C 36 %
1635 16-04-2015 14:57:17 22.1 C 33 %
1636 16-04-2015 15:09:17 22.2 C 32 %
1637 16-04-2015 15:21:17 22.3 C 32 %
1638 16-04-2015 15:33:17 22.5 C 32 %
1639 16-04-2015 15:45:17 23.7 C 31 %
1640 16-04-2015 15:57:17 23.7 C 31 %
1641 16-04-2015 16:09:17 22.3 C 32 %
1642 16-04-2015 16:21:17 22 C 33 %
1643 16-04-2015 16:33:17 21.9 C 34 %
1644 16-04-2015 16:45:17 21.8 C 35 %
1645 16-04-2015 16:57:17 21.7 C 34 %
1646 16-04-2015 17:09:17 22.1 C 32 %
1647 16-04-2015 17:21:17 23.6 C 30 %
1648 16-04-2015 17:33:17 22.5 C 31 %
1649 16-04-2015 17:45:17 21.4 C 34 %
1650 16-04-2015 17:57:17 21.2 C 35 %
Sensor: Nr:Datum:Temp:Feuchte:
Aussen-T/F 1651 16-04-2015 18:09:17 21 C 35 %
1652 16-04-2015 18:21:17 20.9 C 36 %
1653 16-04-2015 18:33:17 20.5 C 36 %
1654 16-04-2015 18:45:17 20.9 C 36 %
1655 16-04-2015 18:57:17 20.7 C 36 %
1656 16-04-2015 19:09:17 19.5 C 38 %
1657 16-04-2015 19:21:17 18.9 C 40 %
1658 16-04-2015 19:33:17 18.5 C 41 %
1659 16-04-2015 19:45:17 18.1 C 41 %
1660 16-04-2015 19:57:17 17.8 C 42 %
1661 16-04-2015 20:09:17 17.4 C 43 %
1662 16-04-2015 20:21:17 17.2 C 43 %
1663 16-04-2015 20:33:17 17 C 43 %
1664 16-04-2015 20:45:17 16.9 C 43 %
1665 16-04-2015 20:57:17 16.1 C 46 %
1666 16-04-2015 21:09:17 16.2 C 46 %
1667 16-04-2015 21:21:17 15.9 C 47 %
1668 16-04-2015 21:33:17 16 C 46 %
1669 16-04-2015 21:45:17 16 C 46 %
1670 16-04-2015 21:57:17 15.4 C 49 %
1671 16-04-2015 22:09:17 15.8 C 47 %
1672 16-04-2015 22:21:17 15.7 C 48 %
1673 16-04-2015 22:33:17 14.9 C 52 %
1674 16-04-2015 22:45:17 14.2 C 55 %
1675 16-04-2015 22:57:17 14.5 C 54 %
Sensor: Nr:Datum:Temp:Feuchte:
Aussen-T/F 1676 16-04-2015 23:09:17 14.7 C 51 %
1677 16-04-2015 23:21:17 14.5 C 52 %
1678 16-04-2015 23:33:17 14 C 55 %
1679 16-04-2015 23:45:17 13.7 C 56 %
1680 16-04-2015 23:57:17 13.3 C 57 %
1681 17-04-2015 00:09:17 13.1 C 58 %
1682 17-04-2015 00:21:17 13.6 C 55 %
1683 17-04-2015 00:33:17 13.5 C 55 %
1684 17-04-2015 00:45:17 13.2 C 56 %
1685 17-04-2015 00:57:17 13.2 C 55 %
1686 17-04-2015 01:09:17 12.9 C 59 %
1687 17-04-2015 01:21:17 12.9 C 59 %
1688 17-04-2015 01:33:17 13.1 C 55 %
1689 17-04-2015 01:45:17 12.6 C 61 %
1690 17-04-2015 01:57:17 12.2 C 64 %
1691 17-04-2015 02:09:17 12 C 66 %
1692 17-04-2015 02:21:17 11.1 C 75 %
1693 17-04-2015 02:33:17 10.8 C 79 %
1694 17-04-2015 02:45:17 10.6 C 82 %
1695 17-04-2015 02:57:18 10.6 C 83 %
1696 17-04-2015 03:09:17 10.2 C 85 %
1697 17-04-2015 03:21:17 10.1 C 85 %
1698 17-04-2015 03:33:17 9.7 C 86 %
1699 17-04-2015 03:45:17 9.6 C 86 %
1700 17-04-2015 03:57:17 9.2 C 86 %
Sensor: Nr:Datum:Temp:Feuchte:
Aussen-T/F 1701 17-04-2015 04:09:17 9.1 C 87 %
1702 17-04-2015 04:21:17 8.9 C 87 %
1703 17-04-2015 04:33:17 8.7 C 87 %
1704 17-04-2015 04:45:17 8.3 C 87 %
1705 17-04-2015 04:57:17 8 C 87 %
1706 17-04-2015 05:09:17 7.9 C 87 %
1707 17-04-2015 05:21:17 7.8 C 87 %
1708 17-04-2015 05:33:17 7.6 C 86 %
1709 17-04-2015 05:45:17 7.7 C 84 %
1710 17-04-2015 05:57:17 7.7 C 82 %
1711 17-04-2015 06:09:17 7.7 C 80 %
1712 17-04-2015 06:21:16 7.6 C 81 %
1713 17-04-2015 06:33:17 7.4 C 80 %
1714 17-04-2015 06:45:17 7.4 C 80 %
1715 17-04-2015 06:57:17 7.6 C 82 %
1716 17-04-2015 07:09:17 7.9 C 83 %
1717 17-04-2015 07:21:17 8.1 C 79 %
1718 17-04-2015 07:33:17 8.4 C 77 %
1719 17-04-2015 07:45:17 8.5 C 76 %
1720 17-04-2015 07:57:17 8.7 C 73 %
1721 17-04-2015 08:09:17 8.9 C 73 %
1722 17-04-2015 08:21:17 9.1 C 72 %
1723 17-04-2015 08:33:17 9.2 C 69 %
1724 17-04-2015 08:45:17 9.4 C 67 %
1725 17-04-2015 08:57:17 9.7 C 66 %
Sensor: Nr:Datum:Temp:Feuchte:
Aussen-T/F 1726 17-04-2015 09:09:17 9.8 C 65 %
1727 17-04-2015 09:21:17 10.2 C 62 %
1728 17-04-2015 09:33:17 10.4 C 60 %
1729 17-04-2015 09:45:17 10.8 C 58 %
1730 17-04-2015 09:57:17 10.8 C 55 %
1731 17-04-2015 10:09:17 10.9 C 55 %
1732 17-04-2015 10:21:17 10.8 C 54 %
1733 17-04-2015 10:33:17 10.7 C 55 %
1734 17-04-2015 10:45:17 10.4 C 55 %
1735 17-04-2015 10:57:17 10.1 C 54 %
1736 17-04-2015 11:09:17 10.2 C 56 %
1737 17-04-2015 11:21:17 10.7 C 56 %
1738 17-04-2015 11:33:17 11.2 C 55 %
1739 17-04-2015 11:45:17 10.9 C 53 %
1740 17-04-2015 11:57:17 11.2 C 50 %
1741 17-04-2015 12:09:17 11.3 C 50 %
1742 17-04-2015 12:21:17 11.5 C 49 %
1743 17-04-2015 12:33:17 11.9 C 46 %
1744 17-04-2015 12:45:17 12.5 C 45 %
1745 17-04-2015 12:57:17 13.4 C 37 %
1746 17-04-2015 13:09:17 13.7 C 32 %
1747 17-04-2015 13:21:17 13.6 C 28 %
1748 17-04-2015 13:33:17 13.6 C 31 %
1749 17-04-2015 13:45:17 14.3 C 26 %
1750 17-04-2015 13:57:17 14.5 C 25 %
Sensor: Nr:Datum:Temp:Feuchte:
Aussen-T/F 1751 17-04-2015 14:09:17 14.5 C 26 %
1752 17-04-2015 14:21:17 15 C 27 %
1753 17-04-2015 14:33:17 15.2 C 26 %
1754 17-04-2015 14:45:17 15.8 C 26 %
1755 17-04-2015 14:57:17 15.4 C 26 %
1756 17-04-2015 15:09:17 16 C 26 %
1757 17-04-2015 15:21:17 17 C 25 %
1758 17-04-2015 15:33:17 17.2 C 25 %
1759 17-04-2015 15:45:17 16.4 C 25 %
1760 17-04-2015 15:57:17 17.3 C 23 %
1761 17-04-2015 16:09:17 16.5 C 23 %
1762 17-04-2015 16:21:17 16.8 C 23 %
1763 17-04-2015 16:33:17 16.7 C 23 %
1764 17-04-2015 16:45:17 16.9 C 27 %
1765 17-04-2015 16:57:17 16.3 C 28 %
1766 17-04-2015 17:09:17 15.5 C 31 %
1767 17-04-2015 17:21:17 14.7 C 32 %
1768 17-04-2015 17:33:17 14.8 C 32 %
1769 17-04-2015 17:45:17 14.7 C 32 %
1770 17-04-2015 17:57:17 15.1 C 31 %
1771 17-04-2015 18:09:17 14.4 C 32 %
1772 17-04-2015 18:21:17 14.9 C 30 %
1773 17-04-2015 18:33:17 14.9 C 31 %
1774 17-04-2015 18:45:17 14.1 C 32 %
1775 17-04-2015 18:57:17 14.3 C 31 %
Sensor: Nr:Datum:Temp:Feuchte:
Aussen-T/F 1776 17-04-2015 19:09:17 13.5 C 32 %
1777 17-04-2015 19:21:17 13.1 C 34 %
1778 17-04-2015 19:33:17 12.5 C 35 %
1779 17-04-2015 19:45:17 12.3 C 36 %
1780 17-04-2015 19:57:17 12 C 36 %
1781 17-04-2015 20:09:17 11.7 C 37 %
1782 17-04-2015 20:21:17 11.3 C 37 %
1783 17-04-2015 20:33:17 11.2 C 37 %
1784 17-04-2015 20:45:17 11 C 38 %
1785 17-04-2015 20:57:17 10.8 C 40 %
1786 17-04-2015 21:09:17 10.4 C 40 %
1787 17-04-2015 21:21:17 9.8 C 42 %
1788 17-04-2015 21:33:17 8.9 C 47 %
1789 17-04-2015 21:45:17 8.2 C 51 %
1790 17-04-2015 21:57:17 7.7 C 53 %
1791 17-04-2015 22:09:17 7.3 C 53 %
1792 17-04-2015 22:21:17 7 C 54 %
1793 17-04-2015 22:33:17 7.4 C 54 %
1794 17-04-2015 22:45:17 7.6 C 56 %
1795 17-04-2015 22:57:17 7.4 C 56 %
1796 17-04-2015 23:09:17 6.8 C 58 %
1797 17-04-2015 23:21:17 6.3 C 57 %
1798 17-04-2015 23:33:17 6.1 C 58 %
1799 17-04-2015 23:45:17 6 C 59 %
1800 17-04-2015 23:57:17 6 C 60 %
Sensor: Nr:Datum:Temp:Feuchte:
Aussen-T/F 1801 18-04-2015 00:09:17 5.8 C 61 %
1802 18-04-2015 00:21:17 5.6 C 61 %
1803 18-04-2015 00:33:17 5.3 C 63 %
1804 18-04-2015 00:45:17 5.1 C 64 %
1805 18-04-2015 00:57:17 5.1 C 65 %
1806 18-04-2015 01:09:17 4.8 C 66 %
1807 18-04-2015 01:21:17 4.7 C 67 %
1808 18-04-2015 01:33:17 4.7 C 67 %
1809 18-04-2015 01:45:17 4.4 C 68 %
1810 18-04-2015 01:57:17 4.4 C 69 %
1811 18-04-2015 02:09:17 4.1 C 69 %
1812 18-04-2015 02:21:17 4 C 70 %
1813 18-04-2015 02:33:17 4 C 69 %
1814 18-04-2015 02:45:17 3.7 C 71 %
1815 18-04-2015 02:57:17 3.8 C 73 %
1816 18-04-2015 03:09:17 3.8 C 73 %
1817 18-04-2015 03:21:17 3.4 C 73 %
1818 18-04-2015 03:33:17 3.4 C 75 %
1819 18-04-2015 03:45:17 3.2 C 76 %
1820 18-04-2015 03:57:17 2.8 C 77 %
1821 18-04-2015 04:09:17 2.9 C 78 %
1822 18-04-2015 04:21:17 2.7 C 79 %
1823 18-04-2015 04:33:17 2.6 C 80 %
1824 18-04-2015 04:45:17 2.5 C 80 %
1825 18-04-2015 04:57:17 2.4 C 80 %
Sensor: Nr:Datum:Temp:Feuchte:
Aussen-T/F 1826 18-04-2015 05:09:17 2.4 C 80 %
1827 18-04-2015 05:21:17 2.5 C 82 %
1828 18-04-2015 05:33:17 2.1 C 82 %
1829 18-04-2015 05:45:17 2 C 81 %
1830 18-04-2015 05:57:17 1.9 C 82 %
1831 18-04-2015 06:09:17 2 C 82 %
1832 18-04-2015 06:21:17 1.8 C 84 %
1833 18-04-2015 06:33:17 1.7 C 84 %
1834 18-04-2015 06:45:17 1.8 C 84 %
1835 18-04-2015 06:57:17 1.8 C 85 %
1836 18-04-2015 07:09:17 1.7 C 85 %
1837 18-04-2015 07:21:16 1.9 C 85 %
1838 18-04-2015 07:33:17 2 C 85 %
1839 18-04-2015 07:45:17 2.1 C 85 %
1840 18-04-2015 07:57:17 2.2 C 85 %
1841 18-04-2015 08:09:17 2.6 C 85 %
1842 18-04-2015 08:21:17 2.8 C 86 %
1843 18-04-2015 08:33:17 2.8 C 86 %
1844 18-04-2015 08:45:17 3 C 85 %
1845 18-04-2015 08:57:17 3.4 C 85 %
1846 18-04-2015 09:09:17 3.8 C 83 %
1847 18-04-2015 09:21:17 4.2 C 79 %
1848 18-04-2015 09:33:17 4.6 C 77 %
1849 18-04-2015 09:45:17 5.1 C 75 %
1850 18-04-2015 09:57:17 5.5 C 73 %
Sensor: Nr:Datum:Temp:Feuchte:
Aussen-T/F 1851 18-04-2015 10:09:17 5.9 C 71 %
1852 18-04-2015 10:21:17 6.3 C 70 %
1853 18-04-2015 10:33:17 7 C 68 %
1854 18-04-2015 10:45:16 7.4 C 66 %
1855 18-04-2015 10:57:16 7.8 C 64 %
1856 18-04-2015 11:09:17 8.8 C 57 %
1857 18-04-2015 11:21:17 9.4 C 50 %
1858 18-04-2015 11:33:17 9.6 C 45 %
1859 18-04-2015 11:45:16 10 C 42 %
1860 18-04-2015 11:57:16 10.8 C 37 %
1861 18-04-2015 12:09:16 10.7 C 35 %
1862 18-04-2015 12:21:17 10.7 C 35 %
1863 18-04-2015 12:33:17 10.7 C 35 %
1864 18-04-2015 12:45:17 11.1 C 31 %
1865 18-04-2015 12:57:17 11.5 C 32 %
1866 18-04-2015 13:09:17 11.5 C 32 %
1867 18-04-2015 13:21:17 12.2 C 31 %
1868 18-04-2015 13:33:17 12.4 C 30 %
1869 18-04-2015 13:45:17 12 C 30 %
1870 18-04-2015 13:57:17 12.7 C 29 %
1871 18-04-2015 14:09:17 12.4 C 29 %
1872 18-04-2015 14:21:17 12.6 C 29 %
1873 18-04-2015 14:33:17 13.1 C 26 %
1874 18-04-2015 14:45:16 13.7 C 21 %
1875 18-04-2015 14:57:17 14.1 C 22 %
Sensor: Nr:Datum:Temp:Feuchte:
Aussen-T/F 1876 18-04-2015 15:09:17 14.4 C 24 %
1877 18-04-2015 15:21:17 14.8 C 20 %
1878 18-04-2015 15:33:17 16 C 20 %
1879 18-04-2015 15:45:17 15.4 C 20 %
1880 18-04-2015 15:57:17 15.1 C 20 %
1881 18-04-2015 16:09:17 15.1 C 20 %
1882 18-04-2015 16:21:17 15.9 C 20 %
1883 18-04-2015 16:33:17 17 C 20 %
1884 18-04-2015 16:45:17 16 C 20 %
1885 18-04-2015 16:57:17 16.8 C 20 %
1886 18-04-2015 17:09:17 17.6 C 20 %
1887 18-04-2015 17:21:17 17.9 C 20 %
1888 18-04-2015 17:33:17 18.5 C 20 %
1889 18-04-2015 17:45:17 17.3 C 20 %
1890 18-04-2015 17:57:17 16.8 C 20 %
1891 18-04-2015 18:09:17 17.2 C 20 %
1892 18-04-2015 18:21:17 18.1 C 20 %
1893 18-04-2015 18:33:17 19.1 C 20 %
1894 18-04-2015 18:45:17 19.5 C 20 %
1895 18-04-2015 18:57:17 20 C 20 %
1896 18-04-2015 19:09:17 17.3 C 20 %
1897 18-04-2015 19:21:17 15.5 C 20 %
1898 18-04-2015 19:33:17 14.7 C 22 %
1899 18-04-2015 19:45:17 14.1 C 23 %
1900 18-04-2015 19:57:18 13.5 C 30 %
Sensor: Nr:Datum:Temp:Feuchte:
Aussen-T/F 1901 18-04-2015 20:09:17 12.1 C 36 %
1902 18-04-2015 20:21:17 10.5 C 42 %
1903 18-04-2015 20:33:17 10 C 43 %
1904 18-04-2015 20:45:17 9.4 C 43 %
1905 18-04-2015 20:57:17 8.9 C 44 %
1906 18-04-2015 21:09:17 8.8 C 46 %
1907 18-04-2015 21:21:17 8.5 C 45 %
1908 18-04-2015 21:33:17 8.4 C 46 %
1909 18-04-2015 21:45:17 7.8 C 49 %
1910 18-04-2015 21:57:17 7.5 C 50 %
1911 18-04-2015 22:09:17 7.1 C 51 %
1912 18-04-2015 22:21:17 7 C 53 %
1913 18-04-2015 22:33:17 6.7 C 52 %
1914 18-04-2015 22:45:17 6.4 C 54 %
1915 18-04-2015 22:57:17 6.2 C 55 %
1916 18-04-2015 23:09:17 5.9 C 56 %
1917 18-04-2015 23:21:17 5.2 C 58 %
1918 18-04-2015 23:33:17 5.1 C 58 %
1919 18-04-2015 23:45:17 5.1 C 59 %
1920 18-04-2015 23:57:18 4.9 C 60 %
1921 19-04-2015 00:09:18 4.6 C 61 %
1922 19-04-2015 00:21:17 4.6 C 62 %
1923 19-04-2015 00:33:18 4.1 C 63 %
1924 19-04-2015 00:45:17 4.1 C 65 %
1925 19-04-2015 00:57:17 4.1 C 66 %
Sensor: Nr:Datum:Temp:Feuchte:
Aussen-T/F 1926 19-04-2015 01:09:17 3.7 C 67 %
1927 19-04-2015 01:21:17 3.5 C 66 %
1928 19-04-2015 01:33:17 3.6 C 68 %
1929 19-04-2015 01:45:17 3.4 C 69 %
1930 19-04-2015 01:57:17 3.3 C 70 %
1931 19-04-2015 02:09:17 3.2 C 71 %
1932 19-04-2015 02:21:17 3.1 C 72 %
1933 19-04-2015 02:33:17 2.9 C 71 %
1934 19-04-2015 02:45:17 2.5 C 71 %
1935 19-04-2015 02:57:18 2.5 C 72 %
1936 19-04-2015 03:09:17 2.4 C 73 %
1937 19-04-2015 03:21:17 2.5 C 76 %
1938 19-04-2015 03:33:17 2.3 C 74 %
1939 19-04-2015 03:45:17 2 C 74 %
1940 19-04-2015 03:57:17 1.8 C 77 %
1941 19-04-2015 04:09:17 2 C 77 %
1942 19-04-2015 04:21:17 1.9 C 77 %
1943 19-04-2015 04:33:17 1.8 C 77 %
1944 19-04-2015 04:45:17 1.7 C 79 %
1945 19-04-2015 04:57:17 1.5 C 78 %
1946 19-04-2015 05:09:17 1.4 C 78 %
1947 19-04-2015 05:21:17 1.4 C 80 %
1948 19-04-2015 05:33:17 1.5 C 82 %
1949 19-04-2015 05:45:17 1.3 C 82 %
1950 19-04-2015 05:57:17 1.3 C 83 %
Sensor: Nr:Datum:Temp:Feuchte:
Aussen-T/F 1951 19-04-2015 06:09:17 1.2 C 83 %
1952 19-04-2015 06:21:17 0.8 C 82 %
1953 19-04-2015 06:33:17 0.8 C 83 %
1954 19-04-2015 06:45:17 1 C 84 %
1955 19-04-2015 06:57:17 1.1 C 85 %
1956 19-04-2015 07:09:17 1.1 C 85 %
1957 19-04-2015 07:21:17 1.2 C 86 %
1958 19-04-2015 07:33:17 1.3 C 87 %
1959 19-04-2015 07:45:17 1.5 C 87 %
1960 19-04-2015 07:57:17 1.5 C 87 %
1961 19-04-2015 08:09:17 1.7 C 87 %
1962 19-04-2015 08:21:17 1.9 C 85 %
1963 19-04-2015 08:33:17 2.5 C 86 %
1964 19-04-2015 08:45:17 2.9 C 86 %
1965 19-04-2015 08:57:17 3.3 C 84 %
1966 19-04-2015 09:09:17 3.7 C 83 %
1967 19-04-2015 09:21:16 4.4 C 78 %
1968 19-04-2015 09:33:17 4.7 C 74 %
1969 19-04-2015 09:45:17 5.3 C 70 %
1970 19-04-2015 09:57:17 5.9 C 67 %
1971 19-04-2015 10:09:17 6.5 C 65 %
1972 19-04-2015 10:21:17 7 C 62 %
1973 19-04-2015 10:33:17 7.9 C 57 %
1974 19-04-2015 10:45:17 9 C 50 %
1975 19-04-2015 10:57:17 9.8 C 47 %
Sensor: Nr:Datum:Temp:Feuchte:
Aussen-T/F 1976 19-04-2015 11:09:17 11.1 C 42 %
1977 19-04-2015 11:21:17 11.8 C 38 %
1978 19-04-2015 11:33:17 12.1 C 36 %
1979 19-04-2015 11:45:16 12.1 C 35 %
1980 19-04-2015 11:57:17 12.5 C 33 %
1981 19-04-2015 12:09:17 12.9 C 33 %
1982 19-04-2015 12:21:17 13.3 C 32 %
1983 19-04-2015 12:33:17 13.5 C 31 %
1984 19-04-2015 12:45:17 13.5 C 30 %
1985 19-04-2015 12:57:17 13.8 C 30 %
1986 19-04-2015 13:09:17 13.8 C 29 %
1987 19-04-2015 13:21:16 14.3 C 28 %
1988 19-04-2015 13:33:17 14.7 C 27 %
1989 19-04-2015 13:45:17 14.9 C 26 %
1990 19-04-2015 13:57:17 15.1 C 26 %
1991 19-04-2015 14:09:17 15.2 C 25 %
1992 19-04-2015 14:21:17 15.3 C 25 %
1993 19-04-2015 14:33:17 16.1 C 25 %
1994 19-04-2015 14:45:17 16.4 C 24 %
1995 19-04-2015 14:57:17 16.9 C 25 %
1996 19-04-2015 15:09:17 17.3 C 24 %
1997 19-04-2015 15:21:17 17.7 C 21 %
1998 19-04-2015 15:33:17 18.3 C 20 %
1999 19-04-2015 15:45:17 18.4 C 20 %
2000 19-04-2015 15:57:17 18.7 C 20 %
Sensor: Nr:Datum:Temp:Feuchte:
Aussen-T/F 2001 19-04-2015 16:09:17 18.5 C 20 %
2002 19-04-2015 16:21:17 19.2 C 20 %
2003 19-04-2015 16:33:17 19.3 C 20 %
2004 19-04-2015 16:45:17 19 C 20 %
2005 19-04-2015 16:57:17 19.6 C 20 %
2006 19-04-2015 17:09:17 20 C 20 %
2007 19-04-2015 17:21:17 20 C 20 %
2008 19-04-2015 17:33:17 19.5 C 20 %
2009 19-04-2015 17:45:17 19.3 C 20 %
2010 19-04-2015 17:57:17 20.8 C 20 %
2011 19-04-2015 18:09:17 21.1 C 20 %
2012 19-04-2015 18:21:17 21 C 20 %
2013 19-04-2015 18:33:17 22.5 C 20 %
2014 19-04-2015 18:45:17 23.1 C 20 %
2015 19-04-2015 18:57:17 22.9 C 20 %
2016 19-04-2015 19:09:17 20.1 C 20 %
2017 19-04-2015 19:21:17 18.8 C 20 %
2018 19-04-2015 19:33:17 17.7 C 20 %
2019 19-04-2015 19:45:17 17.2 C 22 %
2020 19-04-2015 19:57:17 15.8 C 30 %
2021 19-04-2015 20:09:17 14.3 C 34 %
2022 19-04-2015 20:21:17 13.3 C 36 %
2023 19-04-2015 20:33:17 12.7 C 37 %
2024 19-04-2015 20:45:17 12.3 C 36 %
2025 19-04-2015 20:57:17 12 C 37 %
Sensor: Nr:Datum:Temp:Feuchte:
Aussen-T/F 2026 19-04-2015 21:09:17 11.5 C 40 %
2027 19-04-2015 21:21:17 11.2 C 41 %
2028 19-04-2015 21:33:17 11 C 42 %
2029 19-04-2015 21:45:17 10.4 C 45 %
2030 19-04-2015 21:57:17 9.8 C 48 %
2031 19-04-2015 22:09:17 9.5 C 49 %
2032 19-04-2015 22:21:17 9.2 C 50 %
2033 19-04-2015 22:33:17 8.9 C 51 %
2034 19-04-2015 22:45:17 8.5 C 52 %
2035 19-04-2015 22:57:17 7.9 C 54 %
2036 19-04-2015 23:09:17 7.6 C 55 %
2037 19-04-2015 23:21:17 7.6 C 56 %
2038 19-04-2015 23:33:17 7.1 C 56 %
2039 19-04-2015 23:45:17 6.9 C 57 %
2040 19-04-2015 23:57:17 6.9 C 59 %
2041 20-04-2015 00:09:17 6.9 C 60 %
2042 20-04-2015 00:21:17 6.6 C 60 %
2043 20-04-2015 00:33:17 6.4 C 60 %
2044 20-04-2015 00:45:17 6.3 C 60 %
2045 20-04-2015 00:57:17 5.8 C 62 %
2046 20-04-2015 01:09:17 5.8 C 63 %
2047 20-04-2015 01:21:18 5.5 C 64 %
2048 20-04-2015 01:33:17 5.4 C 65 %
2049 20-04-2015 01:45:17 5.3 C 65 %
2050 20-04-2015 01:57:17 5.2 C 66 %
Sensor: Nr:Datum:Temp:Feuchte:
Aussen-T/F 2051 20-04-2015 02:09:17 4.9 C 68 %
2052 20-04-2015 02:21:17 4.8 C 69 %
2053 20-04-2015 02:33:17 4.8 C 70 %
2054 20-04-2015 02:45:17 4.6 C 70 %
2055 20-04-2015 02:57:17 4.4 C 71 %
2056 20-04-2015 03:09:17 4.3 C 71 %
2057 20-04-2015 03:21:17 4.2 C 72 %
2058 20-04-2015 03:33:17 4.1 C 72 %
2059 20-04-2015 03:45:17 3.9 C 74 %
2060 20-04-2015 03:57:17 4 C 74 %
2061 20-04-2015 04:09:17 4.1 C 74 %
2062 20-04-2015 04:21:17 3.8 C 74 %
2063 20-04-2015 04:33:17 3.7 C 75 %
2064 20-04-2015 04:45:17 3.8 C 76 %
2065 20-04-2015 04:57:17 3.9 C 77 %
2066 20-04-2015 05:09:17 3.6 C 77 %
2067 20-04-2015 05:21:17 3.6 C 78 %
2068 20-04-2015 05:33:17 3.5 C 79 %
2069 20-04-2015 05:45:17 3.4 C 80 %
2070 20-04-2015 05:57:18 3.2 C 79 %
2071 20-04-2015 06:09:17 3.2 C 79 %
2072 20-04-2015 06:21:17 3.5 C 81 %
2073 20-04-2015 06:33:17 3.4 C 82 %
2074 20-04-2015 06:45:16 3.5 C 82 %
2075 20-04-2015 06:57:17 3.3 C 81 %
Sensor: Nr:Datum:Temp:Feuchte:
Aussen-T/F 2076 20-04-2015 07:09:17 3.7 C 81 %
2077 20-04-2015 07:21:17 4.1 C 80 %
2078 20-04-2015 07:33:17 4.6 C 75 %
2079 20-04-2015 07:45:17 4.9 C 73 %
2080 20-04-2015 07:57:17 5.1 C 71 %
2081 20-04-2015 08:09:17 5 C 71 %
2082 20-04-2015 08:21:17 5.1 C 72 %
2083 20-04-2015 08:33:17 5 C 74 %
2084 20-04-2015 08:45:17 5.4 C 75 %
2085 20-04-2015 08:57:17 5.7 C 76 %
2086 20-04-2015 09:09:17 6.4 C 73 %
2087 20-04-2015 09:21:17 7.3 C 70 %
2088 20-04-2015 09:33:17 7.6 C 66 %
2089 20-04-2015 09:45:17 7.7 C 66 %
2090 20-04-2015 09:57:17 7.9 C 65 %
2091 20-04-2015 10:09:17 8.1 C 65 %
2092 20-04-2015 10:21:16 8.6 C 65 %
2093 20-04-2015 10:33:17 9.3 C 60 %
2094 20-04-2015 10:45:17 10.1 C 56 %
2095 20-04-2015 10:57:17 11 C 53 %
2096 20-04-2015 11:09:17 12.6 C 46 %
2097 20-04-2015 11:21:17 13 C 44 %
2098 20-04-2015 11:33:17 13.4 C 42 %
2099 20-04-2015 11:45:17 13.7 C 40 %
2100 20-04-2015 11:57:17 14 C 36 %
Sensor: Nr:Datum:Temp:Feuchte:
Aussen-T/F 2101 20-04-2015 12:09:17 14.2 C 37 %
2102 20-04-2015 12:21:17 15.2 C 33 %
2103 20-04-2015 12:33:17 15.4 C 33 %
2104 20-04-2015 12:45:17 15.6 C 32 %
2105 20-04-2015 12:57:17 15.9 C 33 %
2106 20-04-2015 13:09:17 16 C 32 %
2107 20-04-2015 13:21:17 16 C 32 %
2108 20-04-2015 13:33:17 16.1 C 32 %
2109 20-04-2015 13:45:17 16.4 C 33 %
2110 20-04-2015 13:57:17 16.8 C 31 %
2111 20-04-2015 14:09:16 17.6 C 31 %
2112 20-04-2015 14:21:17 17.5 C 30 %
2113 20-04-2015 14:33:17 18.3 C 30 %
2114 20-04-2015 14:45:17 19.2 C 25 %
2115 20-04-2015 14:57:17 19.5 C 24 %
2116 20-04-2015 15:09:17 19.9 C 21 %
2117 20-04-2015 15:21:17 20.4 C 20 %
2118 20-04-2015 15:33:17 20.9 C 20 %
2119 20-04-2015 15:45:17 21 C 20 %
2120 20-04-2015 15:57:17 21 C 20 %
2121 20-04-2015 16:09:17 21.2 C 20 %
2122 20-04-2015 16:21:17 21.5 C 20 %
2123 20-04-2015 16:33:18 22.5 C 20 %
2124 20-04-2015 16:45:17 22.5 C 20 %
2125 20-04-2015 16:57:17 22.4 C 20 %
Sensor: Nr:Datum:Temp:Feuchte:
Aussen-T/F 2126 20-04-2015 17:09:17 23 C 20 %
2127 20-04-2015 17:21:17 24.1 C 20 %
2128 20-04-2015 17:33:17 24.3 C 20 %
2129 20-04-2015 17:45:17 23.8 C 20 %
2130 20-04-2015 17:57:17 23.9 C 20 %
2131 20-04-2015 18:09:17 23.5 C 20 %
2132 20-04-2015 18:21:17 23.5 C 20 %
2133 20-04-2015 18:33:17 24 C 20 %
2134 20-04-2015 18:45:17 25 C 20 %
2135 20-04-2015 18:57:17 24.5 C 20 %
2136 20-04-2015 19:09:17 22.5 C 20 %
2137 20-04-2015 19:21:17 20.9 C 20 %
2138 20-04-2015 19:33:17 20.2 C 20 %
2139 20-04-2015 19:45:17 19.6 C 20 %
2140 20-04-2015 19:57:17 19.1 C 22 %
2141 20-04-2015 20:09:17 18.7 C 26 %
2142 20-04-2015 20:21:17 17.8 C 27 %
2143 20-04-2015 20:33:17 15.7 C 34 %
2144 20-04-2015 20:45:17 15.1 C 36 %
2145 20-04-2015 20:57:17 14.6 C 38 %
2146 20-04-2015 21:09:17 14.1 C 38 %
2147 20-04-2015 21:21:17 13.7 C 40 %
2148 20-04-2015 21:33:17 13.1 C 41 %
2149 20-04-2015 21:45:17 12.7 C 43 %
2150 20-04-2015 21:57:17 12.4 C 44 %
Sensor: Nr:Datum:Temp:Feuchte:
Aussen-T/F 2151 20-04-2015 22:09:17 11.9 C 46 %
2152 20-04-2015 22:21:17 11.5 C 47 %
2153 20-04-2015 22:33:17 11.4 C 48 %
2154 20-04-2015 22:45:17 11.4 C 48 %
2155 20-04-2015 22:57:17 11.5 C 47 %
2156 20-04-2015 23:09:17 11.4 C 48 %
2157 20-04-2015 23:21:17 11.1 C 49 %
2158 20-04-2015 23:33:17 10.2 C 51 %
2159 20-04-2015 23:45:17 10 C 53 %
2160 20-04-2015 23:57:17 10.1 C 54 %
2161 21-04-2015 00:09:17 10 C 54 %
2162 21-04-2015 00:21:17 9.8 C 56 %
2163 21-04-2015 00:33:17 9.1 C 58 %
2164 21-04-2015 00:45:17 9 C 58 %
2165 21-04-2015 00:57:17 8.6 C 60 %
2166 21-04-2015 01:09:17 8.1 C 61 %
2167 21-04-2015 01:21:17 8 C 62 %
2168 21-04-2015 01:33:17 7.7 C 63 %
2169 21-04-2015 01:45:17 7.6 C 64 %
2170 21-04-2015 01:57:17 7.3 C 65 %
2171 21-04-2015 02:09:17 7.4 C 66 %
2172 21-04-2015 02:21:17 7.2 C 65 %
2173 21-04-2015 02:33:17 6.9 C 66 %
2174 21-04-2015 02:45:17 6.8 C 68 %
2175 21-04-2015 02:57:17 6.6 C 69 %
Sensor: Nr:Datum:Temp:Feuchte:
Aussen-T/F 2176 21-04-2015 03:09:17 6.3 C 70 %
2177 21-04-2015 03:21:17 6.2 C 70 %
2178 21-04-2015 03:33:17 6 C 71 %
2179 21-04-2015 03:45:17 6 C 71 %
2180 21-04-2015 03:57:17 6 C 72 %
2181 21-04-2015 04:09:17 5.9 C 73 %
2182 21-04-2015 04:21:17 5.6 C 74 %
2183 21-04-2015 04:33:17 5.3 C 74 %
2184 21-04-2015 04:45:17 5.4 C 76 %
2185 21-04-2015 04:57:17 5.2 C 76 %
2186 21-04-2015 05:09:17 5.1 C 76 %
2187 21-04-2015 05:21:17 4.9 C 78 %
2188 21-04-2015 05:33:17 5 C 77 %
2189 21-04-2015 05:45:17 4.8 C 78 %
2190 21-04-2015 05:57:17 4.8 C 79 %
2191 21-04-2015 06:09:17 4.7 C 79 %
2192 21-04-2015 06:21:17 4.7 C 80 %
2193 21-04-2015 06:33:17 4.7 C 80 %
2194 21-04-2015 06:45:16 4.9 C 81 %
2195 21-04-2015 06:57:17 4.9 C 80 %
2196 21-04-2015 07:09:17 5.1 C 81 %
2197 21-04-2015 07:21:17 5 C 81 %
2198 21-04-2015 07:33:17 5.2 C 82 %
2199 21-04-2015 07:45:17 5.2 C 81 %
2200 21-04-2015 07:57:17 5.1 C 81 %
Sensor: Nr:Datum:Temp:Feuchte:
Aussen-T/F 2201 21-04-2015 08:09:17 5.3 C 81 %
2202 21-04-2015 08:21:17 5.4 C 81 %
2203 21-04-2015 08:33:17 5.7 C 81 %
2204 21-04-2015 08:45:17 6 C 79 %
2205 21-04-2015 08:57:17 6.3 C 79 %
2206 21-04-2015 09:09:17 6.6 C 79 %
2207 21-04-2015 09:21:17 7.2 C 76 %
2208 21-04-2015 09:33:17 7.6 C 75 %
2209 21-04-2015 09:45:17 8.2 C 73 %
2210 21-04-2015 09:57:17 8.7 C 71 %
2211 21-04-2015 10:09:17 9.5 C 68 %
2212 21-04-2015 10:21:17 10.1 C 65 %
2213 21-04-2015 10:33:17 10.6 C 63 %
2214 21-04-2015 10:45:17 11.2 C 61 %
2215 21-04-2015 10:57:17 12 C 59 %
2216 21-04-2015 11:09:17 13.3 C 56 %
2217 21-04-2015 11:21:17 14 C 49 %
2218 21-04-2015 11:33:17 14.1 C 50 %
2219 21-04-2015 11:45:17 14.4 C 48 %
2220 21-04-2015 11:57:17 14.8 C 46 %
2221 21-04-2015 12:09:17 15.2 C 43 %
2222 21-04-2015 12:21:17 15.5 C 39 %
2223 21-04-2015 12:33:17 15.9 C 39 %
2224 21-04-2015 12:45:17 15.9 C 37 %
2225 21-04-2015 12:57:17 16.2 C 36 %
Sensor: Nr:Datum:Temp:Feuchte:
Aussen-T/F 2226 21-04-2015 13:09:17 16.6 C 36 %
2227 21-04-2015 13:21:17 17 C 34 %
2228 21-04-2015 13:33:17 17.7 C 31 %
2229 21-04-2015 13:45:17 18.3 C 32 %
2230 21-04-2015 13:57:17 18.6 C 30 %
2231 21-04-2015 14:09:17 19.1 C 29 %
2232 21-04-2015 14:21:17 19 C 30 %
2233 21-04-2015 14:33:17 20.3 C 28 %
2234 21-04-2015 14:45:17 21.1 C 27 %
2235 21-04-2015 14:57:17 21.5 C 22 %
2236 21-04-2015 15:09:17 22.1 C 20 %
2237 21-04-2015 15:21:17 22.8 C 20 %
2238 21-04-2015 15:33:17 23.3 C 20 %
2239 21-04-2015 15:45:17 23.3 C 20 %
2240 21-04-2015 15:57:17 23.7 C 20 %
2241 21-04-2015 16:09:17 23.8 C 20 %
2242 21-04-2015 16:21:17 24.1 C 20 %
2243 21-04-2015 16:33:17 24.2 C 20 %
2244 21-04-2015 16:45:17 24.4 C 20 %
2245 21-04-2015 16:57:17 24.2 C 20 %
2246 21-04-2015 17:09:17 25.3 C 20 %
2247 21-04-2015 17:21:17 26.2 C 20 %
2248 21-04-2015 17:33:17 25.9 C 20 %
2249 21-04-2015 17:45:17 25.7 C 20 %
2250 21-04-2015 17:57:17 24.8 C 20 %
Sensor: Nr:Datum:Temp:Feuchte:
Aussen-T/F 2251 21-04-2015 18:09:17 24.2 C 20 %
2252 21-04-2015 18:21:17 24.4 C 20 %
2253 21-04-2015 18:33:17 24.5 C 20 %
2254 21-04-2015 18:45:17 25.9 C 20 %
2255 21-04-2015 18:57:17 26.1 C 20 %
2256 21-04-2015 19:09:17 24.9 C 20 %
2257 21-04-2015 19:21:17 22.4 C 21 %
2258 21-04-2015 19:33:18 20.9 C 23 %
2259 21-04-2015 19:45:17 20.4 C 25 %
2260 21-04-2015 19:57:17 19.7 C 22 %
2261 21-04-2015 20:09:17 18.7 C 28 %
2262 21-04-2015 20:21:17 18.1 C 26 %
2263 21-04-2015 20:33:17 16.4 C 30 %
2264 21-04-2015 20:45:17 15.6 C 33 %
2265 21-04-2015 20:57:17 15 C 35 %
2266 21-04-2015 21:09:17 15.6 C 32 %
2267 21-04-2015 21:21:17 15.6 C 29 %
2268 21-04-2015 21:33:17 15.4 C 31 %
2269 21-04-2015 21:45:17 14.7 C 33 %
2270 21-04-2015 21:57:17 14.7 C 34 %
2271 21-04-2015 22:09:17 13.8 C 37 %
2272 21-04-2015 22:21:17 13.7 C 36 %
2273 21-04-2015 22:33:17 13.2 C 38 %
2274 21-04-2015 22:45:17 13 C 39 %
2275 21-04-2015 22:57:17 12.7 C 41 %
Sensor: Nr:Datum:Temp:Feuchte:
Aussen-T/F 2276 21-04-2015 23:09:17 12.6 C 42 %
2277 21-04-2015 23:21:17 12.1 C 44 %
2278 21-04-2015 23:33:17 11.8 C 46 %
2279 21-04-2015 23:45:17 11.4 C 47 %
2280 21-04-2015 23:57:17 11.1 C 49 %
2281 22-04-2015 00:09:17 11 C 50 %
2282 22-04-2015 00:21:17 11.1 C 50 %
2283 22-04-2015 00:33:17 10.7 C 52 %
2284 22-04-2015 00:45:17 10.4 C 54 %
2285 22-04-2015 00:57:17 10.2 C 54 %
2286 22-04-2015 01:09:17 10.2 C 56 %
2287 22-04-2015 01:21:17 10 C 57 %
2288 22-04-2015 01:33:17 9.7 C 59 %
2289 22-04-2015 01:45:17 9.7 C 59 %
2290 22-04-2015 01:57:17 9.8 C 59 %
2291 22-04-2015 02:09:17 9.7 C 59 %
2292 22-04-2015 02:21:17 9.8 C 60 %
2293 22-04-2015 02:33:17 9.7 C 59 %
2294 22-04-2015 02:45:17 9.4 C 60 %
2295 22-04-2015 02:57:17 8.8 C 61 %
2296 22-04-2015 03:09:17 8.6 C 61 %
2297 22-04-2015 03:21:17 8.4 C 62 %
2298 22-04-2015 03:33:17 8.4 C 62 %
2299 22-04-2015 03:45:17 8.7 C 61 %
2300 22-04-2015 03:57:17 8.6 C 60 %
Sensor: Nr:Datum:Temp:Feuchte:
Aussen-T/F 2301 22-04-2015 04:09:17 8.3 C 60 %
2302 22-04-2015 04:21:17 8 C 63 %
2303 22-04-2015 04:33:17 8 C 63 %
2304 22-04-2015 04:45:17 7.7 C 65 %
2305 22-04-2015 04:57:17 7.5 C 66 %
2306 22-04-2015 05:09:17 7.3 C 68 %
2307 22-04-2015 05:21:17 7.2 C 68 %
2308 22-04-2015 05:33:17 6.8 C 70 %
2309 22-04-2015 05:45:17 6.7 C 72 %
2310 22-04-2015 05:57:17 6.7 C 73 %
2311 22-04-2015 06:09:17 6.1 C 74 %
2312 22-04-2015 06:21:17 6.2 C 76 %
2313 22-04-2015 06:33:17 6.2 C 77 %
2314 22-04-2015 06:45:17 6.1 C 77 %
2315 22-04-2015 06:57:17 6.2 C 77 %
2316 22-04-2015 07:09:17 6.5 C 77 %
2317 22-04-2015 07:21:17 6.4 C 77 %
2318 22-04-2015 07:33:17 6.5 C 76 %
2319 22-04-2015 07:45:16 6.4 C 75 %
2320 22-04-2015 07:57:17 6.2 C 76 %
2321 22-04-2015 08:09:17 6.2 C 77 %
2322 22-04-2015 08:21:17 6.4 C 77 %
2323 22-04-2015 08:33:17 6.7 C 76 %
2324 22-04-2015 08:45:17 7 C 71 %
2325 22-04-2015 08:57:17 7.2 C 69 %
Sensor: Nr:Datum:Temp:Feuchte:
Aussen-T/F 2326 22-04-2015 09:09:17 7.2 C 69 %
2327 22-04-2015 09:21:17 7.4 C 67 %
2328 22-04-2015 09:33:17 7.8 C 65 %
2329 22-04-2015 09:45:17 7.8 C 65 %
2330 22-04-2015 09:57:17 8.1 C 63 %
2331 22-04-2015 10:09:17 8.5 C 62 %
2332 22-04-2015 10:21:16 9.3 C 59 %
2333 22-04-2015 10:33:17 9.3 C 57 %
2334 22-04-2015 10:45:17 9.6 C 58 %
2335 22-04-2015 10:57:17 10.3 C 55 %
2336 22-04-2015 11:09:17 10.5 C 52 %
2337 22-04-2015 11:21:17 10 C 53 %
2338 22-04-2015 11:33:17 10.2 C 53 %
2339 22-04-2015 11:45:17 10.4 C 53 %
2340 22-04-2015 11:57:17 10.4 C 51 %
2341 22-04-2015 12:09:17 10.7 C 51 %
2342 22-04-2015 12:21:17 10.7 C 50 %
2343 22-04-2015 12:33:17 11 C 49 %
2344 22-04-2015 12:45:17 11 C 48 %
2345 22-04-2015 12:57:17 11.3 C 48 %
2346 22-04-2015 13:09:17 11.5 C 48 %
2347 22-04-2015 13:21:17 12 C 46 %
2348 22-04-2015 13:33:17 12 C 45 %
2349 22-04-2015 13:45:17 12.4 C 44 %
2350 22-04-2015 13:57:17 12.4 C 44 %
Sensor: Nr:Datum:Temp:Feuchte:
Aussen-T/F 2351 22-04-2015 14:09:17 12.8 C 43 %
2352 22-04-2015 14:21:17 13.1 C 42 %
2353 22-04-2015 14:33:17 13.3 C 41 %
2354 22-04-2015 14:45:17 14.1 C 39 %
2355 22-04-2015 14:57:17 14.6 C 40 %
2356 22-04-2015 15:09:18 14.7 C 40 %
2357 22-04-2015 15:21:17 15.4 C 37 %
2358 22-04-2015 15:33:17 15.9 C 37 %
2359 22-04-2015 15:45:17 15.8 C 37 %
2360 22-04-2015 15:57:17 15.4 C 37 %
2361 22-04-2015 16:09:17 16 C 35 %
2362 22-04-2015 16:21:17 17.2 C 35 %
2363 22-04-2015 16:33:17 16.5 C 36 %
2364 22-04-2015 16:45:17 16.5 C 35 %
2365 22-04-2015 16:57:17 16.9 C 35 %
2366 22-04-2015 17:09:17 17.9 C 33 %
2367 22-04-2015 17:21:16 18.1 C 32 %
2368 22-04-2015 17:33:17 17.8 C 32 %
2369 22-04-2015 17:45:17 18.5 C 30 %
2370 22-04-2015 17:57:17 17.6 C 31 %
2371 22-04-2015 18:09:17 18.3 C 30 %
2372 22-04-2015 18:21:17 18.1 C 29 %
2373 22-04-2015 18:33:17 17.2 C 30 %
2374 22-04-2015 18:45:17 18.3 C 29 %
2375 22-04-2015 18:57:17 18.5 C 27 %
Sensor: Nr:Datum:Temp:Feuchte:
Aussen-T/F 2376 22-04-2015 19:09:17 16.3 C 31 %
2377 22-04-2015 19:21:17 15 C 34 %
2378 22-04-2015 19:33:17 14.3 C 36 %
2379 22-04-2015 19:45:17 14 C 36 %
2380 22-04-2015 19:57:17 13.5 C 39 %
2381 22-04-2015 20:09:17 13.1 C 39 %
2382 22-04-2015 20:21:17 12.7 C 40 %
2383 22-04-2015 20:33:17 11.6 C 45 %
2384 22-04-2015 20:45:17 10.8 C 49 %
2385 22-04-2015 20:57:17 9.8 C 51 %
2386 22-04-2015 21:09:17 9.6 C 53 %
2387 22-04-2015 21:21:17 9.3 C 54 %
2388 22-04-2015 21:33:17 9.1 C 56 %
2389 22-04-2015 21:45:17 8.9 C 57 %
2390 22-04-2015 21:57:17 8.8 C 57 %
2391 22-04-2015 22:09:17 8.3 C 59 %
2392 22-04-2015 22:21:17 8.1 C 60 %
2393 22-04-2015 22:33:18 8 C 60 %
2394 22-04-2015 22:45:17 7.4 C 63 %
2395 22-04-2015 22:57:17 7.4 C 63 %
2396 22-04-2015 23:09:17 7.3 C 64 %
2397 22-04-2015 23:21:17 6.8 C 65 %
2398 22-04-2015 23:33:17 6.5 C 66 %
2399 22-04-2015 23:45:17 6.5 C 67 %
2400 22-04-2015 23:57:17 6.3 C 69 %
Sensor: Nr:Datum:Temp:Feuchte:
Aussen-T/F 2401 23-04-2015 00:09:17 6.2 C 70 %
2402 23-04-2015 00:21:17 6.1 C 70 %
2403 23-04-2015 00:33:17 5.6 C 71 %
2404 23-04-2015 00:45:17 5.5 C 72 %
2405 23-04-2015 00:57:17 5.3 C 73 %
2406 23-04-2015 01:09:17 5.3 C 73 %
2407 23-04-2015 01:21:17 5.3 C 73 %
2408 23-04-2015 01:33:17 4.9 C 73 %
2409 23-04-2015 01:45:17 4.8 C 74 %
2410 23-04-2015 01:57:17 4.7 C 75 %
2411 23-04-2015 02:09:17 4.7 C 77 %
2412 23-04-2015 02:21:17 4.5 C 77 %
2413 23-04-2015 02:33:17 4.5 C 79 %
2414 23-04-2015 02:45:17 4.2 C 79 %
2415 23-04-2015 02:57:17 4.1 C 79 %
2416 23-04-2015 03:09:17 4.3 C 80 %
2417 23-04-2015 03:21:17 4 C 81 %
2418 23-04-2015 03:33:17 4 C 81 %
2419 23-04-2015 03:45:17 3.8 C 82 %
2420 23-04-2015 03:57:17 3.6 C 83 %
2421 23-04-2015 04:09:17 3.9 C 84 %
2422 23-04-2015 04:21:17 3.7 C 84 %
2423 23-04-2015 04:33:17 3.5 C 84 %
2424 23-04-2015 04:45:17 3.6 C 86 %
2425 23-04-2015 04:57:17 3.3 C 86 %
Sensor: Nr:Datum:Temp:Feuchte:
Aussen-T/F 2426 23-04-2015 05:09:17 3 C 86 %
2427 23-04-2015 05:21:17 3.3 C 87 %
2428 23-04-2015 05:33:17 2.8 C 87 %
2429 23-04-2015 05:45:17 2.8 C 88 %
2430 23-04-2015 05:57:17 2.6 C 88 %
2431 23-04-2015 06:09:17 2.1 C 88 %
2432 23-04-2015 06:21:16 2.3 C 88 %
2433 23-04-2015 06:33:17 2.6 C 89 %
2434 23-04-2015 06:45:17 2.3 C 89 %
2435 23-04-2015 06:57:17 2.8 C 90 %
2436 23-04-2015 07:09:17 2.3 C 90 %
2437 23-04-2015 07:21:17 2.4 C 90 %
2438 23-04-2015 07:33:17 2.8 C 91 %
2439 23-04-2015 07:45:17 2.9 C 91 %
2440 23-04-2015 07:57:17 3 C 90 %
2441 23-04-2015 08:09:17 3.2 C 90 %
2442 23-04-2015 08:21:17 3.3 C 90 %
2443 23-04-2015 08:33:17 3.7 C 90 %
2444 23-04-2015 08:45:17 3.9 C 90 %
2445 23-04-2015 08:57:17 4 C 89 %
2446 23-04-2015 09:09:17 4.4 C 89 %
2447 23-04-2015 09:21:17 4.7 C 89 %
2448 23-04-2015 09:33:17 5.2 C 88 %
2449 23-04-2015 09:45:17 5.7 C 87 %
2450 23-04-2015 09:57:17 6.2 C 84 %
Sensor: Nr:Datum:Temp:Feuchte:
Aussen-T/F 2451 23-04-2015 10:09:17 6.7 C 82 %
2452 23-04-2015 10:21:17 7.3 C 79 %
2453 23-04-2015 10:33:17 8.3 C 72 %
2454 23-04-2015 10:45:17 9.1 C 67 %
2455 23-04-2015 10:57:17 10.4 C 58 %
2456 23-04-2015 11:09:17 11.4 C 55 %
2457 23-04-2015 11:22:16 11.8 C 53 %
2458 23-04-2015 11:33:17 12.4 C 49 %
2459 23-04-2015 11:45:17 12.4 C 48 %
2460 23-04-2015 11:57:17 12.7 C 46 %
2461 23-04-2015 12:09:17 12.9 C 46 %
2462 23-04-2015 12:22:17 13.2 C 44 %
2463 23-04-2015 12:33:17 13.5 C 42 %
2464 23-04-2015 12:45:17 13.6 C 43 %
2465 23-04-2015 12:57:17 13.5 C 44 %
2466 23-04-2015 13:09:17 13.9 C 42 %
2467 23-04-2015 13:21:17 14.1 C 42 %
2468 23-04-2015 13:33:17 14.8 C 40 %
2469 23-04-2015 13:46:17 15 C 38 %
2470 23-04-2015 13:58:17 15.4 C 37 %
2471 23-04-2015 14:09:17 15.8 C 35 %
2472 23-04-2015 14:21:17 16.2 C 33 %
2473 23-04-2015 14:34:17 16.7 C 32 %
2474 23-04-2015 14:45:17 17.5 C 30 %
2475 23-04-2015 14:57:17 18.4 C 29 %
Sensor: Nr:Datum:Temp:Feuchte:
Aussen-T/F 2476 23-04-2015 15:09:17 18.9 C 27 %
2477 23-04-2015 15:21:17 19.2 C 26 %
2478 23-04-2015 15:33:17 20.1 C 26 %
2479 23-04-2015 15:45:17 20.3 C 27 %
2480 23-04-2015 15:57:17 20 C 25 %
2481 23-04-2015 16:10:17 19.5 C 25 %
2482 23-04-2015 16:21:17 20.2 C 23 %
2483 23-04-2015 16:34:17 21 C 22 %
2484 23-04-2015 16:45:17 20.8 C 22 %
2485 23-04-2015 16:57:17 21.2 C 22 %
2486 23-04-2015 17:09:17 21.3 C 21 %
2487 23-04-2015 17:21:17 23.3 C 20 %
2488 23-04-2015 17:34:17 23.1 C 20 %
2489 23-04-2015 17:46:17 22.2 C 20 %
2490 23-04-2015 17:57:17 21.7 C 20 %
2491 23-04-2015 18:10:17 21.5 C 22 %
2492 23-04-2015 18:22:17 22 C 22 %
2493 23-04-2015 18:34:17 22.9 C 21 %
2494 23-04-2015 18:45:17 23.1 C 20 %
2495 23-04-2015 18:57:17 24.1 C 20 %
2496 23-04-2015 19:10:17 23.8 C 20 %
2497 23-04-2015 19:22:17 20.9 C 25 %
2498 23-04-2015 19:33:17 19.2 C 27 %
2499 23-04-2015 19:46:17 18.7 C 31 %
2500 23-04-2015 19:58:17 17.4 C 37 %
Sensor: Nr:Datum:Temp:Feuchte:
Aussen-T/F 2501 23-04-2015 20:09:17 16 C 41 %
2502 23-04-2015 20:21:17 15 C 43 %
2503 23-04-2015 20:33:17 14.1 C 46 %
2504 23-04-2015 20:46:17 13.7 C 47 %
2505 23-04-2015 20:58:17 13.2 C 47 %
2506 23-04-2015 21:09:17 12.7 C 50 %
2507 23-04-2015 21:22:17 12.2 C 50 %
2508 23-04-2015 21:34:17 11.8 C 52 %
2509 23-04-2015 21:46:17 11.5 C 53 %
2510 23-04-2015 21:58:17 11.1 C 55 %
2511 23-04-2015 22:09:17 10.8 C 57 %
2512 23-04-2015 22:22:17 10.4 C 58 %
2513 23-04-2015 22:34:17 10 C 58 %
2514 23-04-2015 22:46:17 9.6 C 60 %
2515 23-04-2015 22:58:17 9.4 C 61 %
2516 23-04-2015 23:10:17 9.2 C 62 %
2517 23-04-2015 23:22:17 8.8 C 63 %
2518 23-04-2015 23:34:17 8.6 C 64 %
2519 23-04-2015 23:46:17 8.4 C 64 %
2520 23-04-2015 23:58:17 8.1 C 65 %
2521 24-04-2015 00:10:17 7.8 C 66 %
2522 24-04-2015 00:21:17 7.7 C 67 %
2523 24-04-2015 00:34:17 7.6 C 69 %
2524 24-04-2015 00:46:17 7.6 C 69 %
2525 24-04-2015 00:57:17 7.3 C 70 %
Sensor: Nr:Datum:Temp:Feuchte:
Aussen-T/F 2526 24-04-2015 01:10:17 7.3 C 70 %
2527 24-04-2015 01:22:17 7.1 C 70 %
2528 24-04-2015 01:34:17 6.9 C 71 %
2529 24-04-2015 01:46:17 6.9 C 72 %
2530 24-04-2015 01:58:17 6.7 C 72 %
2531 24-04-2015 02:10:17 6.6 C 73 %
2532 24-04-2015 02:22:17 6.4 C 73 %
2533 24-04-2015 02:34:17 6.3 C 74 %
2534 24-04-2015 02:46:17 6.2 C 74 %
2535 24-04-2015 02:58:17 6.1 C 74 %
2536 24-04-2015 03:10:17 5.8 C 76 %
2537 24-04-2015 03:22:17 6.3 C 77 %
2538 24-04-2015 03:34:17 6.1 C 76 %
2539 24-04-2015 03:46:17 5.7 C 76 %
2540 24-04-2015 03:58:17 5.4 C 77 %
2541 24-04-2015 04:10:17 5.5 C 78 %
2542 24-04-2015 04:22:17 5.4 C 78 %
2543 24-04-2015 04:34:17 5.2 C 79 %
2544 24-04-2015 04:46:17 5.1 C 79 %
2545 24-04-2015 04:58:17 5 C 80 %
2546 24-04-2015 05:10:17 4.9 C 81 %
2547 24-04-2015 05:22:17 4.7 C 82 %
2548 24-04-2015 05:34:16 4.5 C 82 %
2549 24-04-2015 05:46:17 4.4 C 83 %
2550 24-04-2015 05:58:17 4.2 C 83 %
Sensor: Nr:Datum:Temp:Feuchte:
Aussen-T/F 2551 24-04-2015 06:10:16 4.2 C 83 %
2552 24-04-2015 06:22:17 4.3 C 84 %
2553 24-04-2015 06:34:17 4.3 C 84 %
2554 24-04-2015 06:46:17 4.2 C 84 %
2555 24-04-2015 06:58:17 4.5 C 85 %
2556 24-04-2015 07:10:17 4.3 C 86 %
2557 24-04-2015 07:22:17 4.6 C 86 %
2558 24-04-2015 07:34:17 4.6 C 86 %
2559 24-04-2015 07:46:17 4.7 C 86 %
2560 24-04-2015 07:58:17 4.9 C 87 %
2561 24-04-2015 08:10:17 5.1 C 86 %
2562 24-04-2015 08:22:17 5.4 C 85 %
2563 24-04-2015 08:34:17 5.5 C 85 %
2564 24-04-2015 08:46:17 5.8 C 84 %
2565 24-04-2015 08:58:17 6.1 C 83 %
2566 24-04-2015 09:10:17 6.5 C 82 %
2567 24-04-2015 09:22:17 6.9 C 81 %
2568 24-04-2015 09:34:16 7.5 C 79 %
2569 24-04-2015 09:46:17 8.2 C 75 %
2570 24-04-2015 09:58:17 8.7 C 73 %
2571 24-04-2015 10:10:17 9.3 C 70 %
2572 24-04-2015 10:22:16 10.2 C 65 %
2573 24-04-2015 10:34:16 10.5 C 65 %
2574 24-04-2015 10:46:16 11.7 C 62 %
2575 24-04-2015 10:58:16 12.4 C 59 %
Sensor: Nr:Datum:Temp:Feuchte:
Aussen-T/F 2576 24-04-2015 11:10:16 13.8 C 54 %
2577 24-04-2015 11:22:16 14.8 C 49 %
2578 24-04-2015 11:34:17 15.9 C 41 %
2579 24-04-2015 11:46:16 16.5 C 37 %
2580 24-04-2015 11:58:16 16.7 C 36 %
2581 24-04-2015 12:10:16 17 C 35 %
2582 24-04-2015 12:22:16 17.2 C 32 %
2583 24-04-2015 12:34:17 17.7 C 31 %
2584 24-04-2015 12:46:16 17.7 C 30 %
2585 24-04-2015 12:58:16 17.9 C 30 %
2586 24-04-2015 13:10:17 18.1 C 27 %
2587 24-04-2015 13:22:16 18.6 C 27 %
2588 24-04-2015 13:34:16 18.7 C 26 %
2589 24-04-2015 13:46:16 19 C 26 %
2590 24-04-2015 13:58:16 19.1 C 25 %
2591 24-04-2015 14:10:16 19.6 C 21 %
2592 24-04-2015 14:22:16 20 C 20 %
2593 24-04-2015 14:34:16 20.4 C 21 %
2594 24-04-2015 14:46:16 21.5 C 20 %
2595 24-04-2015 14:58:16 22 C 20 %
2596 24-04-2015 15:10:16 22.5 C 20 %
2597 24-04-2015 15:22:17 23 C 20 %
2598 24-04-2015 15:34:16 23.9 C 20 %
2599 24-04-2015 15:46:16 23.9 C 20 %
2600 24-04-2015 15:58:16 24 C 20 %
Sensor: Nr:Datum:Temp:Feuchte:
Aussen-T/F 2601 24-04-2015 16:10:16 24.5 C 20 %
2602 24-04-2015 16:22:16 24.5 C 20 %
2603 24-04-2015 16:34:17 24.9 C 20 %
2604 24-04-2015 16:46:17 25.1 C 20 %
2605 24-04-2015 16:58:17 25.2 C 20 %
2606 24-04-2015 17:10:16 25.8 C 20 %
2607 24-04-2015 17:22:16 27.1 C 20 %
2608 24-04-2015 17:34:16 25.8 C 20 %
2609 24-04-2015 17:46:16 26.1 C 20 %
2610 24-04-2015 17:58:16 25.5 C 20 %
2611 24-04-2015 18:10:16 25.2 C 20 %
2612 24-04-2015 18:22:16 24.9 C 20 %
2613 24-04-2015 18:34:16 25.3 C 20 %
2614 24-04-2015 18:46:16 25.8 C 20 %
2615 24-04-2015 18:58:16 25 C 20 %
2616 24-04-2015 19:10:16 23.5 C 20 %
2617 24-04-2015 19:22:16 22.1 C 23 %
2618 24-04-2015 19:34:16 21.4 C 27 %
2619 24-04-2015 19:46:16 20.7 C 30 %
2620 24-04-2015 19:58:16 19.9 C 33 %
2621 24-04-2015 20:10:16 18.3 C 35 %
2622 24-04-2015 20:22:16 17.2 C 36 %
2623 24-04-2015 20:34:16 16.2 C 39 %
2624 24-04-2015 20:46:16 15.4 C 40 %
2625 24-04-2015 20:58:16 14.9 C 42 %
Sensor: Nr:Datum:Temp:Feuchte:
Aussen-T/F 2626 24-04-2015 21:10:16 14.7 C 42 %
2627 24-04-2015 21:22:16 14.3 C 42 %
2628 24-04-2015 21:34:16 14 C 43 %
2629 24-04-2015 21:46:15 13.7 C 45 %
2630 24-04-2015 21:58:15 13.4 C 46 %
2631 24-04-2015 22:10:16 13.1 C 46 %
2632 24-04-2015 22:22:16 12.7 C 48 %
2633 24-04-2015 22:34:16 12.2 C 49 %
2634 24-04-2015 22:46:16 11.7 C 50 %
2635 24-04-2015 22:58:16 11.5 C 51 %
2636 24-04-2015 23:10:16 11 C 52 %
2637 24-04-2015 23:22:16 10.9 C 55 %
2638 24-04-2015 23:34:16 10.6 C 55 %
2639 24-04-2015 23:46:15 10.3 C 55 %
2640 24-04-2015 23:58:15 10.2 C 57 %
2641 25-04-2015 00:10:15 10.1 C 57 %
2642 25-04-2015 00:22:15 10.1 C 57 %
2643 25-04-2015 00:34:15 10 C 58 %
2644 25-04-2015 00:46:15 9.9 C 59 %
2645 25-04-2015 00:58:15 9.7 C 60 %
2646 25-04-2015 01:10:15 9.6 C 60 %
2647 25-04-2015 01:22:15 9.3 C 61 %
2648 25-04-2015 01:34:16 9.3 C 62 %
2649 25-04-2015 01:46:16 9 C 63 %
2650 25-04-2015 01:58:16 8.8 C 64 %
Sensor: Nr:Datum:Temp:Feuchte:
Aussen-T/F 2651 25-04-2015 02:10:16 8.7 C 65 %
2652 25-04-2015 02:22:16 8.8 C 66 %
2653 25-04-2015 02:34:16 8.6 C 66 %
2654 25-04-2015 02:46:17 8.7 C 68 %
2655 25-04-2015 02:58:17 8.9 C 68 %
2656 25-04-2015 03:10:17 9 C 67 %
2657 25-04-2015 03:22:17 9.2 C 68 %
2658 25-04-2015 03:34:17 9.2 C 67 %
2659 25-04-2015 03:46:17 9.3 C 66 %
2660 25-04-2015 03:58:17 9.2 C 67 %
2661 25-04-2015 04:10:17 9.1 C 69 %
2662 25-04-2015 04:22:17 9.2 C 68 %
2663 25-04-2015 04:34:17 9.2 C 66 %
2664 25-04-2015 04:46:17 9.3 C 67 %
2665 25-04-2015 04:58:17 9.2 C 68 %
2666 25-04-2015 05:10:17 9.2 C 69 %
2667 25-04-2015 05:22:17 9.2 C 71 %
2668 25-04-2015 05:34:17 9.1 C 71 %
2669 25-04-2015 05:46:17 9.1 C 71 %
2670 25-04-2015 05:58:17 9.1 C 71 %
2671 25-04-2015 06:10:17 9.2 C 70 %
2672 25-04-2015 06:22:16 9.3 C 71 %
2673 25-04-2015 06:34:17 9.5 C 72 %
2674 25-04-2015 06:46:17 9.8 C 71 %
2675 25-04-2015 06:58:17 9.8 C 70 %
Sensor: Nr:Datum:Temp:Feuchte:
Aussen-T/F 2676 25-04-2015 07:10:17 10 C 68 %
2677 25-04-2015 07:22:17 10.2 C 65 %
2678 25-04-2015 07:34:17 10.5 C 67 %
2679 25-04-2015 07:46:17 10.7 C 66 %
2680 25-04-2015 07:58:17 10.8 C 67 %
2681 25-04-2015 08:10:17 10.8 C 68 %
2682 25-04-2015 08:22:17 10.9 C 68 %
2683 25-04-2015 08:34:17 11.1 C 70 %
2684 25-04-2015 08:46:17 11.4 C 70 %
2685 25-04-2015 08:58:17 11.5 C 71 %
2686 25-04-2015 09:10:17 11.7 C 71 %
2687 25-04-2015 09:22:17 11.9 C 71 %
2688 25-04-2015 09:34:17 11.7 C 72 %
2689 25-04-2015 09:46:16 11.9 C 74 %
2690 25-04-2015 09:58:17 11.9 C 75 %
2691 25-04-2015 10:10:17 12.1 C 75 %
2692 25-04-2015 10:22:17 12.2 C 74 %
2693 25-04-2015 10:34:17 12.6 C 72 %
2694 25-04-2015 10:46:17 13 C 71 %
2695 25-04-2015 10:58:17 13.2 C 71 %
2696 25-04-2015 11:10:17 13.4 C 72 %
2697 25-04-2015 11:22:17 14.1 C 72 %
2698 25-04-2015 11:34:17 15.2 C 69 %
2699 25-04-2015 11:46:17 15.1 C 66 %
2700 25-04-2015 11:58:17 15.1 C 67 %
Sensor: Nr:Datum:Temp:Feuchte:
Aussen-T/F 2701 25-04-2015 12:10:17 15.8 C 63 %
2702 25-04-2015 12:22:17 16.3 C 60 %
2703 25-04-2015 12:34:17 16.4 C 58 %
2704 25-04-2015 12:46:17 16.5 C 57 %
2705 25-04-2015 12:58:17 16.7 C 56 %
2706 25-04-2015 13:10:17 17.3 C 53 %
2707 25-04-2015 13:22:17 17.8 C 52 %
2708 25-04-2015 13:34:17 18.3 C 49 %
2709 25-04-2015 13:46:17 17.9 C 49 %
2710 25-04-2015 13:58:17 18.1 C 47 %
2711 25-04-2015 14:10:17 18.7 C 46 %
2712 25-04-2015 14:22:17 18.5 C 46 %
2713 25-04-2015 14:34:17 19 C 46 %
2714 25-04-2015 14:46:17 18.6 C 46 %
2715 25-04-2015 14:58:17 18.5 C 46 %
2716 25-04-2015 15:10:17 17.6 C 48 %
2717 25-04-2015 15:22:17 18.1 C 48 %
2718 25-04-2015 15:34:17 17.9 C 47 %
2719 25-04-2015 15:46:17 17.7 C 49 %
2720 25-04-2015 15:58:17 17.8 C 50 %
2721 25-04-2015 16:10:17 18.2 C 49 %
2722 25-04-2015 16:22:17 18.4 C 49 %
2723 25-04-2015 16:34:17 18.7 C 48 %
2724 25-04-2015 16:46:17 17.8 C 51 %
2725 25-04-2015 16:58:17 17.1 C 52 %
Sensor: Nr:Datum:Temp:Feuchte:
Aussen-T/F 2726 25-04-2015 17:10:17 16.8 C 55 %
2727 25-04-2015 17:22:17 16.5 C 56 %
2728 25-04-2015 17:34:17 16 C 60 %
2729 25-04-2015 17:46:17 15.1 C 67 %
2730 25-04-2015 17:58:17 15.6 C 69 %
2731 25-04-2015 18:10:17 16.2 C 65 %
2732 25-04-2015 18:22:17 16.2 C 64 %
2733 25-04-2015 18:34:17 15.8 C 66 %
2734 25-04-2015 18:46:17 15.5 C 66 %
2735 25-04-2015 18:58:17 15.3 C 67 %
2736 25-04-2015 19:10:17 15 C 70 %
2737 25-04-2015 19:22:17 14.5 C 74 %
2738 25-04-2015 19:34:17 14.5 C 74 %
2739 25-04-2015 19:46:17 14.8 C 73 %
2740 25-04-2015 19:58:17 14.4 C 74 %
2741 25-04-2015 20:10:17 14.1 C 76 %
2742 25-04-2015 20:22:17 13.8 C 77 %
2743 25-04-2015 20:34:17 13.5 C 78 %
2744 25-04-2015 20:46:17 13.2 C 79 %
2745 25-04-2015 20:58:17 13 C 79 %
2746 25-04-2015 21:10:17 12.8 C 81 %
2747 25-04-2015 21:22:17 12.7 C 81 %
2748 25-04-2015 21:34:17 12.3 C 81 %
2749 25-04-2015 21:46:17 12.2 C 82 %
2750 25-04-2015 21:58:17 12.2 C 82 %
Sensor: Nr:Datum:Temp:Feuchte:
Aussen-T/F 2751 25-04-2015 22:10:17 12.1 C 82 %
2752 25-04-2015 22:22:17 12 C 82 %
2753 25-04-2015 22:34:17 12 C 83 %
2754 25-04-2015 22:46:17 11.9 C 84 %
2755 25-04-2015 22:58:17 11.9 C 84 %
2756 25-04-2015 23:10:17 11.7 C 84 %
2757 25-04-2015 23:22:17 11.4 C 84 %
2758 25-04-2015 23:34:17 11.2 C 84 %
2759 25-04-2015 23:46:17 11 C 84 %
2760 25-04-2015 23:58:17 10.9 C 86 %
2761 26-04-2015 00:10:17 10.8 C 86 %
2762 26-04-2015 00:22:17 10.8 C 87 %
2763 26-04-2015 00:34:17 10.8 C 87 %
2764 26-04-2015 00:46:17 10.6 C 87 %
2765 26-04-2015 00:58:17 10.4 C 87 %
2766 26-04-2015 01:10:17 10.6 C 87 %
2767 26-04-2015 01:22:17 10.8 C 88 %
2768 26-04-2015 01:34:17 10.8 C 88 %
2769 26-04-2015 01:46:17 10.8 C 88 %
2770 26-04-2015 01:58:17 10.7 C 88 %
2771 26-04-2015 02:10:17 10.7 C 87 %
2772 26-04-2015 02:22:17 10.8 C 88 %
2773 26-04-2015 02:34:17 11 C 87 %
2774 26-04-2015 02:46:17 11.1 C 87 %
2775 26-04-2015 02:58:17 11.2 C 87 %
Sensor: Nr:Datum:Temp:Feuchte:
Aussen-T/F 2776 26-04-2015 03:10:17 11.1 C 87 %
2777 26-04-2015 03:22:17 10.9 C 87 %
2778 26-04-2015 03:34:17 10.4 C 87 %
2779 26-04-2015 03:46:17 10.5 C 87 %
2780 26-04-2015 03:58:17 10.7 C 88 %
2781 26-04-2015 04:10:17 10.7 C 88 %
2782 26-04-2015 04:22:17 10.9 C 89 %
2783 26-04-2015 04:34:17 10.8 C 89 %
2784 26-04-2015 04:46:17 10.7 C 89 %
2785 26-04-2015 04:58:17 10.8 C 89 %
2786 26-04-2015 05:10:17 11 C 89 %
2787 26-04-2015 05:22:17 11.2 C 89 %
2788 26-04-2015 05:34:17 11.3 C 89 %
2789 26-04-2015 05:46:17 11.4 C 89 %
2790 26-04-2015 05:58:17 11.4 C 89 %
2791 26-04-2015 06:10:17 11.2 C 89 %
2792 26-04-2015 06:22:17 11.2 C 89 %
2793 26-04-2015 06:34:17 11.3 C 89 %
2794 26-04-2015 06:46:17 11.2 C 89 %
2795 26-04-2015 06:58:17 11 C 89 %
2796 26-04-2015 07:10:17 11.1 C 89 %
2797 26-04-2015 07:22:17 11.1 C 89 %
2798 26-04-2015 07:34:17 11.4 C 89 %
2799 26-04-2015 07:46:17 11.6 C 89 %
2800 26-04-2015 07:58:17 11.7 C 89 %
Sensor: Nr:Datum:Temp:Feuchte:
Aussen-T/F 2801 26-04-2015 08:10:17 12.3 C 89 %
2802 26-04-2015 08:22:17 13.1 C 88 %
2803 26-04-2015 08:34:17 13.5 C 87 %
2804 26-04-2015 08:46:17 14.3 C 78 %
2805 26-04-2015 08:58:17 14.7 C 70 %
2806 26-04-2015 09:10:17 14.9 C 66 %
2807 26-04-2015 09:22:17 15.2 C 64 %
2808 26-04-2015 09:34:17 15.3 C 64 %
2809 26-04-2015 09:46:17 15.3 C 63 %
2810 26-04-2015 09:58:17 15.9 C 61 %
2811 26-04-2015 10:10:17 16 C 59 %
2812 26-04-2015 10:22:17 16.3 C 58 %
2813 26-04-2015 10:34:17 16.5 C 57 %
2814 26-04-2015 10:46:17 16.3 C 57 %
2815 26-04-2015 10:58:17 16.4 C 56 %
2816 26-04-2015 11:10:17 16.6 C 56 %
2817 26-04-2015 11:22:17 16.9 C 56 %
2818 26-04-2015 11:34:17 17.1 C 54 %
2819 26-04-2015 11:46:17 17.2 C 53 %
2820 26-04-2015 11:58:17 18 C 49 %
2821 26-04-2015 12:10:17 18.1 C 48 %
2822 26-04-2015 12:22:17 18.2 C 48 %
2823 26-04-2015 12:34:17 18.5 C 48 %
2824 26-04-2015 12:46:17 18.7 C 48 %
2825 26-04-2015 12:58:17 18.6 C 47 %
Sensor: Nr:Datum:Temp:Feuchte:
Aussen-T/F 2826 26-04-2015 13:10:17 18.4 C 47 %
2827 26-04-2015 13:22:17 18.2 C 47 %
2828 26-04-2015 13:34:17 18.5 C 47 %
2829 26-04-2015 13:46:17 18.7 C 46 %
2830 26-04-2015 13:58:17 18.7 C 47 %
2831 26-04-2015 14:10:17 18.9 C 45 %
2832 26-04-2015 14:22:17 19.3 C 44 %
2833 26-04-2015 14:34:17 19.6 C 42 %
2834 26-04-2015 14:46:17 19.7 C 40 %
2835 26-04-2015 14:58:17 20 C 39 %
2836 26-04-2015 15:10:17 21 C 39 %
2837 26-04-2015 15:22:17 21.6 C 36 %
2838 26-04-2015 15:34:17 21.4 C 36 %
2839 26-04-2015 15:46:17 21.7 C 36 %
2840 26-04-2015 15:58:17 21.8 C 36 %
2841 26-04-2015 16:10:17 22.3 C 35 %
2842 26-04-2015 16:22:17 23.1 C 31 %
2843 26-04-2015 16:34:17 22.4 C 34 %
2844 26-04-2015 16:46:17 21.4 C 35 %
2845 26-04-2015 16:58:17 21.1 C 37 %
2846 26-04-2015 17:10:17 21.3 C 36 %
2847 26-04-2015 17:22:17 21.4 C 36 %
2848 26-04-2015 17:34:17 21.6 C 36 %
2849 26-04-2015 17:46:17 21.4 C 37 %
2850 26-04-2015 17:58:17 21.2 C 36 %
Sensor: Nr:Datum:Temp:Feuchte:
Aussen-T/F 2851 26-04-2015 18:10:17 21.1 C 36 %
2852 26-04-2015 18:22:17 22 C 35 %
2853 26-04-2015 18:34:17 21.4 C 35 %
2854 26-04-2015 18:46:17 20.6 C 38 %
2855 26-04-2015 18:58:17 20.2 C 43 %
2856 26-04-2015 19:10:17 19.6 C 45 %
2857 26-04-2015 19:22:17 18.5 C 50 %
2858 26-04-2015 19:34:17 18.4 C 50 %
2859 26-04-2015 19:46:17 18.1 C 50 %
2860 26-04-2015 19:58:17 18.2 C 48 %
2861 26-04-2015 20:10:17 17.6 C 50 %
2862 26-04-2015 20:22:17 17.3 C 52 %
2863 26-04-2015 20:34:17 16.8 C 55 %
2864 26-04-2015 20:46:17 16.5 C 56 %
2865 26-04-2015 20:58:17 16.2 C 58 %
2866 26-04-2015 21:10:17 15.9 C 60 %
2867 26-04-2015 21:22:17 15.9 C 59 %
2868 26-04-2015 21:34:17 15.8 C 62 %
2869 26-04-2015 21:46:17 15.5 C 65 %
2870 26-04-2015 21:58:17 14.6 C 72 %
2871 26-04-2015 22:10:17 14.2 C 78 %
2872 26-04-2015 22:22:17 13.8 C 82 %
2873 26-04-2015 22:34:17 13.6 C 83 %
2874 26-04-2015 22:46:17 13.4 C 84 %
2875 26-04-2015 22:58:17 13.3 C 86 %
Sensor: Nr:Datum:Temp:Feuchte:
Aussen-T/F 2876 26-04-2015 23:10:17 13.2 C 87 %
2877 26-04-2015 23:22:17 13.1 C 87 %
2878 26-04-2015 23:34:17 13.1 C 87 %
2879 26-04-2015 23:46:17 13.1 C 88 %
2880 26-04-2015 23:58:17 13.1 C 88 %
2881 27-04-2015 00:10:17 13.2 C 88 %
2882 27-04-2015 00:22:17 13 C 88 %
2883 27-04-2015 00:34:17 13.1 C 88 %
2884 27-04-2015 00:46:17 13 C 89 %
2885 27-04-2015 00:58:17 13 C 89 %
2886 27-04-2015 01:10:17 13 C 89 %
2887 27-04-2015 01:22:17 13 C 89 %
2888 27-04-2015 01:34:17 12.9 C 90 %
2889 27-04-2015 01:46:17 12.8 C 90 %
2890 27-04-2015 01:58:17 12.8 C 90 %
2891 27-04-2015 02:10:17 12.9 C 90 %
2892 27-04-2015 02:22:17 12.8 C 90 %
2893 27-04-2015 02:34:17 12.7 C 90 %
2894 27-04-2015 02:46:17 12.7 C 90 %
2895 27-04-2015 02:58:17 12.6 C 90 %
2896 27-04-2015 03:10:17 12.5 C 90 %
2897 27-04-2015 03:22:16 12.4 C 90 %
2898 27-04-2015 03:34:17 12.3 C 90 %
2899 27-04-2015 03:46:17 12.3 C 91 %
2900 27-04-2015 03:58:17 12.2 C 90 %
Sensor: Nr:Datum:Temp:Feuchte:
Aussen-T/F 2901 27-04-2015 04:10:17 12.2 C 91 %
2902 27-04-2015 04:22:17 12.2 C 91 %
2903 27-04-2015 04:34:17 12.2 C 91 %
2904 27-04-2015 04:46:16 12.1 C 91 %
2905 27-04-2015 04:58:16 12.1 C 91 %
2906 27-04-2015 05:10:16 12.1 C 91 %
2907 27-04-2015 05:22:17 12.1 C 91 %
2908 27-04-2015 05:34:17 12 C 91 %
2909 27-04-2015 05:46:16 12 C 91 %
2910 27-04-2015 05:58:17 12 C 91 %
2911 27-04-2015 06:10:17 12 C 91 %
2912 27-04-2015 06:22:17 12 C 91 %
2913 27-04-2015 06:34:17 12 C 91 %
2914 27-04-2015 06:46:17 12 C 91 %
2915 27-04-2015 06:58:17 12 C 91 %
2916 27-04-2015 07:10:17 12 C 91 %
2917 27-04-2015 07:22:17 11.7 C 92 %
2918 27-04-2015 07:34:17 11.3 C 92 %
2919 27-04-2015 07:46:17 11 C 91 %
2920 27-04-2015 07:58:17 10.9 C 92 %
2921 27-04-2015 08:10:17 10.9 C 91 %
2922 27-04-2015 08:22:17 11 C 91 %
2923 27-04-2015 08:34:17 11.1 C 90 %
2924 27-04-2015 08:46:17 11.1 C 90 %
2925 27-04-2015 08:58:17 11.2 C 90 %
Sensor: Nr:Datum:Temp:Feuchte:
Aussen-T/F 2926 27-04-2015 09:10:17 11.1 C 90 %
2927 27-04-2015 09:22:16 11.6 C 89 %
2928 27-04-2015 09:34:17 11.8 C 89 %
2929 27-04-2015 09:46:17 12.2 C 87 %
2930 27-04-2015 09:58:17 12.2 C 84 %
2931 27-04-2015 10:10:17 12.2 C 82 %
2932 27-04-2015 10:22:17 12 C 81 %
2933 27-04-2015 10:34:16 11.8 C 80 %
2934 27-04-2015 10:46:17 11.8 C 80 %
2935 27-04-2015 10:58:17 11.8 C 79 %
2936 27-04-2015 11:10:17 11.9 C 79 %
2937 27-04-2015 11:22:17 11.7 C 78 %
2938 27-04-2015 11:34:16 11.3 C 79 %
2939 27-04-2015 11:46:17 10.9 C 81 %
2940 27-04-2015 11:58:17 10.5 C 82 %
2941 27-04-2015 12:10:17 10.3 C 83 %
2942 27-04-2015 12:22:17 10.4 C 83 %
2943 27-04-2015 12:34:17 10.5 C 84 %
2944 27-04-2015 12:46:17 10.3 C 84 %
2945 27-04-2015 12:58:17 10.3 C 84 %
2946 27-04-2015 13:10:17 10.2 C 85 %
2947 27-04-2015 13:22:17 10.2 C 85 %
2948 27-04-2015 13:34:17 10.2 C 85 %
2949 27-04-2015 13:46:17 10.1 C 85 %
2950 27-04-2015 13:58:17 10.2 C 85 %
Sensor: Nr:Datum:Temp:Feuchte:
Aussen-T/F 2951 27-04-2015 14:10:17 10 C 85 %
2952 27-04-2015 14:22:17 10 C 85 %
2953 27-04-2015 14:34:17 9.9 C 87 %
2954 27-04-2015 14:46:17 9.7 C 86 %
2955 27-04-2015 14:58:17 9.6 C 86 %
2956 27-04-2015 15:10:17 9.5 C 86 %
2957 27-04-2015 15:22:17 9.2 C 86 %
2958 27-04-2015 15:34:17 9.3 C 86 %
2959 27-04-2015 15:46:17 9.3 C 86 %
2960 27-04-2015 15:58:17 9.3 C 86 %
2961 27-04-2015 16:10:17 9 C 86 %
2962 27-04-2015 16:22:17 9.1 C 86 %
2963 27-04-2015 16:34:17 8.9 C 87 %
2964 27-04-2015 16:46:17 8.7 C 87 %
2965 27-04-2015 16:58:17 8.6 C 87 %
2966 27-04-2015 17:10:17 8.5 C 87 %
2967 27-04-2015 17:22:17 8.5 C 87 %
2968 27-04-2015 17:34:17 8.5 C 87 %
2969 27-04-2015 17:46:17 8.5 C 87 %
2970 27-04-2015 17:58:17 8.4 C 88 %
2971 27-04-2015 18:10:17 8.4 C 88 %
2972 27-04-2015 18:22:17 8.3 C 88 %
2973 27-04-2015 18:34:17 8.2 C 88 %
2974 27-04-2015 18:46:17 8.1 C 88 %
2975 27-04-2015 18:58:17 8.1 C 88 %
Sensor: Nr:Datum:Temp:Feuchte:
Aussen-T/F 2976 27-04-2015 19:10:17 8 C 88 %
2977 27-04-2015 19:22:17 7.8 C 88 %
2978 27-04-2015 19:34:17 7.8 C 88 %
2979 27-04-2015 19:46:17 7.7 C 88 %
2980 27-04-2015 19:58:17 7.6 C 88 %
2981 27-04-2015 20:10:17 7.4 C 87 %
2982 27-04-2015 20:22:17 7.4 C 87 %
2983 27-04-2015 20:34:17 7.4 C 86 %
2984 27-04-2015 20:46:17 7.4 C 86 %
2985 27-04-2015 20:58:18 7.5 C 86 %
2986 27-04-2015 21:10:17 7.5 C 87 %
2987 27-04-2015 21:22:17 7.5 C 88 %
2988 27-04-2015 21:34:17 7.5 C 88 %
2989 27-04-2015 21:46:17 7.5 C 89 %
2990 27-04-2015 21:58:17 7.5 C 88 %
2991 27-04-2015 22:10:17 7.5 C 89 %
2992 27-04-2015 22:22:17 7.5 C 89 %
2993 27-04-2015 22:34:17 7.4 C 89 %
2994 27-04-2015 22:46:17 7.4 C 89 %
2995 27-04-2015 22:58:17 7.4 C 89 %
2996 27-04-2015 23:10:17 7.3 C 90 %
2997 27-04-2015 23:22:17 7.3 C 90 %
2998 27-04-2015 23:34:17 7.3 C 90 %
2999 27-04-2015 23:46:17 7.2 C 91 %
3000 27-04-2015 23:58:17 7.2 C 91 %
Sensor: Nr:Datum:Temp:Feuchte:
Aussen-T/F 3001 28-04-2015 00:10:17 7.1 C 91 %
3002 28-04-2015 00:22:17 7.1 C 91 %
3003 28-04-2015 00:34:17 7.1 C 91 %
3004 28-04-2015 00:46:17 7.1 C 92 %
3005 28-04-2015 00:58:17 7.1 C 92 %
3006 28-04-2015 01:10:17 7.1 C 92 %
3007 28-04-2015 01:22:17 7.1 C 92 %
3008 28-04-2015 01:34:17 7.1 C 92 %
3009 28-04-2015 01:46:17 7.1 C 91 %
3010 28-04-2015 01:58:17 7.1 C 91 %
3011 28-04-2015 02:10:17 7.3 C 89 %
3012 28-04-2015 02:22:17 7.3 C 87 %
3013 28-04-2015 02:34:17 7.3 C 86 %
3014 28-04-2015 02:46:17 7.2 C 86 %
3015 28-04-2015 02:58:17 7.1 C 86 %
3016 28-04-2015 03:10:18 7 C 86 %
3017 28-04-2015 03:22:17 7 C 86 %
3018 28-04-2015 03:34:17 7 C 86 %
3019 28-04-2015 03:46:17 6.7 C 87 %
3020 28-04-2015 03:58:17 6.6 C 86 %
3021 28-04-2015 04:10:17 6.4 C 84 %
3022 28-04-2015 04:22:17 6.4 C 83 %
3023 28-04-2015 04:34:17 6.3 C 82 %
3024 28-04-2015 04:46:17 6 C 83 %
3025 28-04-2015 04:58:17 6 C 84 %
Sensor: Nr:Datum:Temp:Feuchte:
Aussen-T/F 3026 28-04-2015 05:10:17 6 C 85 %
3027 28-04-2015 05:22:17 5.9 C 85 %
3028 28-04-2015 05:34:17 5.7 C 84 %
3029 28-04-2015 05:46:16 5.6 C 83 %
3030 28-04-2015 05:58:17 5.3 C 83 %
3031 28-04-2015 06:10:17 5.2 C 83 %
3032 28-04-2015 06:22:17 5 C 84 %
3033 28-04-2015 06:34:17 4.9 C 85 %
3034 28-04-2015 06:46:17 4.8 C 86 %
3035 28-04-2015 06:58:17 4.7 C 86 %
3036 28-04-2015 07:10:17 4.7 C 87 %
3037 28-04-2015 07:22:17 4.9 C 87 %
3038 28-04-2015 07:34:17 4.8 C 87 %
3039 28-04-2015 07:46:17 4.8 C 88 %
3040 28-04-2015 07:58:17 4.9 C 88 %
3041 28-04-2015 08:10:17 5 C 88 %
3042 28-04-2015 08:22:17 5.2 C 88 %
3043 28-04-2015 08:34:17 5.5 C 87 %
3044 28-04-2015 08:46:16 6.1 C 82 %
3045 28-04-2015 08:58:17 6.4 C 79 %
3046 28-04-2015 09:10:17 6.9 C 78 %
3047 28-04-2015 09:22:17 7.1 C 74 %
3048 28-04-2015 09:34:17 6.7 C 74 %
3049 28-04-2015 09:46:17 6.5 C 76 %
3050 28-04-2015 09:58:17 6.7 C 77 %
Sensor: Nr:Datum:Temp:Feuchte:
Aussen-T/F 3051 28-04-2015 10:10:17 7.1 C 75 %
3052 28-04-2015 10:22:17 7.5 C 75 %
3053 28-04-2015 10:34:17 8 C 75 %
3054 28-04-2015 10:46:16 8.8 C 72 %
3055 28-04-2015 10:58:16 9.6 C 58 %
3056 28-04-2015 11:10:17 10.2 C 53 %
3057 28-04-2015 11:22:17 9.8 C 55 %
3058 28-04-2015 11:34:17 9.9 C 54 %
3059 28-04-2015 11:46:17 10.1 C 55 %
3060 28-04-2015 11:58:17 10.8 C 50 %
3061 28-04-2015 12:10:17 10.8 C 49 %
3062 28-04-2015 12:22:17 11.1 C 49 %
3063 28-04-2015 12:34:17 11.5 C 45 %
3064 28-04-2015 12:46:17 11.7 C 43 %
3065 28-04-2015 12:58:17 12.4 C 40 %
3066 28-04-2015 13:10:17 12.7 C 40 %
3067 28-04-2015 13:22:17 11.8 C 42 %
3068 28-04-2015 13:34:17 12.3 C 42 %
3069 28-04-2015 13:46:17 12.7 C 42 %
3070 28-04-2015 13:58:17 12.5 C 41 %
3071 28-04-2015 14:10:17 12.5 C 40 %
3072 28-04-2015 14:22:17 12.6 C 42 %
3073 28-04-2015 14:34:17 13.5 C 39 %
3074 28-04-2015 14:46:17 12.3 C 39 %
3075 28-04-2015 14:58:17 12 C 40 %
Sensor: Nr:Datum:Temp:Feuchte:
Aussen-T/F 3076 28-04-2015 15:10:17 12.1 C 38 %
3077 28-04-2015 15:22:17 13.6 C 36 %
3078 28-04-2015 15:34:17 12.8 C 39 %
3079 28-04-2015 15:46:17 12.3 C 40 %
3080 28-04-2015 15:58:17 13 C 40 %
3081 28-04-2015 16:10:17 12.8 C 40 %
3082 28-04-2015 16:22:17 12.7 C 40 %
3083 28-04-2015 16:34:17 13 C 39 %
3084 28-04-2015 16:46:17 14.5 C 36 %
3085 28-04-2015 16:58:17 14.7 C 34 %
3086 28-04-2015 17:10:17 14.4 C 35 %
3087 28-04-2015 17:22:16 15.4 C 31 %
3088 28-04-2015 17:34:17 17 C 30 %
3089 28-04-2015 17:46:17 16.2 C 29 %
3090 28-04-2015 17:58:17 13.4 C 33 %
3091 28-04-2015 18:10:17 13.4 C 33 %
3092 28-04-2015 18:22:17 15.6 C 31 %
3093 28-04-2015 18:34:17 14.5 C 32 %
3094 28-04-2015 18:46:17 14.2 C 33 %
3095 28-04-2015 18:58:17 16.6 C 30 %
3096 28-04-2015 19:10:17 16 C 30 %
3097 28-04-2015 19:22:17 13.6 C 31 %
3098 28-04-2015 19:34:17 12.9 C 34 %
3099 28-04-2015 19:46:17 12.4 C 36 %
3100 28-04-2015 19:58:17 11.8 C 33 %
Sensor: Nr:Datum:Temp:Feuchte:
Aussen-T/F 3101 28-04-2015 20:10:17 11.4 C 32 %
3102 28-04-2015 20:22:17 10.4 C 42 %
3103 28-04-2015 20:34:16 9.5 C 51 %
3104 28-04-2015 20:46:17 8.2 C 56 %
3105 28-04-2015 20:58:17 8 C 55 %
3106 28-04-2015 21:10:17 7.7 C 59 %
3107 28-04-2015 21:22:17 7.1 C 60 %
3108 28-04-2015 21:34:17 6.7 C 60 %
3109 28-04-2015 21:46:17 6.6 C 61 %
3110 28-04-2015 21:58:17 6.4 C 61 %
3111 28-04-2015 22:10:17 6.1 C 64 %
3112 28-04-2015 22:22:17 5.8 C 66 %
3113 28-04-2015 22:34:17 5.7 C 67 %
3114 28-04-2015 22:46:17 5.3 C 72 %
3115 28-04-2015 22:58:17 5 C 74 %
3116 28-04-2015 23:10:17 4.7 C 76 %
3117 28-04-2015 23:22:17 4.6 C 77 %
3118 28-04-2015 23:34:17 4.6 C 79 %
3119 28-04-2015 23:46:17 4.2 C 78 %
3120 28-04-2015 23:58:17 4.2 C 78 %
3121 29-04-2015 00:10:17 4.2 C 77 %
3122 29-04-2015 00:22:17 4.1 C 77 %
3123 29-04-2015 00:34:17 3.9 C 77 %
3124 29-04-2015 00:46:17 3.6 C 76 %
3125 29-04-2015 00:58:17 3.4 C 78 %
Sensor: Nr:Datum:Temp:Feuchte:
Aussen-T/F 3126 29-04-2015 01:10:16 3.5 C 80 %
3127 29-04-2015 01:22:17 3.2 C 81 %
3128 29-04-2015 01:34:17 3.1 C 82 %
3129 29-04-2015 01:46:17 3 C 83 %
3130 29-04-2015 01:58:17 2.8 C 84 %
3131 29-04-2015 02:10:17 2.8 C 84 %
3132 29-04-2015 02:22:17 2.5 C 84 %
3133 29-04-2015 02:34:17 2.3 C 84 %
3134 29-04-2015 02:46:17 2.3 C 84 %
3135 29-04-2015 02:58:17 2.2 C 84 %
3136 29-04-2015 03:10:17 2.2 C 85 %
3137 29-04-2015 03:22:17 2 C 85 %
3138 29-04-2015 03:34:17 1.9 C 86 %
3139 29-04-2015 03:46:17 1.8 C 86 %
3140 29-04-2015 03:58:17 1.9 C 87 %
3141 29-04-2015 04:10:17 1.4 C 87 %
3142 29-04-2015 04:22:17 1.4 C 87 %
3143 29-04-2015 04:34:17 1.3 C 87 %
3144 29-04-2015 04:46:17 1.3 C 88 %
3145 29-04-2015 04:58:17 1.1 C 88 %
3146 29-04-2015 05:10:17 0.9 C 89 %
3147 29-04-2015 05:22:17 1.3 C 89 %
3148 29-04-2015 05:34:17 0.9 C 90 %
3149 29-04-2015 05:46:17 0.8 C 90 %
3150 29-04-2015 05:58:17 1 C 90 %
Sensor: Nr:Datum:Temp:Feuchte:
Aussen-T/F 3151 29-04-2015 06:10:17 0.7 C 90 %
3152 29-04-2015 06:22:17 0.7 C 91 %
3153 29-04-2015 06:34:17 0.7 C 91 %
3154 29-04-2015 06:46:16 0.7 C 91 %
3155 29-04-2015 06:58:16 0.7 C 91 %
3156 29-04-2015 07:10:17 0.9 C 91 %
3157 29-04-2015 07:22:17 0.9 C 91 %
3158 29-04-2015 07:34:17 1.2 C 91 %
3159 29-04-2015 07:46:17 1.6 C 91 %
3160 29-04-2015 07:58:17 2 C 91 %
3161 29-04-2015 08:10:17 2.1 C 91 %
3162 29-04-2015 08:22:17 2.6 C 90 %
3163 29-04-2015 08:34:17 3.1 C 89 %
3164 29-04-2015 08:46:17 3.6 C 88 %
3165 29-04-2015 08:58:17 4 C 87 %
3166 29-04-2015 09:10:17 4.3 C 85 %
3167 29-04-2015 09:22:17 4.7 C 81 %
3168 29-04-2015 09:34:17 5.4 C 71 %
3169 29-04-2015 09:46:17 5.9 C 68 %
3170 29-04-2015 09:58:17 6.5 C 63 %
3171 29-04-2015 10:10:17 6.8 C 63 %
3172 29-04-2015 10:22:17 7.4 C 61 %
3173 29-04-2015 10:34:17 8.3 C 60 %
3174 29-04-2015 10:46:17 8.9 C 57 %
3175 29-04-2015 10:58:17 9.5 C 55 %
Sensor: Nr:Datum:Temp:Feuchte:
Aussen-T/F 3176 29-04-2015 11:10:17 10.2 C 52 %
3177 29-04-2015 11:22:17 10.3 C 50 %
3178 29-04-2015 11:34:17 10.7 C 51 %
3179 29-04-2015 11:46:17 11.2 C 48 %
3180 29-04-2015 11:58:17 12.1 C 41 %
3181 29-04-2015 12:10:17 12.2 C 38 %
3182 29-04-2015 12:22:17 12.7 C 36 %
3183 29-04-2015 12:34:17 12.7 C 35 %
3184 29-04-2015 12:46:17 12.9 C 34 %
3185 29-04-2015 12:58:17 13.1 C 33 %
3186 29-04-2015 13:10:17 13.8 C 32 %
3187 29-04-2015 13:22:17 13.8 C 33 %
3188 29-04-2015 13:34:17 14.2 C 31 %
3189 29-04-2015 13:46:17 14.7 C 35 %
3190 29-04-2015 13:58:17 14.7 C 32 %
3191 29-04-2015 14:10:17 14.9 C 31 %
3192 29-04-2015 14:22:17 15.2 C 32 %
3193 29-04-2015 14:34:17 15.8 C 31 %
3194 29-04-2015 14:46:17 16 C 30 %
3195 29-04-2015 14:58:17 16.5 C 29 %
3196 29-04-2015 15:10:17 16.2 C 28 %
3197 29-04-2015 15:22:17 16.3 C 30 %
3198 29-04-2015 15:34:17 16.2 C 27 %
3199 29-04-2015 15:46:17 16.4 C 30 %
3200 29-04-2015 15:58:17 16.2 C 29 %
Sensor: Nr:Datum:Temp:Feuchte:
Aussen-T/F 3201 29-04-2015 16:10:17 16.2 C 31 %
3202 29-04-2015 16:22:17 16 C 28 %
3203 29-04-2015 16:34:17 16.1 C 29 %
3204 29-04-2015 16:46:17 16.6 C 31 %
3205 29-04-2015 16:58:17 16.4 C 30 %
3206 29-04-2015 17:10:17 15.9 C 35 %
3207 29-04-2015 17:22:17 15.4 C 36 %
3208 29-04-2015 17:34:16 15.3 C 39 %
3209 29-04-2015 17:46:17 15.4 C 35 %
3210 29-04-2015 17:58:18 15.6 C 34 %
3211 29-04-2015 18:10:17 15.1 C 38 %
3212 29-04-2015 18:22:17 14.5 C 48 %
3213 29-04-2015 18:34:17 14.5 C 48 %
3214 29-04-2015 18:46:17 14.9 C 49 %
3215 29-04-2015 18:58:17 14.8 C 51 %
3216 29-04-2015 19:10:17 13.9 C 52 %
3217 29-04-2015 19:22:17 13.2 C 46 %
3218 29-04-2015 19:34:17 12.9 C 48 %
3219 29-04-2015 19:46:17 12.5 C 51 %
3220 29-04-2015 19:58:17 12 C 54 %
3221 29-04-2015 20:10:17 11.5 C 55 %
3222 29-04-2015 20:22:17 10.9 C 58 %
3223 29-04-2015 20:34:17 10.6 C 59 %
3224 29-04-2015 20:46:17 10.2 C 61 %
3225 29-04-2015 20:58:17 9.9 C 63 %
Sensor: Nr:Datum:Temp:Feuchte:
Aussen-T/F 3226 29-04-2015 21:10:18 9.9 C 62 %
3227 29-04-2015 21:22:17 9.8 C 63 %
3228 29-04-2015 21:34:17 9.6 C 64 %
3229 29-04-2015 21:46:17 9.4 C 66 %
3230 29-04-2015 21:58:17 9.3 C 66 %
3231 29-04-2015 22:10:17 9.1 C 67 %
3232 29-04-2015 22:22:17 8.9 C 70 %
3233 29-04-2015 22:34:17 8.9 C 70 %
3234 29-04-2015 22:46:17 8.7 C 70 %
3235 29-04-2015 22:58:17 8.6 C 71 %
3236 29-04-2015 23:10:17 8.4 C 68 %
3237 29-04-2015 23:22:17 8.6 C 68 %
3238 29-04-2015 23:34:17 8.5 C 69 %
3239 29-04-2015 23:46:17 8.3 C 68 %
3240 29-04-2015 23:58:17 8.3 C 69 %
3241 30-04-2015 00:10:17 8.1 C 70 %
3242 30-04-2015 00:22:17 8.1 C 70 %
3243 30-04-2015 00:34:17 8.1 C 68 %
3244 30-04-2015 00:46:17 8.1 C 68 %
3245 30-04-2015 00:58:17 8 C 68 %
3246 30-04-2015 01:10:17 8.1 C 68 %
3247 30-04-2015 01:22:17 8 C 68 %
3248 30-04-2015 01:34:17 8 C 68 %
3249 30-04-2015 01:46:17 7.9 C 70 %
3250 30-04-2015 01:58:17 7.8 C 70 %
Sensor: Nr:Datum:Temp:Feuchte:
Aussen-T/F 3251 30-04-2015 02:10:17 7.8 C 71 %
3252 30-04-2015 02:22:17 7.5 C 72 %
3253 30-04-2015 02:34:17 7.6 C 71 %
3254 30-04-2015 02:46:17 7.6 C 71 %
3255 30-04-2015 02:58:17 7.3 C 72 %
3256 30-04-2015 03:10:17 7 C 73 %
3257 30-04-2015 03:22:17 6.9 C 76 %
3258 30-04-2015 03:34:17 6.9 C 76 %
3259 30-04-2015 03:46:17 6.9 C 77 %
3260 30-04-2015 03:58:17 6.9 C 77 %
3261 30-04-2015 04:10:17 6.8 C 76 %
3262 30-04-2015 04:22:17 6.4 C 76 %
3263 30-04-2015 04:34:17 6.3 C 78 %
3264 30-04-2015 04:46:17 6.3 C 78 %
3265 30-04-2015 04:58:17 6.7 C 77 %
3266 30-04-2015 05:10:17 6.7 C 76 %
3267 30-04-2015 05:22:17 6.6 C 77 %
3268 30-04-2015 05:34:17 6.5 C 78 %
3269 30-04-2015 05:46:17 6.7 C 78 %
3270 30-04-2015 05:58:17 7 C 75 %
3271 30-04-2015 06:10:17 6.9 C 77 %
3272 30-04-2015 06:22:17 6.5 C 78 %
3273 30-04-2015 06:34:17 6.4 C 80 %
3274 30-04-2015 06:46:17 6.3 C 81 %
3275 30-04-2015 06:58:17 6.1 C 82 %
Sensor: Nr:Datum:Temp:Feuchte:
Aussen-T/F 3276 30-04-2015 07:10:17 5.9 C 83 %
3277 30-04-2015 07:22:17 6 C 83 %
3278 30-04-2015 07:34:17 7 C 82 %
3279 30-04-2015 07:46:17 7.6 C 79 %
3280 30-04-2015 07:58:17 8.5 C 72 %
3281 30-04-2015 08:10:17 8.9 C 66 %
3282 30-04-2015 08:22:17 9.2 C 63 %
3283 30-04-2015 08:34:17 9.5 C 62 %
3284 30-04-2015 08:46:17 9.7 C 60 %
3285 30-04-2015 08:58:17 9.9 C 60 %
3286 30-04-2015 09:10:17 9.8 C 59 %
3287 30-04-2015 09:22:17 9.6 C 60 %
3288 30-04-2015 09:34:17 10 C 58 %
3289 30-04-2015 09:46:17 10.6 C 56 %
3290 30-04-2015 09:58:17 10.6 C 55 %
3291 30-04-2015 10:10:17 11.2 C 54 %
3292 30-04-2015 10:22:16 11.6 C 52 %
3293 30-04-2015 10:34:16 11.8 C 52 %
3294 30-04-2015 10:46:16 12.1 C 51 %
3295 30-04-2015 10:58:16 12.3 C 50 %
3296 30-04-2015 11:10:17 12.3 C 52 %
3297 30-04-2015 11:22:16 12.4 C 51 %
3298 30-04-2015 11:34:17 13 C 49 %
3299 30-04-2015 11:46:17 13.3 C 47 %
3300 30-04-2015 11:58:17 13.7 C 46 %
Sensor: Nr:Datum:Temp:Feuchte:
Aussen-T/F 3301 30-04-2015 12:10:17 13.4 C 47 %
3302 30-04-2015 12:22:17 13.3 C 46 %
3303 30-04-2015 12:34:17 13.5 C 47 %
3304 30-04-2015 12:46:17 14 C 46 %
3305 30-04-2015 12:58:17 14.4 C 46 %
3306 30-04-2015 13:10:17 14.7 C 44 %
3307 30-04-2015 13:22:17 14.1 C 45 %
3308 30-04-2015 13:34:17 14 C 48 %
3309 30-04-2015 13:46:17 14 C 48 %
3310 30-04-2015 13:58:17 14.2 C 51 %
3311 30-04-2015 14:10:17 14 C 51 %
3312 30-04-2015 14:22:17 12.9 C 59 %
3313 30-04-2015 14:34:17 11.8 C 66 %
3314 30-04-2015 14:46:17 10.8 C 73 %
3315 30-04-2015 14:58:17 11.3 C 75 %
3316 30-04-2015 15:10:17 11.9 C 71 %
3317 30-04-2015 15:22:17 12.6 C 65 %
3318 30-04-2015 15:34:17 12.7 C 62 %
3319 30-04-2015 15:46:17 12 C 60 %
3320 30-04-2015 15:58:17 11.4 C 65 %
3321 30-04-2015 16:10:17 11.5 C 68 %
3322 30-04-2015 16:22:17 12.5 C 63 %
3323 30-04-2015 16:34:17 12.2 C 61 %
3324 30-04-2015 16:46:17 12 C 62 %
3325 30-04-2015 16:58:17 11.9 C 65 %
Sensor: Nr:Datum:Temp:Feuchte:
Aussen-T/F 3326 30-04-2015 17:10:17 11.9 C 65 %
3327 30-04-2015 17:22:17 11.4 C 65 %
3328 30-04-2015 17:34:17 11.1 C 66 %
3329 30-04-2015 17:46:17 11 C 67 %
3330 30-04-2015 17:58:17 10.8 C 68 %
3331 30-04-2015 18:10:17 10.5 C 67 %
3332 30-04-2015 18:22:17 10.2 C 66 %
3333 30-04-2015 18:34:17 10.2 C 69 %
3334 30-04-2015 18:46:17 10.1 C 68 %
3335 30-04-2015 18:58:17 10.1 C 67 %
3336 30-04-2015 19:10:17 10.1 C 68 %
3337 30-04-2015 19:22:17 9.8 C 71 %
3338 30-04-2015 19:34:17 9.7 C 71 %
3339 30-04-2015 19:46:17 9.8 C 70 %
3340 30-04-2015 19:58:17 9.7 C 72 %
3341 30-04-2015 20:10:17 9.5 C 73 %
3342 30-04-2015 20:22:17 9.5 C 73 %
3343 30-04-2015 20:34:17 9.3 C 74 %
3344 30-04-2015 20:46:17 9.2 C 74 %
3345 30-04-2015 20:58:17 8.9 C 81 %
3346 30-04-2015 21:10:17 8.8 C 83 %
3347 30-04-2015 21:22:17 8.8 C 82 %
3348 30-04-2015 21:34:17 8.6 C 83 %
3349 30-04-2015 21:46:17 8.6 C 84 %
3350 30-04-2015 21:58:17 8.5 C 86 %
Sensor: Nr:Datum:Temp:Feuchte:
Aussen-T/F 3351 30-04-2015 22:10:17 8.4 C 87 %
3352 30-04-2015 22:22:17 8.2 C 88 %
3353 30-04-2015 22:34:17 8 C 89 %
3354 30-04-2015 22:46:17 8 C 89 %
3355 30-04-2015 22:58:17 7.8 C 90 %
3356 30-04-2015 23:10:17 7.6 C 90 %
3357 30-04-2015 23:22:17 7.5 C 90 %
3358 30-04-2015 23:34:17 7.1 C 90 %
3359 30-04-2015 23:46:17 6.8 C 91 %
3360 30-04-2015 23:58:17 6.3 C 92 %
3361 01-05-2015 00:10:17 6.1 C 92 %
3362 01-05-2015 00:22:17 5.8 C 93 %
3363 01-05-2015 00:34:17 5.6 C 93 %
3364 01-05-2015 00:46:17 5.6 C 93 %
3365 01-05-2015 00:58:17 5.6 C 93 %
3366 01-05-2015 01:10:17 5.7 C 93 %
3367 01-05-2015 01:22:17 5.7 C 94 %
3368 01-05-2015 01:34:17 5.6 C 94 %
3369 01-05-2015 01:46:17 5.5 C 94 %
3370 01-05-2015 01:58:17 5.4 C 94 %
3371 01-05-2015 02:10:17 5.3 C 94 %
3372 01-05-2015 02:22:17 5.2 C 94 %
3373 01-05-2015 02:34:17 4.9 C 95 %
3374 01-05-2015 02:46:17 4.9 C 95 %
3375 01-05-2015 02:58:17 4.8 C 95 %
Sensor: Nr:Datum:Temp:Feuchte:
Aussen-T/F 3376 01-05-2015 03:10:17 4.7 C 95 %
3377 01-05-2015 03:22:17 4.6 C 95 %
3378 01-05-2015 03:34:17 4.5 C 95 %
3379 01-05-2015 03:46:17 4.3 C 95 %
3380 01-05-2015 03:58:17 4.1 C 95 %
3381 01-05-2015 04:10:17 3.9 C 95 %
3382 01-05-2015 04:22:16 3.8 C 95 %
3383 01-05-2015 04:34:17 3.7 C 95 %
3384 01-05-2015 04:46:17 3.7 C 95 %
3385 01-05-2015 04:58:17 3.9 C 95 %
3386 01-05-2015 05:10:17 3.8 C 95 %
3387 01-05-2015 05:22:17 4.2 C 95 %
3388 01-05-2015 05:34:17 4.3 C 95 %
3389 01-05-2015 05:46:17 4.4 C 95 %
3390 01-05-2015 05:58:17 4.4 C 95 %
3391 01-05-2015 06:10:16 4.2 C 95 %
3392 01-05-2015 06:22:17 4.4 C 95 %
3393 01-05-2015 06:34:17 4.4 C 95 %
3394 01-05-2015 06:46:17 4.5 C 95 %
3395 01-05-2015 06:58:17 4.5 C 95 %
3396 01-05-2015 07:10:17 4.6 C 95 %
3397 01-05-2015 07:22:17 4.8 C 95 %
3398 01-05-2015 07:34:17 5 C 95 %
3399 01-05-2015 07:46:17 5.1 C 95 %
3400 01-05-2015 07:58:17 4.8 C 95 %
Sensor: Nr:Datum:Temp:Feuchte:
Aussen-T/F 3401 01-05-2015 08:10:17 5.1 C 95 %
3402 01-05-2015 08:22:17 5.3 C 95 %
3403 01-05-2015 08:34:17 5.6 C 95 %
3404 01-05-2015 08:46:17 5.7 C 95 %
3405 01-05-2015 08:58:17 6 C 95 %
3406 01-05-2015 09:10:17 6 C 95 %
3407 01-05-2015 09:22:17 6.2 C 95 %
3408 01-05-2015 09:34:17 6.3 C 95 %
3409 01-05-2015 09:46:17 6.5 C 94 %
3410 01-05-2015 09:58:17 6.8 C 94 %
3411 01-05-2015 10:10:17 7 C 93 %
3412 01-05-2015 10:22:17 7 C 93 %
3413 01-05-2015 10:34:17 7.3 C 92 %
3414 01-05-2015 10:46:17 7.5 C 92 %
3415 01-05-2015 10:58:17 7.7 C 89 %
3416 01-05-2015 11:10:17 7.8 C 87 %
3417 01-05-2015 11:22:17 8 C 83 %
3418 01-05-2015 11:34:17 8.1 C 81 %
3419 01-05-2015 11:46:17 8.6 C 79 %
3420 01-05-2015 11:58:17 9.2 C 75 %
3421 01-05-2015 12:10:17 9.7 C 72 %
3422 01-05-2015 12:22:17 10.1 C 70 %
3423 01-05-2015 12:34:17 10.2 C 68 %
3424 01-05-2015 12:46:17 10.9 C 66 %
3425 01-05-2015 12:58:17 11.4 C 64 %
Sensor: Nr:Datum:Temp:Feuchte:
Aussen-T/F 3426 01-05-2015 13:10:17 11.5 C 61 %
3427 01-05-2015 13:22:17 11.7 C 57 %
3428 01-05-2015 13:34:17 11.8 C 55 %
3429 01-05-2015 13:46:17 12.2 C 54 %
3430 01-05-2015 13:58:17 12.7 C 51 %
3431 01-05-2015 14:10:17 13 C 45 %
3432 01-05-2015 14:22:17 13.2 C 44 %
3433 01-05-2015 14:34:17 13.6 C 40 %
3434 01-05-2015 14:46:17 13.1 C 37 %
3435 01-05-2015 14:58:17 13.2 C 36 %
3436 01-05-2015 15:10:17 13.4 C 34 %
3437 01-05-2015 15:22:17 13.3 C 34 %
3438 01-05-2015 15:34:16 13.4 C 35 %
3439 01-05-2015 15:46:17 13.1 C 36 %
3440 01-05-2015 15:58:17 13.2 C 37 %
3441 01-05-2015 16:10:17 13.1 C 36 %
3442 01-05-2015 16:22:17 13.1 C 36 %
3443 01-05-2015 16:34:16 13.2 C 37 %
3444 01-05-2015 16:46:17 13.2 C 39 %
3445 01-05-2015 16:58:17 13 C 40 %
3446 01-05-2015 17:10:18 12.9 C 41 %
3447 01-05-2015 17:22:17 13 C 39 %
3448 01-05-2015 17:34:17 13 C 36 %
3449 01-05-2015 17:46:17 13.1 C 35 %
3450 01-05-2015 17:58:17 13.1 C 35 %
Sensor: Nr:Datum:Temp:Feuchte:
Aussen-T/F 3451 01-05-2015 18:10:17 13 C 37 %
3452 01-05-2015 18:22:17 12.8 C 38 %
3453 01-05-2015 18:34:17 12.7 C 41 %
3454 01-05-2015 18:46:17 12.5 C 43 %
3455 01-05-2015 18:58:17 12.5 C 42 %
3456 01-05-2015 19:10:17 12 C 52 %
3457 01-05-2015 19:18:17 11.6 C 55 %
3458 01-05-2015 19:34:17 11.2 C 58 %
3459 01-05-2015 19:46:17 11 C 58 %
3460 01-05-2015 19:58:17 11 C 58 %
3461 01-05-2015 20:10:17 10.4 C 59 %
3462 01-05-2015 20:22:17 10 C 59 %
3463 01-05-2015 20:34:17 9.5 C 59 %
3464 01-05-2015 20:46:17 9.1 C 62 %
3465 01-05-2015 20:58:17 8.7 C 65 %
3466 01-05-2015 21:10:17 8.3 C 64 %
3467 01-05-2015 21:22:17 8 C 64 %
3468 01-05-2015 21:34:17 7.8 C 66 %
3469 01-05-2015 21:46:17 7.6 C 67 %
3470 01-05-2015 21:58:17 7.3 C 68 %
3471 01-05-2015 22:10:17 7.1 C 71 %
3472 01-05-2015 22:22:17 6.8 C 73 %
3473 01-05-2015 22:34:17 6.4 C 74 %
3474 01-05-2015 22:46:17 6.3 C 74 %
3475 01-05-2015 22:58:17 6 C 76 %
Sensor: Nr:Datum:Temp:Feuchte:
Aussen-T/F 3476 01-05-2015 23:10:17 5.9 C 78 %
3477 01-05-2015 23:22:17 5.8 C 79 %
3478 01-05-2015 23:34:17 5.7 C 80 %
3479 01-05-2015 23:46:17 5.7 C 81 %
3480 01-05-2015 23:58:17 5.6 C 81 %
Sensor: Nr:Datum:Temp:Feuchte:
G-T/H 1 03-04-2015 00:08:18 9.2 C 60 %
2 03-04-2015 00:20:17 9.1 C 61 %
3 03-04-2015 00:32:17 9.1 C 61 %
4 03-04-2015 00:44:17 9.1 C 61 %
5 03-04-2015 00:56:17 9.1 C 61 %
6 03-04-2015 01:08:17 9.1 C 61 %
7 03-04-2015 01:20:17 9.1 C 61 %
8 03-04-2015 01:32:17 9.1 C 62 %
9 03-04-2015 01:44:17 9.1 C 62 %
10 03-04-2015 01:56:17 9.1 C 62 %
11 03-04-2015 02:08:17 9.1 C 62 %
12 03-04-2015 02:20:17 9 C 62 %
13 03-04-2015 02:32:17 9.1 C 62 %
14 03-04-2015 02:44:17 9 C 62 %
15 03-04-2015 02:56:17 9.1 C 62 %
16 03-04-2015 03:08:17 9 C 62 %
17 03-04-2015 03:20:17 9 C 62 %
18 03-04-2015 03:32:17 9 C 62 %
19 03-04-2015 03:44:17 9 C 62 %
20 03-04-2015 03:56:17 9 C 62 %
21 03-04-2015 04:08:17 8.9 C 63 %
22 03-04-2015 04:20:17 8.9 C 63 %
23 03-04-2015 04:32:17 8.9 C 63 %
24 03-04-2015 04:44:17 8.9 C 63 %
25 03-04-2015 04:56:17 8.9 C 63 %
Sensor: Nr:Datum:Temp:Feuchte:
G-T/H 26 03-04-2015 05:08:18 8.9 C 63 %
27 03-04-2015 05:20:17 8.8 C 63 %
28 03-04-2015 05:32:17 8.8 C 63 %
29 03-04-2015 05:44:17 8.8 C 63 %
30 03-04-2015 05:56:17 8.7 C 63 %
31 03-04-2015 06:08:17 8.7 C 63 %
32 03-04-2015 06:20:17 8.6 C 62 %
33 03-04-2015 06:32:17 8.5 C 61 %
34 03-04-2015 06:44:17 8.4 C 61 %
35 03-04-2015 06:56:17 8.3 C 60 %
36 03-04-2015 07:08:17 8.3 C 60 %
37 03-04-2015 07:20:17 8.2 C 59 %
38 03-04-2015 07:32:17 8.2 C 59 %
39 03-04-2015 07:44:17 8.2 C 59 %
40 03-04-2015 07:56:17 8.2 C 60 %
41 03-04-2015 08:08:17 8.2 C 60 %
42 03-04-2015 08:20:17 8.2 C 60 %
43 03-04-2015 08:32:17 8.2 C 61 %
44 03-04-2015 08:44:17 8.2 C 61 %
45 03-04-2015 08:56:17 8.2 C 61 %
46 03-04-2015 09:08:17 8.2 C 60 %
47 03-04-2015 09:20:17 8.1 C 60 %
48 03-04-2015 09:32:17 8.1 C 60 %
49 03-04-2015 09:44:17 8.1 C 59 %
50 03-04-2015 09:56:17 8 C 59 %
Sensor: Nr:Datum:Temp:Feuchte:
G-T/H 51 03-04-2015 10:08:17 8 C 60 %
52 03-04-2015 10:20:16 8.1 C 60 %
53 03-04-2015 10:32:17 8.1 C 61 %
54 03-04-2015 10:44:17 8.1 C 61 %
55 03-04-2015 10:56:17 8.2 C 61 %
56 03-04-2015 11:08:17 8.2 C 61 %
57 03-04-2015 11:20:17 8.2 C 62 %
58 03-04-2015 11:32:17 8.2 C 62 %
59 03-04-2015 11:44:17 8.2 C 62 %
60 03-04-2015 11:56:17 8.2 C 62 %
61 03-04-2015 12:08:17 8.2 C 62 %
62 03-04-2015 12:20:17 8.3 C 63 %
63 03-04-2015 12:32:17 8.3 C 63 %
64 03-04-2015 12:44:17 8.3 C 63 %
65 03-04-2015 12:56:17 8.3 C 63 %
66 03-04-2015 13:08:17 8.4 C 63 %
67 03-04-2015 13:20:17 8.4 C 63 %
68 03-04-2015 13:32:17 8.4 C 63 %
69 03-04-2015 13:44:17 8.4 C 63 %
70 03-04-2015 13:56:17 8.4 C 63 %
71 03-04-2015 14:08:17 8.4 C 64 %
72 03-04-2015 14:20:17 8.5 C 64 %
73 03-04-2015 14:32:17 8.5 C 63 %
74 03-04-2015 14:44:17 8.5 C 62 %
75 03-04-2015 14:56:17 8.6 C 61 %
Sensor: Nr:Datum:Temp:Feuchte:
G-T/H 76 03-04-2015 15:08:17 8.6 C 60 %
77 03-04-2015 15:20:17 8.6 C 59 %
78 03-04-2015 15:32:17 8.7 C 59 %
79 03-04-2015 15:44:17 8.7 C 58 %
80 03-04-2015 15:56:17 8.7 C 58 %
81 03-04-2015 16:08:17 8.7 C 59 %
82 03-04-2015 16:20:17 8.8 C 59 %
83 03-04-2015 16:32:17 8.8 C 60 %
84 03-04-2015 16:44:17 8.9 C 60 %
85 03-04-2015 16:56:17 8.9 C 61 %
86 03-04-2015 17:08:17 8.9 C 61 %
87 03-04-2015 17:20:17 8.9 C 61 %
88 03-04-2015 17:32:17 9 C 61 %
89 03-04-2015 17:44:17 9 C 60 %
90 03-04-2015 17:56:17 9.1 C 60 %
91 03-04-2015 18:08:17 9.1 C 59 %
92 03-04-2015 18:20:17 9.1 C 59 %
93 03-04-2015 18:32:17 9.1 C 58 %
94 03-04-2015 18:44:17 9.1 C 58 %
95 03-04-2015 18:56:17 9.1 C 58 %
96 03-04-2015 19:08:17 9.1 C 59 %
97 03-04-2015 19:20:17 9.1 C 59 %
98 03-04-2015 19:32:17 9.1 C 60 %
99 03-04-2015 19:44:17 9.2 C 60 %
100 03-04-2015 19:56:17 9.2 C 60 %
Sensor: Nr:Datum:Temp:Feuchte:
G-T/H 101 03-04-2015 20:08:17 9.2 C 61 %
102 03-04-2015 20:20:17 9.2 C 61 %
103 03-04-2015 20:32:17 9.2 C 61 %
104 03-04-2015 20:44:17 9.2 C 61 %
105 03-04-2015 20:56:17 9.2 C 62 %
106 03-04-2015 21:08:17 9.3 C 62 %
107 03-04-2015 21:20:17 9.3 C 62 %
108 03-04-2015 21:32:17 9.3 C 62 %
109 03-04-2015 21:44:17 9.3 C 62 %
110 03-04-2015 21:56:17 9.3 C 62 %
111 03-04-2015 22:08:17 9.3 C 62 %
112 03-04-2015 22:20:17 9.3 C 62 %
113 03-04-2015 22:32:17 9.3 C 63 %
114 03-04-2015 22:44:17 9.3 C 63 %
115 03-04-2015 22:56:17 9.4 C 63 %
116 03-04-2015 23:08:17 9.3 C 63 %
117 03-04-2015 23:20:17 9.4 C 63 %
118 03-04-2015 23:32:17 9.4 C 63 %
119 03-04-2015 23:44:17 9.4 C 63 %
120 03-04-2015 23:56:17 9.4 C 63 %
121 04-04-2015 00:08:17 9.4 C 63 %
122 04-04-2015 00:20:17 9.4 C 63 %
123 04-04-2015 00:32:17 9.4 C 63 %
124 04-04-2015 00:44:17 9.4 C 64 %
125 04-04-2015 00:56:17 9.4 C 64 %
Sensor: Nr:Datum:Temp:Feuchte:
G-T/H 126 04-04-2015 01:08:17 9.4 C 64 %
127 04-04-2015 01:20:17 9.4 C 64 %
128 04-04-2015 01:32:17 9.4 C 64 %
129 04-04-2015 01:44:17 9.4 C 64 %
130 04-04-2015 01:56:17 9.4 C 64 %
131 04-04-2015 02:08:17 9.5 C 64 %
132 04-04-2015 02:20:17 9.5 C 64 %
133 04-04-2015 02:32:17 9.5 C 64 %
134 04-04-2015 02:44:17 9.4 C 64 %
135 04-04-2015 02:56:17 9.4 C 64 %
136 04-04-2015 03:08:17 9.4 C 64 %
137 04-04-2015 03:20:17 9.4 C 64 %
138 04-04-2015 03:32:17 9.4 C 64 %
139 04-04-2015 03:44:17 9.4 C 64 %
140 04-04-2015 03:56:17 9.4 C 64 %
141 04-04-2015 04:08:17 9.4 C 64 %
142 04-04-2015 04:20:17 9.5 C 64 %
143 04-04-2015 04:32:17 9.4 C 64 %
144 04-04-2015 04:44:17 9.4 C 64 %
145 04-04-2015 04:56:17 9.4 C 64 %
146 04-04-2015 05:08:17 9.4 C 65 %
147 04-04-2015 05:20:17 9.4 C 65 %
148 04-04-2015 05:32:17 9.4 C 65 %
149 04-04-2015 05:44:17 9.4 C 65 %
150 04-04-2015 05:56:17 9.4 C 65 %
Sensor: Nr:Datum:Temp:Feuchte:
G-T/H 151 04-04-2015 06:08:17 9.4 C 65 %
152 04-04-2015 06:20:17 9.4 C 65 %
153 04-04-2015 06:32:17 9.4 C 65 %
154 04-04-2015 06:44:17 9.4 C 65 %
155 04-04-2015 06:56:17 9.4 C 65 %
156 04-04-2015 07:08:17 9.4 C 65 %
157 04-04-2015 07:20:17 9.4 C 65 %
158 04-04-2015 07:32:17 9.4 C 65 %
159 04-04-2015 07:44:17 9.4 C 65 %
160 04-04-2015 07:56:17 9.4 C 65 %
161 04-04-2015 08:08:17 9.4 C 65 %
162 04-04-2015 08:20:17 9.4 C 65 %
163 04-04-2015 08:32:17 9.3 C 65 %
164 04-04-2015 08:44:17 9.3 C 65 %
165 04-04-2015 08:56:17 9.3 C 65 %
166 04-04-2015 09:08:17 9.3 C 65 %
167 04-04-2015 09:20:17 9.3 C 65 %
168 04-04-2015 09:32:17 9.3 C 65 %
169 04-04-2015 09:44:17 9.3 C 65 %
170 04-04-2015 09:56:17 9.3 C 65 %
171 04-04-2015 10:08:17 9.3 C 65 %
172 04-04-2015 10:20:17 9.3 C 65 %
173 04-04-2015 10:32:17 9.3 C 65 %
174 04-04-2015 10:44:17 9.3 C 65 %
175 04-04-2015 10:56:17 9.3 C 65 %
Sensor: Nr:Datum:Temp:Feuchte:
G-T/H 176 04-04-2015 11:08:17 9.3 C 65 %
177 04-04-2015 11:20:17 9.3 C 65 %
178 04-04-2015 11:32:17 9.3 C 66 %
179 04-04-2015 11:44:17 9.3 C 66 %
180 04-04-2015 11:56:17 9.3 C 66 %
181 04-04-2015 12:08:17 9.2 C 66 %
182 04-04-2015 12:20:17 9.2 C 66 %
183 04-04-2015 12:32:17 9.2 C 66 %
184 04-04-2015 12:44:17 9.2 C 66 %
185 04-04-2015 12:56:17 9.2 C 66 %
186 04-04-2015 13:08:17 9.2 C 66 %
187 04-04-2015 13:20:17 9.2 C 66 %
188 04-04-2015 13:32:17 9.2 C 66 %
189 04-04-2015 13:44:17 9.3 C 66 %
190 04-04-2015 13:56:17 9.3 C 66 %
191 04-04-2015 14:08:17 9.3 C 66 %
192 04-04-2015 14:20:17 9.2 C 66 %
193 04-04-2015 14:32:17 9.3 C 66 %
194 04-04-2015 14:44:17 9.2 C 66 %
195 04-04-2015 14:56:17 9.3 C 66 %
196 04-04-2015 15:08:17 9.3 C 66 %
197 04-04-2015 15:20:17 9.3 C 66 %
198 04-04-2015 15:32:17 9.3 C 66 %
199 04-04-2015 15:44:17 9.3 C 66 %
200 04-04-2015 15:56:17 9.3 C 66 %
Sensor: Nr:Datum:Temp:Feuchte:
G-T/H 201 04-04-2015 16:08:17 9.3 C 66 %
202 04-04-2015 16:20:17 9.3 C 66 %
203 04-04-2015 16:32:17 9.3 C 64 %
204 04-04-2015 16:44:17 9.3 C 63 %
205 04-04-2015 16:56:17 9.2 C 61 %
206 04-04-2015 17:08:17 9.2 C 59 %
207 04-04-2015 17:20:17 9.2 C 58 %
208 04-04-2015 17:32:17 9.2 C 57 %
209 04-04-2015 17:44:17 9.2 C 57 %
210 04-04-2015 17:56:16 9.3 C 57 %
211 04-04-2015 18:08:17 9.3 C 57 %
212 04-04-2015 18:20:17 9.3 C 58 %
213 04-04-2015 18:32:17 9.3 C 58 %
214 04-04-2015 18:44:17 9.3 C 58 %
215 04-04-2015 18:56:17 9.3 C 58 %
216 04-04-2015 19:08:17 9.3 C 58 %
217 04-04-2015 19:20:17 9.4 C 59 %
218 04-04-2015 19:32:17 9.4 C 59 %
219 04-04-2015 19:44:17 9.4 C 59 %
220 04-04-2015 19:56:17 9.4 C 59 %
221 04-04-2015 20:08:17 9.4 C 60 %
222 04-04-2015 20:20:17 9.4 C 60 %
223 04-04-2015 20:32:17 9.3 C 60 %
224 04-04-2015 20:44:17 9.3 C 60 %
225 04-04-2015 20:56:17 9.3 C 60 %
Sensor: Nr:Datum:Temp:Feuchte:
G-T/H 226 04-04-2015 21:08:17 9.3 C 61 %
227 04-04-2015 21:20:17 9.3 C 61 %
228 04-04-2015 21:32:17 9.2 C 60 %
229 04-04-2015 21:44:17 9.2 C 59 %
230 04-04-2015 21:56:17 9.1 C 59 %
231 04-04-2015 22:08:18 9.1 C 59 %
232 04-04-2015 22:20:17 9.2 C 60 %
233 04-04-2015 22:32:17 9.2 C 60 %
234 04-04-2015 22:44:17 9.2 C 60 %
235 04-04-2015 22:56:16 9.2 C 60 %
236 04-04-2015 23:08:17 9.2 C 61 %
237 04-04-2015 23:20:17 9.2 C 61 %
238 04-04-2015 23:32:17 9.1 C 60 %
239 04-04-2015 23:44:17 9 C 59 %
240 04-04-2015 23:56:17 9 C 59 %
241 05-04-2015 00:08:17 9 C 59 %
242 05-04-2015 00:20:17 9 C 60 %
243 05-04-2015 00:32:17 9 C 60 %
244 05-04-2015 00:44:17 9 C 60 %
245 05-04-2015 00:56:17 9 C 60 %
246 05-04-2015 01:08:17 9 C 60 %
247 05-04-2015 01:20:17 9 C 61 %
248 05-04-2015 01:32:17 9 C 61 %
249 05-04-2015 01:44:17 9 C 61 %
250 05-04-2015 01:56:17 8.9 C 62 %
Sensor: Nr:Datum:Temp:Feuchte:
G-T/H 251 05-04-2015 02:08:17 8.9 C 62 %
252 05-04-2015 02:20:17 8.9 C 62 %
253 05-04-2015 02:32:17 8.9 C 62 %
254 05-04-2015 02:44:17 8.9 C 62 %
255 05-04-2015 02:56:17 8.9 C 62 %
256 05-04-2015 03:08:17 8.8 C 62 %
257 05-04-2015 03:20:17 8.8 C 62 %
258 05-04-2015 03:32:17 8.8 C 62 %
259 05-04-2015 03:44:17 8.8 C 63 %
260 05-04-2015 03:56:17 8.8 C 63 %
261 05-04-2015 04:08:17 8.7 C 63 %
262 05-04-2015 04:20:17 8.7 C 63 %
263 05-04-2015 04:32:17 8.7 C 63 %
264 05-04-2015 04:44:17 8.7 C 63 %
265 05-04-2015 04:56:17 8.7 C 63 %
266 05-04-2015 05:08:17 8.7 C 63 %
267 05-04-2015 05:20:17 8.6 C 63 %
268 05-04-2015 05:32:17 8.6 C 63 %
269 05-04-2015 05:44:17 8.6 C 63 %
270 05-04-2015 05:56:17 8.6 C 63 %
271 05-04-2015 06:08:17 8.6 C 63 %
272 05-04-2015 06:20:17 8.5 C 62 %
273 05-04-2015 06:32:17 8.4 C 62 %
274 05-04-2015 06:44:17 8.3 C 61 %
275 05-04-2015 06:56:17 8.2 C 60 %
Sensor: Nr:Datum:Temp:Feuchte:
G-T/H 276 05-04-2015 07:08:17 8.2 C 60 %
277 05-04-2015 07:20:17 8.1 C 60 %
278 05-04-2015 07:32:17 8.1 C 59 %
279 05-04-2015 07:44:17 8.1 C 60 %
280 05-04-2015 07:56:17 8.1 C 60 %
281 05-04-2015 08:08:17 8.1 C 60 %
282 05-04-2015 08:20:17 8.1 C 61 %
283 05-04-2015 08:32:16 8.1 C 61 %
284 05-04-2015 08:44:16 8.1 C 61 %
285 05-04-2015 08:56:17 8.1 C 61 %
286 05-04-2015 09:08:17 8 C 60 %
287 05-04-2015 09:20:17 8 C 61 %
288 05-04-2015 09:32:17 8 C 61 %
289 05-04-2015 09:44:17 8 C 61 %
290 05-04-2015 09:56:17 8 C 61 %
291 05-04-2015 10:08:17 8.1 C 62 %
292 05-04-2015 10:20:17 8.1 C 62 %
293 05-04-2015 10:32:17 8 C 62 %
294 05-04-2015 10:44:17 8.1 C 62 %
295 05-04-2015 10:56:17 8.1 C 62 %
296 05-04-2015 11:08:17 8.1 C 62 %
297 05-04-2015 11:20:17 8.1 C 63 %
298 05-04-2015 11:32:17 8.1 C 63 %
299 05-04-2015 11:44:17 8.1 C 63 %
300 05-04-2015 11:56:16 8.1 C 63 %
Sensor: Nr:Datum:Temp:Feuchte:
G-T/H 301 05-04-2015 12:08:17 8.1 C 63 %
302 05-04-2015 12:20:17 8.1 C 63 %
303 05-04-2015 12:32:17 8.2 C 63 %
304 05-04-2015 12:44:17 8.2 C 63 %
305 05-04-2015 12:56:17 8.2 C 63 %
306 05-04-2015 13:08:17 8.2 C 64 %
307 05-04-2015 13:20:17 8.2 C 64 %
308 05-04-2015 13:32:17 8.2 C 63 %
309 05-04-2015 13:44:17 8.3 C 62 %
310 05-04-2015 13:56:17 8.3 C 62 %
311 05-04-2015 14:08:17 8.3 C 62 %
312 05-04-2015 14:20:17 8.3 C 62 %
313 05-04-2015 14:32:17 8.4 C 60 %
314 05-04-2015 14:44:17 8.4 C 59 %
315 05-04-2015 14:56:17 8.4 C 58 %
316 05-04-2015 15:08:17 8.4 C 57 %
317 05-04-2015 15:20:17 8.4 C 57 %
318 05-04-2015 15:32:17 8.5 C 57 %
319 05-04-2015 15:44:17 8.5 C 58 %
320 05-04-2015 15:56:17 8.5 C 58 %
321 05-04-2015 16:08:17 8.6 C 59 %
322 05-04-2015 16:20:17 8.6 C 59 %
323 05-04-2015 16:32:17 8.6 C 60 %
324 05-04-2015 16:44:17 8.6 C 60 %
325 05-04-2015 16:56:17 8.7 C 60 %
Sensor: Nr:Datum:Temp:Feuchte:
G-T/H 326 05-04-2015 17:08:17 8.7 C 60 %
327 05-04-2015 17:20:17 8.7 C 60 %
328 05-04-2015 17:32:17 8.7 C 60 %
329 05-04-2015 17:44:17 8.7 C 60 %
330 05-04-2015 17:56:17 8.8 C 60 %
331 05-04-2015 18:08:17 8.8 C 61 %
332 05-04-2015 18:20:17 8.8 C 61 %
333 05-04-2015 18:32:17 8.9 C 60 %
334 05-04-2015 18:44:17 8.8 C 59 %
335 05-04-2015 18:56:17 8.9 C 58 %
336 05-04-2015 19:08:17 8.9 C 58 %
337 05-04-2015 19:20:17 8.9 C 58 %
338 05-04-2015 19:32:17 8.9 C 58 %
339 05-04-2015 19:44:17 8.9 C 59 %
340 05-04-2015 19:56:17 9 C 58 %
341 05-04-2015 20:08:17 9 C 58 %
342 05-04-2015 20:20:17 9 C 59 %
343 05-04-2015 20:32:17 9 C 59 %
344 05-04-2015 20:44:17 9 C 59 %
345 05-04-2015 20:56:16 9 C 60 %
346 05-04-2015 21:08:17 9 C 60 %
347 05-04-2015 21:20:17 9 C 60 %
348 05-04-2015 21:32:17 9 C 60 %
349 05-04-2015 21:44:17 9 C 60 %
350 05-04-2015 21:56:17 9 C 60 %
Sensor: Nr:Datum:Temp:Feuchte:
G-T/H 351 05-04-2015 22:08:17 9 C 60 %
352 05-04-2015 22:20:17 9 C 61 %
353 05-04-2015 22:32:17 9 C 61 %
354 05-04-2015 22:44:17 9 C 60 %
355 05-04-2015 22:56:17 8.8 C 60 %
356 05-04-2015 23:08:17 8.7 C 59 %
357 05-04-2015 23:20:17 8.8 C 59 %
358 05-04-2015 23:32:17 8.9 C 60 %
359 05-04-2015 23:44:17 8.9 C 60 %
360 05-04-2015 23:56:17 8.9 C 60 %
361 06-04-2015 00:08:17 8.9 C 60 %
362 06-04-2015 00:20:17 8.9 C 60 %
363 06-04-2015 00:32:17 8.9 C 60 %
364 06-04-2015 00:44:17 8.9 C 61 %
365 06-04-2015 00:56:17 8.9 C 61 %
366 06-04-2015 01:08:17 8.9 C 61 %
367 06-04-2015 01:20:17 8.9 C 61 %
368 06-04-2015 01:32:17 8.9 C 61 %
369 06-04-2015 01:44:17 8.9 C 61 %
370 06-04-2015 01:56:17 8.9 C 61 %
371 06-04-2015 02:08:17 8.9 C 61 %
372 06-04-2015 02:20:17 8.8 C 61 %
373 06-04-2015 02:32:17 8.8 C 61 %
374 06-04-2015 02:44:18 8.8 C 61 %
375 06-04-2015 02:56:17 8.7 C 61 %
Sensor: Nr:Datum:Temp:Feuchte:
G-T/H 376 06-04-2015 03:08:17 8.8 C 61 %
377 06-04-2015 03:20:17 8.7 C 61 %
378 06-04-2015 03:32:17 8.7 C 61 %
379 06-04-2015 03:44:17 8.7 C 61 %
380 06-04-2015 03:56:17 8.7 C 62 %
381 06-04-2015 04:08:18 8.6 C 62 %
382 06-04-2015 04:20:17 8.6 C 62 %
383 06-04-2015 04:32:17 8.6 C 62 %
384 06-04-2015 04:44:17 8.6 C 62 %
385 06-04-2015 04:56:17 8.6 C 62 %
386 06-04-2015 05:08:17 8.6 C 62 %
387 06-04-2015 05:20:17 8.6 C 62 %
388 06-04-2015 05:32:17 8.5 C 62 %
389 06-04-2015 05:44:17 8.5 C 62 %
390 06-04-2015 05:56:17 8.5 C 62 %
391 06-04-2015 06:08:17 8.5 C 62 %
392 06-04-2015 06:20:17 8.4 C 61 %
393 06-04-2015 06:32:17 8.3 C 60 %
394 06-04-2015 06:44:17 8.3 C 60 %
395 06-04-2015 06:56:17 8.2 C 59 %
396 06-04-2015 07:08:17 8.1 C 59 %
397 06-04-2015 07:20:17 8.2 C 59 %
398 06-04-2015 07:32:17 8.2 C 59 %
399 06-04-2015 07:44:17 8.2 C 60 %
400 06-04-2015 07:56:17 8.2 C 60 %
Sensor: Nr:Datum:Temp:Feuchte:
G-T/H 401 06-04-2015 08:08:17 8.2 C 60 %
402 06-04-2015 08:20:17 8.2 C 61 %
403 06-04-2015 08:32:17 8.2 C 61 %
404 06-04-2015 08:44:17 8.2 C 60 %
405 06-04-2015 08:56:17 8.2 C 60 %
406 06-04-2015 09:08:17 8.1 C 59 %
407 06-04-2015 09:20:17 8.1 C 59 %
408 06-04-2015 09:32:17 8 C 59 %
409 06-04-2015 09:44:17 8.1 C 60 %
410 06-04-2015 09:56:17 8.1 C 60 %
411 06-04-2015 10:08:17 8.1 C 60 %
412 06-04-2015 10:20:16 8.1 C 60 %
413 06-04-2015 10:32:17 8.2 C 61 %
414 06-04-2015 10:44:17 8.2 C 61 %
415 06-04-2015 10:56:17 8.2 C 61 %
416 06-04-2015 11:08:17 8.2 C 61 %
417 06-04-2015 11:20:17 8.2 C 62 %
418 06-04-2015 11:32:17 8.2 C 62 %
419 06-04-2015 11:44:17 8.2 C 62 %
420 06-04-2015 11:56:17 8.2 C 62 %
421 06-04-2015 12:08:17 8.2 C 62 %
422 06-04-2015 12:20:17 8.2 C 62 %
423 06-04-2015 12:32:17 8.2 C 62 %
424 06-04-2015 12:44:17 8.3 C 63 %
425 06-04-2015 12:56:17 8.3 C 63 %
Sensor: Nr:Datum:Temp:Feuchte:
G-T/H 426 06-04-2015 13:08:17 8.3 C 63 %
427 06-04-2015 13:20:17 8.4 C 63 %
428 06-04-2015 13:32:17 8.4 C 63 %
429 06-04-2015 13:44:17 8.4 C 63 %
430 06-04-2015 13:56:17 8.4 C 63 %
431 06-04-2015 14:08:17 8.4 C 63 %
432 06-04-2015 14:20:17 8.4 C 63 %
433 06-04-2015 14:32:17 8.4 C 63 %
434 06-04-2015 14:44:18 8.5 C 63 %
435 06-04-2015 14:56:17 8.5 C 63 %
436 06-04-2015 15:08:17 8.5 C 63 %
437 06-04-2015 15:20:17 8.5 C 63 %
438 06-04-2015 15:32:17 8.5 C 63 %
439 06-04-2015 15:44:17 8.6 C 63 %
440 06-04-2015 15:56:17 8.6 C 64 %
441 06-04-2015 16:08:17 8.6 C 64 %
442 06-04-2015 16:20:17 8.7 C 64 %
443 06-04-2015 16:32:17 8.6 C 64 %
444 06-04-2015 16:44:17 8.7 C 64 %
445 06-04-2015 16:56:17 8.7 C 64 %
446 06-04-2015 17:08:17 8.7 C 64 %
447 06-04-2015 17:20:17 8.8 C 64 %
448 06-04-2015 17:32:17 8.8 C 64 %
449 06-04-2015 17:44:17 8.8 C 64 %
450 06-04-2015 17:56:17 8.8 C 64 %
Sensor: Nr:Datum:Temp:Feuchte:
G-T/H 451 06-04-2015 18:08:17 8.9 C 64 %
452 06-04-2015 18:20:17 8.9 C 64 %
453 06-04-2015 18:32:17 8.9 C 64 %
454 06-04-2015 18:44:17 8.9 C 64 %
455 06-04-2015 18:56:17 8.9 C 64 %
456 06-04-2015 19:08:17 8.9 C 64 %
457 06-04-2015 19:20:17 9 C 64 %
458 06-04-2015 19:32:17 9 C 64 %
459 06-04-2015 19:44:17 9 C 64 %
460 06-04-2015 19:56:17 9 C 64 %
461 06-04-2015 20:08:17 9 C 64 %
462 06-04-2015 20:20:17 9 C 64 %
463 06-04-2015 20:32:17 9 C 64 %
464 06-04-2015 20:44:17 9 C 64 %
465 06-04-2015 20:56:17 9 C 64 %
466 06-04-2015 21:08:17 9 C 64 %
467 06-04-2015 21:20:17 9 C 64 %
468 06-04-2015 21:32:17 9 C 64 %
469 06-04-2015 21:44:17 9 C 64 %
470 06-04-2015 21:56:17 9 C 64 %
471 06-04-2015 22:08:17 9 C 65 %
472 06-04-2015 22:20:17 9 C 65 %
473 06-04-2015 22:32:17 9.1 C 65 %
474 06-04-2015 22:44:17 9 C 65 %
475 06-04-2015 22:56:17 9.1 C 65 %
Sensor: Nr:Datum:Temp:Feuchte:
G-T/H 476 06-04-2015 23:08:17 9.1 C 65 %
477 06-04-2015 23:20:17 9 C 65 %
478 06-04-2015 23:32:17 9 C 65 %
479 06-04-2015 23:44:17 9 C 65 %
480 06-04-2015 23:56:17 9 C 65 %
481 07-04-2015 00:08:17 9 C 64 %
482 07-04-2015 00:20:17 9 C 64 %
483 07-04-2015 00:32:17 9 C 64 %
484 07-04-2015 00:44:17 9 C 64 %
485 07-04-2015 00:56:17 9 C 64 %
486 07-04-2015 01:08:17 9 C 64 %
487 07-04-2015 01:20:17 9 C 64 %
488 07-04-2015 01:32:17 9 C 64 %
489 07-04-2015 01:44:17 9 C 64 %
490 07-04-2015 01:56:17 9 C 64 %
491 07-04-2015 02:08:17 9 C 64 %
492 07-04-2015 02:20:17 8.9 C 65 %
493 07-04-2015 02:32:17 8.9 C 65 %
494 07-04-2015 02:44:17 8.9 C 65 %
495 07-04-2015 02:56:17 8.9 C 65 %
496 07-04-2015 03:08:17 8.9 C 65 %
497 07-04-2015 03:20:17 8.8 C 65 %
498 07-04-2015 03:32:17 8.8 C 65 %
499 07-04-2015 03:44:17 8.8 C 65 %
500 07-04-2015 03:56:17 8.7 C 65 %
Sensor: Nr:Datum:Temp:Feuchte:
G-T/H 501 07-04-2015 04:08:17 8.7 C 65 %
502 07-04-2015 04:20:17 8.7 C 65 %
503 07-04-2015 04:32:17 8.7 C 65 %
504 07-04-2015 04:44:17 8.7 C 65 %
505 07-04-2015 04:56:17 8.6 C 64 %
506 07-04-2015 05:08:17 8.6 C 64 %
507 07-04-2015 05:20:17 8.6 C 64 %
508 07-04-2015 05:32:17 8.5 C 64 %
509 07-04-2015 05:44:17 8.5 C 64 %
510 07-04-2015 05:56:16 8.5 C 64 %
511 07-04-2015 06:08:17 8.5 C 64 %
512 07-04-2015 06:20:17 8.4 C 64 %
513 07-04-2015 06:32:17 8.2 C 63 %
514 07-04-2015 06:44:17 8.2 C 62 %
515 07-04-2015 06:56:17 8.1 C 62 %
516 07-04-2015 07:08:17 8 C 62 %
517 07-04-2015 07:20:17 8 C 61 %
518 07-04-2015 07:32:17 8 C 61 %
519 07-04-2015 07:44:17 7.9 C 62 %
520 07-04-2015 07:56:17 7.9 C 61 %
521 07-04-2015 08:08:17 7.8 C 61 %
522 07-04-2015 08:20:17 7.8 C 61 %
523 07-04-2015 08:32:17 7.8 C 61 %
524 07-04-2015 08:44:17 7.8 C 61 %
525 07-04-2015 08:56:17 7.7 C 61 %
Sensor: Nr:Datum:Temp:Feuchte:
G-T/H 526 07-04-2015 09:08:17 7.7 C 61 %
527 07-04-2015 09:20:17 7.7 C 61 %
528 07-04-2015 09:32:17 7.6 C 61 %
529 07-04-2015 09:44:17 7.7 C 61 %
530 07-04-2015 09:56:17 7.7 C 62 %
531 07-04-2015 10:08:17 7.8 C 62 %
532 07-04-2015 10:20:17 7.8 C 62 %
533 07-04-2015 10:32:17 7.8 C 63 %
534 07-04-2015 10:44:17 7.8 C 63 %
535 07-04-2015 10:56:17 7.8 C 63 %
536 07-04-2015 11:08:17 7.9 C 63 %
537 07-04-2015 11:20:17 7.9 C 64 %
538 07-04-2015 11:32:17 7.9 C 64 %
539 07-04-2015 11:44:17 7.9 C 64 %
540 07-04-2015 11:56:17 7.9 C 64 %
541 07-04-2015 12:08:17 8 C 63 %
542 07-04-2015 12:20:17 8 C 64 %
543 07-04-2015 12:32:17 8 C 64 %
544 07-04-2015 12:44:17 8 C 64 %
545 07-04-2015 12:56:17 8 C 64 %
546 07-04-2015 13:08:17 8.1 C 64 %
547 07-04-2015 13:20:17 8.1 C 64 %
548 07-04-2015 13:32:17 8.2 C 64 %
549 07-04-2015 13:44:17 8.2 C 64 %
550 07-04-2015 13:56:17 8.2 C 64 %
Sensor: Nr:Datum:Temp:Feuchte:
G-T/H 551 07-04-2015 14:08:17 8.3 C 64 %
552 07-04-2015 14:20:17 8.3 C 64 %
553 07-04-2015 14:32:17 8.4 C 64 %
554 07-04-2015 14:44:17 8.4 C 64 %
555 07-04-2015 14:56:17 8.4 C 64 %
556 07-04-2015 15:08:17 8.5 C 64 %
557 07-04-2015 15:20:17 8.5 C 64 %
558 07-04-2015 15:32:17 8.5 C 64 %
559 07-04-2015 15:44:17 8.6 C 65 %
560 07-04-2015 15:56:17 8.6 C 65 %
561 07-04-2015 16:08:17 8.7 C 65 %
562 07-04-2015 16:20:17 8.7 C 65 %
563 07-04-2015 16:32:17 8.7 C 65 %
564 07-04-2015 16:44:17 8.8 C 65 %
565 07-04-2015 16:56:17 8.8 C 65 %
566 07-04-2015 17:08:17 8.9 C 65 %
567 07-04-2015 17:20:17 8.9 C 65 %
568 07-04-2015 17:32:17 8.9 C 65 %
569 07-04-2015 17:44:17 8.9 C 65 %
570 07-04-2015 17:56:17 9.1 C 63 %
571 07-04-2015 18:08:17 9.2 C 62 %
572 07-04-2015 18:20:17 9.2 C 62 %
573 07-04-2015 18:32:17 9.2 C 61 %
574 07-04-2015 18:44:17 9.2 C 62 %
575 07-04-2015 18:56:17 9.2 C 62 %
Sensor: Nr:Datum:Temp:Feuchte:
G-T/H 576 07-04-2015 19:08:17 9.2 C 62 %
577 07-04-2015 19:20:17 9.2 C 62 %
578 07-04-2015 19:32:17 9.2 C 62 %
579 07-04-2015 19:44:17 9.2 C 62 %
580 07-04-2015 19:56:17 9.2 C 63 %
581 07-04-2015 20:08:17 9.2 C 63 %
582 07-04-2015 20:20:17 9.3 C 63 %
583 07-04-2015 20:32:17 9.3 C 63 %
584 07-04-2015 20:44:17 9.3 C 63 %
585 07-04-2015 20:56:17 9.3 C 64 %
586 07-04-2015 21:08:17 9.3 C 64 %
587 07-04-2015 21:20:17 9.3 C 64 %
588 07-04-2015 21:32:17 9.3 C 64 %
589 07-04-2015 21:44:17 9.3 C 64 %
590 07-04-2015 21:56:17 9.3 C 64 %
591 07-04-2015 22:08:17 9.3 C 64 %
592 07-04-2015 22:20:17 9.3 C 64 %
593 07-04-2015 22:32:17 9.3 C 64 %
594 07-04-2015 22:44:17 9.3 C 64 %
595 07-04-2015 22:56:17 9.3 C 65 %
596 07-04-2015 23:08:17 9.3 C 65 %
597 07-04-2015 23:20:17 9.3 C 65 %
598 07-04-2015 23:32:17 9.3 C 65 %
599 07-04-2015 23:44:17 9.3 C 65 %
600 07-04-2015 23:56:17 9.3 C 65 %
Sensor: Nr:Datum:Temp:Feuchte:
G-T/H 601 08-04-2015 00:08:17 9.2 C 64 %
602 08-04-2015 00:20:17 9.2 C 64 %
603 08-04-2015 00:32:17 9.1 C 63 %
604 08-04-2015 00:44:17 9.1 C 63 %
605 08-04-2015 00:56:17 9 C 62 %
606 08-04-2015 01:08:17 9 C 62 %
607 08-04-2015 01:20:17 8.9 C 62 %
608 08-04-2015 01:32:17 8.9 C 62 %
609 08-04-2015 01:44:17 8.8 C 62 %
610 08-04-2015 01:56:17 8.8 C 62 %
611 08-04-2015 02:08:17 8.8 C 62 %
612 08-04-2015 02:20:17 8.8 C 61 %
613 08-04-2015 02:32:17 8.8 C 61 %
614 08-04-2015 02:44:17 8.7 C 61 %
615 08-04-2015 02:56:17 8.7 C 61 %
616 08-04-2015 03:08:17 8.6 C 61 %
617 08-04-2015 03:20:17 8.6 C 61 %
618 08-04-2015 03:32:17 8.6 C 61 %
619 08-04-2015 03:44:17 8.6 C 61 %
620 08-04-2015 03:56:17 8.5 C 60 %
621 08-04-2015 04:08:17 8.5 C 60 %
622 08-04-2015 04:20:17 8.5 C 60 %
623 08-04-2015 04:32:17 8.5 C 60 %
624 08-04-2015 04:44:17 8.4 C 60 %
625 08-04-2015 04:56:17 8.4 C 60 %
Sensor: Nr:Datum:Temp:Feuchte:
G-T/H 626 08-04-2015 05:08:17 8.4 C 60 %
627 08-04-2015 05:20:17 8.4 C 60 %
628 08-04-2015 05:32:17 8.4 C 60 %
629 08-04-2015 05:44:17 8.3 C 60 %
630 08-04-2015 05:56:17 8.3 C 60 %
631 08-04-2015 06:08:17 8.2 C 60 %
632 08-04-2015 06:20:17 8.3 C 60 %
633 08-04-2015 06:32:17 8.4 C 60 %
634 08-04-2015 06:44:17 8.4 C 60 %
635 08-04-2015 06:56:17 8.5 C 61 %
636 08-04-2015 07:08:17 8.5 C 61 %
637 08-04-2015 07:20:17 8.4 C 61 %
638 08-04-2015 07:32:17 8.4 C 60 %
639 08-04-2015 07:44:17 8.3 C 60 %
640 08-04-2015 07:56:17 8.2 C 60 %
641 08-04-2015 08:08:17 8.3 C 60 %
642 08-04-2015 08:20:17 8.4 C 60 %
643 08-04-2015 08:32:17 8.4 C 61 %
644 08-04-2015 08:44:17 8.4 C 61 %
645 08-04-2015 08:56:17 8.4 C 61 %
646 08-04-2015 09:08:17 8.5 C 61 %
647 08-04-2015 09:20:17 8.4 C 62 %
648 08-04-2015 09:32:17 8.5 C 62 %
649 08-04-2015 09:44:17 8.5 C 62 %
650 08-04-2015 09:56:17 8.4 C 62 %
Sensor: Nr:Datum:Temp:Feuchte:
G-T/H 651 08-04-2015 10:08:17 8.5 C 62 %
652 08-04-2015 10:20:17 8.5 C 62 %
653 08-04-2015 10:32:17 8.5 C 63 %
654 08-04-2015 10:44:17 8.5 C 63 %
655 08-04-2015 10:56:17 8.5 C 63 %
656 08-04-2015 11:08:18 8.5 C 63 %
657 08-04-2015 11:20:17 8.5 C 63 %
658 08-04-2015 11:32:17 8.5 C 63 %
659 08-04-2015 11:44:17 8.5 C 63 %
660 08-04-2015 11:56:17 8.5 C 63 %
661 08-04-2015 12:08:17 8.5 C 64 %
662 08-04-2015 12:20:17 8.6 C 64 %
663 08-04-2015 12:32:17 8.6 C 64 %
664 08-04-2015 12:44:17 8.6 C 64 %
665 08-04-2015 12:56:17 8.6 C 64 %
666 08-04-2015 13:08:17 8.6 C 64 %
667 08-04-2015 13:20:17 8.7 C 64 %
668 08-04-2015 13:32:17 8.7 C 64 %
669 08-04-2015 13:44:17 8.7 C 64 %
670 08-04-2015 13:56:17 8.8 C 64 %
671 08-04-2015 14:08:17 8.8 C 65 %
672 08-04-2015 14:20:17 8.9 C 65 %
673 08-04-2015 14:32:17 8.9 C 65 %
674 08-04-2015 14:44:17 8.9 C 65 %
675 08-04-2015 14:56:17 9 C 64 %
Sensor: Nr:Datum:Temp:Feuchte:
G-T/H 676 08-04-2015 15:08:18 9 C 64 %
677 08-04-2015 15:20:17 9 C 64 %
678 08-04-2015 15:32:17 9.1 C 64 %
679 08-04-2015 15:44:17 9.1 C 64 %
680 08-04-2015 15:56:17 9.2 C 64 %
681 08-04-2015 16:08:17 9.2 C 65 %
682 08-04-2015 16:20:17 9.2 C 65 %
683 08-04-2015 16:32:17 9.3 C 65 %
684 08-04-2015 16:44:17 9.3 C 65 %
685 08-04-2015 16:56:17 9.3 C 65 %
686 08-04-2015 17:08:17 9.3 C 65 %
687 08-04-2015 17:20:17 9.4 C 65 %
688 08-04-2015 17:32:17 9.4 C 65 %
689 08-04-2015 17:44:17 9.4 C 65 %
690 08-04-2015 17:56:17 9.5 C 65 %
691 08-04-2015 18:08:17 9.5 C 65 %
692 08-04-2015 18:20:17 9.6 C 65 %
693 08-04-2015 18:32:17 9.6 C 65 %
694 08-04-2015 18:44:17 9.6 C 66 %
695 08-04-2015 18:56:17 9.6 C 66 %
696 08-04-2015 19:08:17 9.6 C 66 %
697 08-04-2015 19:20:17 9.7 C 66 %
698 08-04-2015 19:32:17 9.7 C 66 %
699 08-04-2015 19:44:17 9.7 C 66 %
700 08-04-2015 19:56:17 9.7 C 66 %
Sensor: Nr:Datum:Temp:Feuchte:
G-T/H 701 08-04-2015 20:08:17 9.7 C 66 %
702 08-04-2015 20:20:17 9.8 C 66 %
703 08-04-2015 20:32:17 9.7 C 66 %
704 08-04-2015 20:44:17 9.7 C 66 %
705 08-04-2015 20:56:17 9.8 C 66 %
706 08-04-2015 21:08:18 9.8 C 66 %
707 08-04-2015 21:20:17 9.8 C 66 %
708 08-04-2015 21:32:17 9.8 C 66 %
709 08-04-2015 21:44:17 9.8 C 66 %
710 08-04-2015 21:56:17 9.8 C 66 %
711 08-04-2015 22:08:17 9.8 C 66 %
712 08-04-2015 22:20:17 9.8 C 66 %
713 08-04-2015 22:32:17 9.8 C 67 %
714 08-04-2015 22:44:17 9.8 C 67 %
715 08-04-2015 22:56:17 9.8 C 67 %
716 08-04-2015 23:08:17 9.8 C 67 %
717 08-04-2015 23:20:17 9.8 C 67 %
718 08-04-2015 23:32:17 9.8 C 67 %
719 08-04-2015 23:44:17 9.8 C 67 %
720 08-04-2015 23:56:17 9.8 C 67 %
721 09-04-2015 00:08:17 9.8 C 67 %
722 09-04-2015 00:20:17 9.8 C 67 %
723 09-04-2015 00:32:17 9.8 C 67 %
724 09-04-2015 00:44:17 9.8 C 67 %
725 09-04-2015 00:56:17 9.8 C 67 %
Sensor: Nr:Datum:Temp:Feuchte:
G-T/H 726 09-04-2015 01:08:17 9.8 C 67 %
727 09-04-2015 01:20:17 9.8 C 67 %
728 09-04-2015 01:32:17 9.8 C 67 %
729 09-04-2015 01:44:17 9.8 C 67 %
730 09-04-2015 01:56:17 9.8 C 67 %
731 09-04-2015 02:08:18 9.8 C 67 %
732 09-04-2015 02:20:17 9.8 C 67 %
733 09-04-2015 02:32:17 9.8 C 67 %
734 09-04-2015 02:44:17 9.8 C 67 %
735 09-04-2015 02:56:17 9.8 C 67 %
736 09-04-2015 03:08:17 9.8 C 67 %
737 09-04-2015 03:20:17 9.8 C 67 %
738 09-04-2015 03:32:17 9.8 C 67 %
739 09-04-2015 03:44:17 9.8 C 67 %
740 09-04-2015 03:56:17 9.8 C 66 %
741 09-04-2015 04:08:17 9.7 C 66 %
742 09-04-2015 04:20:17 9.7 C 66 %
743 09-04-2015 04:32:17 9.7 C 66 %
744 09-04-2015 04:44:17 9.7 C 66 %
745 09-04-2015 04:56:17 9.7 C 66 %
746 09-04-2015 05:08:17 9.7 C 66 %
747 09-04-2015 05:20:17 9.7 C 66 %
748 09-04-2015 05:32:17 9.7 C 66 %
749 09-04-2015 05:44:17 9.7 C 66 %
750 09-04-2015 05:56:17 9.7 C 66 %
Sensor: Nr:Datum:Temp:Feuchte:
G-T/H 751 09-04-2015 06:08:17 9.6 C 66 %
752 09-04-2015 06:20:17 9.5 C 66 %
753 09-04-2015 06:32:17 9.4 C 65 %
754 09-04-2015 06:44:17 9.3 C 65 %
755 09-04-2015 06:56:17 9.3 C 64 %
756 09-04-2015 07:08:17 9.3 C 65 %
757 09-04-2015 07:20:16 9.3 C 65 %
758 09-04-2015 07:32:17 9.4 C 65 %
759 09-04-2015 07:44:17 9.4 C 65 %
760 09-04-2015 07:56:17 9.4 C 65 %
761 09-04-2015 08:08:17 9.4 C 65 %
762 09-04-2015 08:20:17 9.3 C 65 %
763 09-04-2015 08:32:17 9.3 C 65 %
764 09-04-2015 08:44:17 9.3 C 65 %
765 09-04-2015 08:56:17 9.3 C 65 %
766 09-04-2015 09:08:17 9.3 C 65 %
767 09-04-2015 09:20:17 9.3 C 66 %
768 09-04-2015 09:32:17 9.3 C 66 %
769 09-04-2015 09:44:17 9.3 C 66 %
770 09-04-2015 09:56:17 9.2 C 66 %
771 09-04-2015 10:08:17 9.3 C 66 %
772 09-04-2015 10:20:17 9.2 C 66 %
773 09-04-2015 10:32:17 9.3 C 66 %
774 09-04-2015 10:44:17 9.3 C 66 %
775 09-04-2015 10:56:17 9.3 C 66 %
Sensor: Nr:Datum:Temp:Feuchte:
G-T/H 776 09-04-2015 11:08:17 9.3 C 66 %
777 09-04-2015 11:20:17 9.3 C 66 %
778 09-04-2015 11:32:17 9.3 C 66 %
779 09-04-2015 11:44:17 9.3 C 66 %
780 09-04-2015 11:56:17 9.3 C 67 %
781 09-04-2015 12:08:17 9.3 C 67 %
782 09-04-2015 12:20:17 9.3 C 67 %
783 09-04-2015 12:32:17 9.3 C 67 %
784 09-04-2015 12:44:17 9.4 C 67 %
785 09-04-2015 12:56:17 9.4 C 67 %
786 09-04-2015 13:08:17 9.4 C 67 %
787 09-04-2015 13:20:17 9.4 C 67 %
788 09-04-2015 13:32:17 9.5 C 67 %
789 09-04-2015 13:44:17 9.5 C 67 %
790 09-04-2015 13:56:17 9.5 C 67 %
791 09-04-2015 14:08:18 9.6 C 67 %
792 09-04-2015 14:20:17 9.6 C 67 %
793 09-04-2015 14:32:17 9.7 C 68 %
794 09-04-2015 14:44:17 9.6 C 68 %
795 09-04-2015 14:56:17 9.7 C 68 %
796 09-04-2015 15:08:17 9.7 C 68 %
797 09-04-2015 15:20:17 9.8 C 68 %
798 09-04-2015 15:32:17 9.8 C 68 %
799 09-04-2015 15:44:17 9.9 C 68 %
800 09-04-2015 15:56:17 9.9 C 68 %
Sensor: Nr:Datum:Temp:Feuchte:
G-T/H 801 09-04-2015 16:08:18 10 C 67 %
802 09-04-2015 16:20:17 10 C 67 %
803 09-04-2015 16:32:17 10 C 67 %
804 09-04-2015 16:44:17 10 C 67 %
805 09-04-2015 16:56:17 10.1 C 68 %
806 09-04-2015 17:08:17 10.1 C 68 %
807 09-04-2015 17:20:17 10.2 C 68 %
808 09-04-2015 17:32:17 10.2 C 68 %
809 09-04-2015 17:44:17 10.2 C 68 %
810 09-04-2015 17:56:16 10.3 C 68 %
811 09-04-2015 18:08:17 10.3 C 68 %
812 09-04-2015 18:20:17 10.4 C 68 %
813 09-04-2015 18:32:17 10.4 C 68 %
814 09-04-2015 18:44:17 10.4 C 68 %
815 09-04-2015 18:56:17 10.4 C 68 %
816 09-04-2015 19:08:17 10.5 C 68 %
817 09-04-2015 19:20:17 10.5 C 68 %
818 09-04-2015 19:32:17 10.5 C 68 %
819 09-04-2015 19:44:17 10.6 C 68 %
820 09-04-2015 19:56:17 10.5 C 68 %
821 09-04-2015 20:08:17 10.5 C 68 %
822 09-04-2015 20:20:17 10.6 C 68 %
823 09-04-2015 20:32:17 10.6 C 68 %
824 09-04-2015 20:44:17 10.6 C 68 %
825 09-04-2015 20:56:17 10.6 C 68 %
Sensor: Nr:Datum:Temp:Feuchte:
G-T/H 826 09-04-2015 21:08:17 10.6 C 68 %
827 09-04-2015 21:20:17 10.6 C 68 %
828 09-04-2015 21:32:17 10.6 C 68 %
829 09-04-2015 21:44:17 10.7 C 68 %
830 09-04-2015 21:56:17 10.7 C 68 %
831 09-04-2015 22:08:17 10.7 C 68 %
832 09-04-2015 22:20:17 10.7 C 68 %
833 09-04-2015 22:32:17 10.7 C 68 %
834 09-04-2015 22:44:17 10.7 C 68 %
835 09-04-2015 22:56:17 10.7 C 68 %
836 09-04-2015 23:08:17 10.7 C 68 %
837 09-04-2015 23:20:17 10.7 C 68 %
838 09-04-2015 23:32:17 10.7 C 68 %
839 09-04-2015 23:44:17 10.7 C 68 %
840 09-04-2015 23:56:17 10.7 C 68 %
841 10-04-2015 00:08:17 10.7 C 68 %
842 10-04-2015 00:20:17 10.8 C 68 %
843 10-04-2015 00:32:17 10.7 C 68 %
844 10-04-2015 00:44:17 10.7 C 68 %
845 10-04-2015 00:56:17 10.7 C 69 %
846 10-04-2015 01:08:17 10.8 C 69 %
847 10-04-2015 01:20:17 10.7 C 69 %
848 10-04-2015 01:32:17 10.7 C 69 %
849 10-04-2015 01:44:17 10.7 C 69 %
850 10-04-2015 01:56:17 10.7 C 69 %
Sensor: Nr:Datum:Temp:Feuchte:
G-T/H 851 10-04-2015 02:08:17 10.7 C 69 %
852 10-04-2015 02:20:17 10.7 C 69 %
853 10-04-2015 02:32:17 10.7 C 69 %
854 10-04-2015 02:44:17 10.7 C 68 %
855 10-04-2015 02:56:17 10.7 C 69 %
856 10-04-2015 03:08:17 10.7 C 68 %
857 10-04-2015 03:20:17 10.7 C 68 %
858 10-04-2015 03:32:17 10.7 C 68 %
859 10-04-2015 03:44:17 10.6 C 68 %
860 10-04-2015 03:56:17 10.7 C 68 %
861 10-04-2015 04:08:18 10.6 C 68 %
862 10-04-2015 04:20:17 10.7 C 68 %
863 10-04-2015 04:32:17 10.6 C 68 %
864 10-04-2015 04:44:17 10.6 C 68 %
865 10-04-2015 04:56:17 10.6 C 68 %
866 10-04-2015 05:08:17 10.6 C 68 %
867 10-04-2015 05:20:17 10.6 C 68 %
868 10-04-2015 05:32:17 10.5 C 68 %
869 10-04-2015 05:44:17 10.6 C 68 %
870 10-04-2015 05:56:17 10.5 C 68 %
871 10-04-2015 06:08:17 10.5 C 68 %
872 10-04-2015 06:20:17 10.5 C 68 %
873 10-04-2015 06:32:17 10.5 C 68 %
874 10-04-2015 06:44:17 10.5 C 68 %
875 10-04-2015 06:56:17 10.5 C 68 %
Sensor: Nr:Datum:Temp:Feuchte:
G-T/H 876 10-04-2015 07:08:17 10.5 C 68 %
877 10-04-2015 07:20:17 10.4 C 68 %
878 10-04-2015 07:32:17 10.4 C 68 %
879 10-04-2015 07:44:17 10.4 C 68 %
880 10-04-2015 07:56:17 10.4 C 67 %
881 10-04-2015 08:08:17 10.4 C 67 %
882 10-04-2015 08:20:17 10.4 C 67 %
883 10-04-2015 08:32:17 10.4 C 67 %
884 10-04-2015 08:44:17 10.4 C 67 %
885 10-04-2015 08:56:17 10.3 C 67 %
886 10-04-2015 09:08:17 10.3 C 68 %
887 10-04-2015 09:20:17 10.3 C 68 %
888 10-04-2015 09:32:17 10.3 C 68 %
889 10-04-2015 09:44:17 10.3 C 68 %
890 10-04-2015 09:56:17 10.3 C 68 %
891 10-04-2015 10:08:17 10.3 C 68 %
892 10-04-2015 10:20:17 10.2 C 68 %
893 10-04-2015 10:32:17 10.2 C 68 %
894 10-04-2015 10:44:17 10.2 C 68 %
895 10-04-2015 10:56:17 10.2 C 68 %
896 10-04-2015 11:08:17 10.2 C 68 %
897 10-04-2015 11:20:17 10.2 C 68 %
898 10-04-2015 11:32:17 10.2 C 68 %
899 10-04-2015 11:44:17 10.3 C 68 %
900 10-04-2015 11:56:17 10.2 C 68 %
Sensor: Nr:Datum:Temp:Feuchte:
G-T/H 901 10-04-2015 12:08:17 10.3 C 68 %
902 10-04-2015 12:20:17 10.3 C 68 %
903 10-04-2015 12:32:17 10.3 C 68 %
904 10-04-2015 12:44:17 10.3 C 68 %
905 10-04-2015 12:56:17 10.4 C 68 %
906 10-04-2015 13:08:17 10.4 C 68 %
907 10-04-2015 13:20:17 10.4 C 68 %
908 10-04-2015 13:32:17 10.4 C 68 %
909 10-04-2015 13:44:17 10.5 C 69 %
910 10-04-2015 13:56:17 10.5 C 69 %
911 10-04-2015 14:08:17 10.5 C 69 %
912 10-04-2015 14:20:17 10.6 C 69 %
913 10-04-2015 14:32:17 10.6 C 69 %
914 10-04-2015 14:44:17 10.6 C 69 %
915 10-04-2015 14:57:17 10.7 C 69 %
916 10-04-2015 15:08:17 10.7 C 69 %
917 10-04-2015 15:20:17 10.7 C 69 %
918 10-04-2015 15:32:17 10.8 C 69 %
919 10-04-2015 15:44:17 10.8 C 68 %
920 10-04-2015 15:56:17 10.8 C 68 %
921 10-04-2015 16:08:17 10.9 C 68 %
922 10-04-2015 16:20:17 10.9 C 68 %
923 10-04-2015 16:32:17 11 C 68 %
924 10-04-2015 16:44:17 11 C 68 %
925 10-04-2015 16:57:17 11.1 C 68 %
Sensor: Nr:Datum:Temp:Feuchte:
G-T/H 926 10-04-2015 17:08:17 11.2 C 67 %
927 10-04-2015 17:20:17 11.1 C 67 %
928 10-04-2015 17:32:17 11.2 C 67 %
929 10-04-2015 17:44:17 11.3 C 67 %
930 10-04-2015 17:57:16 11.4 C 66 %
931 10-04-2015 18:08:17 11.4 C 66 %
932 10-04-2015 18:21:17 11.5 C 65 %
933 10-04-2015 18:44:17 11.5 C 65 %
934 10-04-2015 18:44:17 11.6 C 64 %
935 10-04-2015 18:56:17 11.6 C 64 %
936 10-04-2015 19:08:17 11.5 C 65 %
937 10-04-2015 19:21:17 11.5 C 65 %
938 10-04-2015 19:44:17 11.5 C 65 %
939 10-04-2015 19:45:17 11.4 C 65 %
940 10-04-2015 19:56:17 11.5 C 65 %
941 10-04-2015 20:08:17 11.4 C 65 %
942 10-04-2015 20:20:17 11.5 C 66 %
943 10-04-2015 20:44:17 11.5 C 66 %
944 10-04-2015 20:44:17 11.4 C 66 %
945 10-04-2015 20:56:17 11.5 C 66 %
946 10-04-2015 21:08:17 11.5 C 66 %
947 10-04-2015 21:21:17 11.5 C 66 %
948 10-04-2015 21:33:17 11.5 C 66 %
949 10-04-2015 21:45:17 11.5 C 66 %
950 10-04-2015 21:56:17 11.5 C 66 %
Sensor: Nr:Datum:Temp:Feuchte:
G-T/H 951 10-04-2015 22:08:17 11.5 C 66 %
952 10-04-2015 22:20:17 11.5 C 66 %
953 10-04-2015 22:33:17 11.5 C 66 %
954 10-04-2015 22:44:17 11.5 C 66 %
955 10-04-2015 22:56:17 11.5 C 66 %
956 10-04-2015 23:08:17 11.5 C 66 %
957 10-04-2015 23:21:17 11.5 C 66 %
958 10-04-2015 23:32:17 11.5 C 66 %
959 10-04-2015 23:44:17 11.4 C 65 %
960 10-04-2015 23:57:17 11.5 C 65 %
961 11-04-2015 00:09:17 11.5 C 65 %
962 11-04-2015 00:21:17 11.5 C 65 %
963 11-04-2015 00:44:17 11.5 C 66 %
964 11-04-2015 00:45:17 11.4 C 66 %
965 11-04-2015 00:57:17 11.4 C 66 %
966 11-04-2015 01:09:17 11.5 C 66 %
967 11-04-2015 01:20:17 11.4 C 66 %
968 11-04-2015 01:33:17 11.4 C 66 %
969 11-04-2015 01:45:17 11.4 C 66 %
970 11-04-2015 01:57:17 11.4 C 66 %
971 11-04-2015 02:09:17 11.4 C 66 %
972 11-04-2015 02:21:17 11.4 C 66 %
973 11-04-2015 02:33:17 11.4 C 66 %
974 11-04-2015 02:45:17 11.4 C 66 %
975 11-04-2015 02:57:17 11.4 C 66 %
Sensor: Nr:Datum:Temp:Feuchte:
G-T/H 976 11-04-2015 03:09:17 11.4 C 66 %
977 11-04-2015 03:21:17 11.4 C 66 %
978 11-04-2015 03:33:18 11.4 C 66 %
979 11-04-2015 03:45:17 11.4 C 66 %
980 11-04-2015 03:57:17 11.4 C 66 %
981 11-04-2015 04:09:17 11.4 C 66 %
982 11-04-2015 04:21:17 11.4 C 66 %
983 11-04-2015 04:33:17 11.3 C 66 %
984 11-04-2015 04:45:17 11.3 C 66 %
985 11-04-2015 04:57:17 11.3 C 66 %
986 11-04-2015 05:09:17 11.3 C 66 %
987 11-04-2015 05:21:17 11.3 C 66 %
988 11-04-2015 05:33:17 11.3 C 66 %
989 11-04-2015 05:45:17 11.3 C 66 %
990 11-04-2015 05:57:17 11.3 C 66 %
991 11-04-2015 06:09:17 11.2 C 65 %
992 11-04-2015 06:21:17 11.1 C 65 %
993 11-04-2015 06:33:17 11 C 64 %
994 11-04-2015 06:45:17 11 C 63 %
995 11-04-2015 06:57:17 10.9 C 63 %
996 11-04-2015 07:09:17 10.9 C 62 %
997 11-04-2015 07:21:17 11 C 62 %
998 11-04-2015 07:33:17 11 C 62 %
999 11-04-2015 07:45:17 11 C 63 %
1000 11-04-2015 07:57:17 11 C 63 %
Sensor: Nr:Datum:Temp:Feuchte:
G-T/H 1001 11-04-2015 08:09:17 11 C 63 %
1002 11-04-2015 08:21:17 11 C 64 %
1003 11-04-2015 08:33:17 11.1 C 64 %
1004 11-04-2015 08:45:17 11 C 64 %
1005 11-04-2015 08:57:17 11.1 C 65 %
1006 11-04-2015 09:09:17 11 C 65 %
1007 11-04-2015 09:21:17 11.1 C 65 %
1008 11-04-2015 09:33:17 11.1 C 65 %
1009 11-04-2015 09:45:17 11.1 C 65 %
1010 11-04-2015 09:57:17 11.1 C 65 %
1011 11-04-2015 10:09:17 11.1 C 65 %
1012 11-04-2015 10:21:17 11.1 C 66 %
1013 11-04-2015 10:33:17 11.1 C 66 %
1014 11-04-2015 10:45:17 11.1 C 66 %
1015 11-04-2015 10:57:17 11.1 C 66 %
1016 11-04-2015 11:09:17 11.1 C 66 %
1017 11-04-2015 11:21:17 11.1 C 66 %
1018 11-04-2015 11:33:17 11.1 C 66 %
1019 11-04-2015 11:45:17 11.2 C 66 %
1020 11-04-2015 11:57:17 11.2 C 66 %
1021 11-04-2015 12:09:17 11.2 C 66 %
1022 11-04-2015 12:21:17 11.2 C 66 %
1023 11-04-2015 12:33:17 11.2 C 66 %
1024 11-04-2015 12:45:17 11.2 C 67 %
1025 11-04-2015 12:57:17 11.2 C 67 %
Sensor: Nr:Datum:Temp:Feuchte:
G-T/H 1026 11-04-2015 13:09:17 11.3 C 67 %
1027 11-04-2015 13:21:17 11.3 C 67 %
1028 11-04-2015 13:33:17 11.3 C 67 %
1029 11-04-2015 13:45:17 11.3 C 67 %
1030 11-04-2015 13:57:17 11.3 C 67 %
1031 11-04-2015 14:09:17 11.4 C 67 %
1032 11-04-2015 14:21:17 11.4 C 67 %
1033 11-04-2015 14:33:17 11.4 C 67 %
1034 11-04-2015 14:45:17 11.4 C 67 %
1035 11-04-2015 14:57:17 11.5 C 67 %
1036 11-04-2015 15:09:17 11.4 C 68 %
1037 11-04-2015 15:21:17 11.5 C 68 %
1038 11-04-2015 15:33:17 11.5 C 68 %
1039 11-04-2015 15:45:17 11.5 C 68 %
1040 11-04-2015 15:57:17 11.5 C 68 %
1041 11-04-2015 16:09:17 11.6 C 68 %
1042 11-04-2015 16:21:17 11.6 C 68 %
1043 11-04-2015 16:33:17 11.6 C 68 %
1044 11-04-2015 16:45:17 11.6 C 68 %
1045 11-04-2015 16:57:17 11.7 C 68 %
1046 11-04-2015 17:09:17 11.7 C 68 %
1047 11-04-2015 17:21:17 11.7 C 68 %
1048 11-04-2015 17:33:17 11.7 C 68 %
1049 11-04-2015 17:45:17 11.7 C 68 %
1050 11-04-2015 17:57:17 11.7 C 68 %
Sensor: Nr:Datum:Temp:Feuchte:
G-T/H 1051 11-04-2015 18:09:17 11.7 C 69 %
1052 11-04-2015 18:21:17 11.7 C 69 %
1053 11-04-2015 18:33:17 11.8 C 69 %
1054 11-04-2015 18:45:17 11.8 C 69 %
1055 11-04-2015 18:57:17 11.8 C 69 %
1056 11-04-2015 19:09:17 11.8 C 69 %
1057 11-04-2015 19:21:17 11.8 C 69 %
1058 11-04-2015 19:33:17 11.8 C 69 %
1059 11-04-2015 19:45:17 11.8 C 69 %
1060 11-04-2015 19:57:17 11.8 C 69 %
1061 11-04-2015 20:09:17 11.8 C 69 %
1062 11-04-2015 20:21:17 11.8 C 69 %
1063 11-04-2015 20:33:17 11.8 C 69 %
1064 11-04-2015 20:45:17 11.8 C 69 %
1065 11-04-2015 20:57:17 11.9 C 69 %
1066 11-04-2015 21:09:17 11.9 C 69 %
1067 11-04-2015 21:21:17 11.9 C 69 %
1068 11-04-2015 21:33:17 11.9 C 69 %
1069 11-04-2015 21:45:17 11.9 C 69 %
1070 11-04-2015 21:57:17 11.9 C 69 %
1071 11-04-2015 22:09:17 11.9 C 69 %
1072 11-04-2015 22:21:17 11.9 C 69 %
1073 11-04-2015 22:33:17 11.9 C 69 %
1074 11-04-2015 22:45:17 11.9 C 69 %
1075 11-04-2015 22:57:17 11.9 C 69 %
Sensor: Nr:Datum:Temp:Feuchte:
G-T/H 1076 11-04-2015 23:09:17 11.9 C 69 %
1077 11-04-2015 23:21:17 11.8 C 69 %
1078 11-04-2015 23:33:17 11.8 C 69 %
1079 11-04-2015 23:45:17 11.8 C 69 %
1080 11-04-2015 23:57:17 11.8 C 69 %
1081 12-04-2015 00:09:17 11.8 C 69 %
1082 12-04-2015 00:21:17 11.8 C 69 %
1083 12-04-2015 00:33:17 11.8 C 69 %
1084 12-04-2015 00:45:17 11.8 C 69 %
1085 12-04-2015 00:57:17 11.8 C 69 %
1086 12-04-2015 01:09:17 11.8 C 69 %
1087 12-04-2015 01:21:16 11.8 C 69 %
1088 12-04-2015 01:33:17 11.8 C 69 %
1089 12-04-2015 01:45:17 11.8 C 69 %
1090 12-04-2015 01:57:17 11.8 C 68 %
1091 12-04-2015 02:09:17 11.8 C 69 %
1092 12-04-2015 02:21:17 11.7 C 68 %
1093 12-04-2015 02:33:17 11.7 C 68 %
1094 12-04-2015 02:45:17 11.7 C 68 %
1095 12-04-2015 02:57:17 11.7 C 68 %
1096 12-04-2015 03:09:18 11.7 C 68 %
1097 12-04-2015 03:21:17 11.7 C 68 %
1098 12-04-2015 03:33:17 11.6 C 68 %
1099 12-04-2015 03:45:16 11.7 C 68 %
1100 12-04-2015 03:57:17 11.7 C 68 %
Sensor: Nr:Datum:Temp:Feuchte:
G-T/H 1101 12-04-2015 04:09:17 11.6 C 68 %
1102 12-04-2015 04:21:17 11.6 C 67 %
1103 12-04-2015 04:33:17 11.6 C 67 %
1104 12-04-2015 04:45:17 11.6 C 67 %
1105 12-04-2015 04:57:17 11.6 C 67 %
1106 12-04-2015 05:09:18 11.5 C 67 %
1107 12-04-2015 05:21:17 11.5 C 67 %
1108 12-04-2015 05:33:17 11.5 C 67 %
1109 12-04-2015 05:45:17 11.5 C 67 %
1110 12-04-2015 05:57:17 11.4 C 67 %
1111 12-04-2015 06:09:17 11.5 C 67 %
1112 12-04-2015 06:21:16 11.4 C 67 %
1113 12-04-2015 06:33:17 11.2 C 66 %
1114 12-04-2015 06:45:17 11.1 C 66 %
1115 12-04-2015 06:57:17 11 C 65 %
1116 12-04-2015 07:09:17 10.9 C 65 %
1117 12-04-2015 07:21:17 10.9 C 65 %
1118 12-04-2015 07:33:17 10.8 C 65 %
1119 12-04-2015 07:45:17 10.8 C 64 %
1120 12-04-2015 07:57:17 10.8 C 64 %
1121 12-04-2015 08:09:17 10.9 C 65 %
1122 12-04-2015 08:21:17 11 C 64 %
1123 12-04-2015 08:33:17 11 C 64 %
1124 12-04-2015 08:45:17 11 C 64 %
1125 12-04-2015 08:57:17 11 C 65 %
Sensor: Nr:Datum:Temp:Feuchte:
G-T/H 1126 12-04-2015 09:09:17 11 C 65 %
1127 12-04-2015 09:21:17 11 C 65 %
1128 12-04-2015 09:33:17 11 C 65 %
1129 12-04-2015 09:45:16 11 C 65 %
1130 12-04-2015 09:57:16 11 C 65 %
1131 12-04-2015 10:09:17 11 C 66 %
1132 12-04-2015 10:21:17 11 C 66 %
1133 12-04-2015 10:33:17 11 C 66 %
1134 12-04-2015 10:45:17 11 C 66 %
1135 12-04-2015 10:57:17 11 C 66 %
1136 12-04-2015 11:09:17 11 C 66 %
1137 12-04-2015 11:21:17 11.1 C 67 %
1138 12-04-2015 11:33:17 11 C 67 %
1139 12-04-2015 11:45:17 11.1 C 67 %
1140 12-04-2015 11:57:17 11.1 C 67 %
1141 12-04-2015 12:09:17 11.1 C 67 %
1142 12-04-2015 12:21:17 11.1 C 67 %
1143 12-04-2015 12:33:17 11.1 C 67 %
1144 12-04-2015 12:45:17 11.1 C 67 %
1145 12-04-2015 12:57:17 11.1 C 67 %
1146 12-04-2015 13:09:17 11.1 C 67 %
1147 12-04-2015 13:21:17 11.1 C 67 %
1148 12-04-2015 13:33:17 11.1 C 67 %
1149 12-04-2015 13:45:17 11.2 C 67 %
1150 12-04-2015 13:57:17 11.2 C 67 %
Sensor: Nr:Datum:Temp:Feuchte:
G-T/H 1151 12-04-2015 14:09:17 11.2 C 67 %
1152 12-04-2015 14:21:17 11.2 C 67 %
1153 12-04-2015 14:33:17 11.2 C 67 %
1154 12-04-2015 14:45:17 11.3 C 67 %
1155 12-04-2015 14:57:17 11.3 C 67 %
1156 12-04-2015 15:09:17 11.3 C 67 %
1157 12-04-2015 15:21:17 11.4 C 67 %
1158 12-04-2015 15:33:17 11.5 C 67 %
1159 12-04-2015 15:45:17 11.4 C 67 %
1160 12-04-2015 15:57:17 11.5 C 66 %
1161 12-04-2015 16:09:17 11.5 C 66 %
1162 12-04-2015 16:21:17 11.5 C 66 %
1163 12-04-2015 16:33:17 11.6 C 66 %
1164 12-04-2015 16:45:17 11.7 C 66 %
1165 12-04-2015 16:57:17 11.7 C 66 %
1166 12-04-2015 17:09:17 11.7 C 66 %
1167 12-04-2015 17:21:17 11.7 C 66 %
1168 12-04-2015 17:33:17 11.6 C 65 %
1169 12-04-2015 17:45:17 11.7 C 65 %
1170 12-04-2015 17:57:18 11.7 C 65 %
1171 12-04-2015 18:09:17 11.6 C 66 %
1172 12-04-2015 18:21:17 11.7 C 66 %
1173 12-04-2015 18:33:17 11.7 C 66 %
1174 12-04-2015 18:45:17 11.7 C 66 %
1175 12-04-2015 18:57:17 11.7 C 66 %
Sensor: Nr:Datum:Temp:Feuchte:
G-T/H 1176 12-04-2015 19:09:17 11.8 C 66 %
1177 12-04-2015 19:21:17 11.8 C 66 %
1178 12-04-2015 19:33:17 11.8 C 66 %
1179 12-04-2015 19:45:17 11.8 C 66 %
1180 12-04-2015 19:57:17 11.8 C 67 %
1181 12-04-2015 20:09:17 11.8 C 67 %
1182 12-04-2015 20:21:17 11.8 C 67 %
1183 12-04-2015 20:33:17 11.8 C 67 %
1184 12-04-2015 20:45:17 11.8 C 67 %
1185 12-04-2015 20:57:17 11.8 C 67 %
1186 12-04-2015 21:09:17 11.8 C 67 %
1187 12-04-2015 21:21:17 11.8 C 67 %
1188 12-04-2015 21:33:17 11.8 C 67 %
1189 12-04-2015 21:45:17 11.8 C 67 %
1190 12-04-2015 21:57:17 11.8 C 67 %
1191 12-04-2015 22:09:17 11.8 C 67 %
1192 12-04-2015 22:21:17 11.8 C 67 %
1193 12-04-2015 22:33:17 11.8 C 67 %
1194 12-04-2015 22:45:17 11.8 C 67 %
1195 12-04-2015 22:57:17 11.8 C 67 %
1196 12-04-2015 23:09:17 11.7 C 67 %
1197 12-04-2015 23:21:17 11.7 C 67 %
1198 12-04-2015 23:33:17 11.7 C 67 %
1199 12-04-2015 23:45:17 11.7 C 67 %
1200 12-04-2015 23:57:17 11.8 C 67 %
Sensor: Nr:Datum:Temp:Feuchte:
G-T/